<?xml version="1.0" encoding="UTF-8" standalone="no" ?>
<gpx xmlns="http://www.topografix.com/GPX/1/1" xmlns:xsi="http://www.w3.org/2001/XMLSchema-instance" xsi:schemaLocation="http://www.topografix.com/GPX/1/1 http://www.topografix.com/GPX/1/1/gpx.xsd" version="1.1" creator="VisuGPX - https://www.visugpx.com">
  <metadata>
    <name>Le sommet du CHAMOIS par le Pas Neuf</name>
    <desc><![CDATA[Les copains randonneurs du 04
Au départ du parking du "Bois Vert", la Fare en Champsaur
Attention passage du Pas Neuf très délicat et dangereux]]></desc>
  </metadata>
  <trk>
    <name><![CDATA[CHAMOIS-06 15:10:42]]></name>
    <trkseg>
      <trkpt lat="44.66706" lon="6.0556">
        <ele>1173.91</ele>
        <time>2020-06-06T05:34:29Z</time>
      </trkpt>
      <trkpt lat="44.66706" lon="6.0556">
        <ele>1173.91</ele>
        <time>2020-06-06T05:34:30Z</time>
      </trkpt>
      <trkpt lat="44.66705" lon="6.05561">
        <ele>1171.5</ele>
        <time>2020-06-06T05:34:37Z</time>
      </trkpt>
      <trkpt lat="44.66701" lon="6.05558">
        <ele>1171.02</ele>
        <time>2020-06-06T05:35:06Z</time>
      </trkpt>
      <trkpt lat="44.66695" lon="6.05555">
        <ele>1172.47</ele>
        <time>2020-06-06T05:35:39Z</time>
      </trkpt>
      <trkpt lat="44.66695" lon="6.05557">
        <ele>1171.02</ele>
        <time>2020-06-06T05:36:04Z</time>
      </trkpt>
      <trkpt lat="44.66696" lon="6.05561">
        <ele>1172.47</ele>
        <time>2020-06-06T05:36:32Z</time>
      </trkpt>
      <trkpt lat="44.66696" lon="6.05562">
        <ele>1172.47</ele>
        <time>2020-06-06T05:36:44Z</time>
      </trkpt>
      <trkpt lat="44.66696" lon="6.05564">
        <ele>1173.43</ele>
        <time>2020-06-06T05:37:06Z</time>
      </trkpt>
      <trkpt lat="44.66695" lon="6.05565">
        <ele>1173.43</ele>
        <time>2020-06-06T05:37:21Z</time>
      </trkpt>
      <trkpt lat="44.66703" lon="6.0558">
        <ele>1171.5</ele>
        <time>2020-06-06T05:37:37Z</time>
      </trkpt>
      <trkpt lat="44.66703" lon="6.05582">
        <ele>1171.02</ele>
        <time>2020-06-06T05:37:39Z</time>
      </trkpt>
      <trkpt lat="44.66699" lon="6.05596">
        <ele>1170.54</ele>
        <time>2020-06-06T05:37:48Z</time>
      </trkpt>
      <trkpt lat="44.66692" lon="6.05615">
        <ele>1170.54</ele>
        <time>2020-06-06T05:38:05Z</time>
      </trkpt>
      <trkpt lat="44.66689" lon="6.05613">
        <ele>1171.02</ele>
        <time>2020-06-06T05:38:14Z</time>
      </trkpt>
      <trkpt lat="44.6667" lon="6.0563">
        <ele>1170.54</ele>
        <time>2020-06-06T05:38:33Z</time>
      </trkpt>
      <trkpt lat="44.66658" lon="6.0565">
        <ele>1170.54</ele>
        <time>2020-06-06T05:38:52Z</time>
      </trkpt>
      <trkpt lat="44.66653" lon="6.05658">
        <ele>1170.54</ele>
        <time>2020-06-06T05:39:05Z</time>
      </trkpt>
      <trkpt lat="44.66658" lon="6.0565">
        <ele>1170.54</ele>
        <time>2020-06-06T05:39:17Z</time>
      </trkpt>
      <trkpt lat="44.66661" lon="6.05646">
        <ele>1170.54</ele>
        <time>2020-06-06T05:39:21Z</time>
      </trkpt>
      <trkpt lat="44.66662" lon="6.05644">
        <ele>1170.54</ele>
        <time>2020-06-06T05:39:22Z</time>
      </trkpt>
      <trkpt lat="44.66664" lon="6.05641">
        <ele>1170.54</ele>
        <time>2020-06-06T05:39:24Z</time>
      </trkpt>
      <trkpt lat="44.66682" lon="6.05615">
        <ele>1171.02</ele>
        <time>2020-06-06T05:39:42Z</time>
      </trkpt>
      <trkpt lat="44.66698" lon="6.05594">
        <ele>1172.47</ele>
        <time>2020-06-06T05:39:59Z</time>
      </trkpt>
      <trkpt lat="44.66706" lon="6.05575">
        <ele>1172.95</ele>
        <time>2020-06-06T05:40:15Z</time>
      </trkpt>
      <trkpt lat="44.66699" lon="6.05573">
        <ele>1174.39</ele>
        <time>2020-06-06T05:40:31Z</time>
      </trkpt>
      <trkpt lat="44.66703" lon="6.05565">
        <ele>1174.39</ele>
        <time>2020-06-06T05:40:44Z</time>
      </trkpt>
      <trkpt lat="44.66702" lon="6.05566">
        <ele>1174.39</ele>
        <time>2020-06-06T05:40:45Z</time>
      </trkpt>
      <trkpt lat="44.66696" lon="6.05558">
        <ele>1175.83</ele>
        <time>2020-06-06T05:41:01Z</time>
      </trkpt>
      <trkpt lat="44.66694" lon="6.05561">
        <ele>1175.83</ele>
        <time>2020-06-06T05:41:19Z</time>
      </trkpt>
      <trkpt lat="44.66694" lon="6.05561">
        <ele>1176.31</ele>
        <time>2020-06-06T05:41:36Z</time>
      </trkpt>
      <trkpt lat="44.66699" lon="6.05559">
        <ele>1176.31</ele>
        <time>2020-06-06T05:41:58Z</time>
      </trkpt>
      <trkpt lat="44.66701" lon="6.05555">
        <ele>1176.79</ele>
        <time>2020-06-06T05:42:16Z</time>
      </trkpt>
      <trkpt lat="44.66713" lon="6.05549">
        <ele>1176.79</ele>
        <time>2020-06-06T05:42:37Z</time>
      </trkpt>
      <trkpt lat="44.66703" lon="6.05551">
        <ele>1177.27</ele>
        <time>2020-06-06T05:42:55Z</time>
      </trkpt>
      <trkpt lat="44.66696" lon="6.05557">
        <ele>1178.23</ele>
        <time>2020-06-06T05:43:12Z</time>
      </trkpt>
      <trkpt lat="44.66695" lon="6.05546">
        <ele>1178.71</ele>
        <time>2020-06-06T05:43:26Z</time>
      </trkpt>
      <trkpt lat="44.66694" lon="6.05524">
        <ele>1180.64</ele>
        <time>2020-06-06T05:43:42Z</time>
      </trkpt>
      <trkpt lat="44.66695" lon="6.05505">
        <ele>1183.04</ele>
        <time>2020-06-06T05:43:59Z</time>
      </trkpt>
      <trkpt lat="44.66693" lon="6.05493">
        <ele>1185.44</ele>
        <time>2020-06-06T05:44:15Z</time>
      </trkpt>
      <trkpt lat="44.66688" lon="6.05468">
        <ele>1188.33</ele>
        <time>2020-06-06T05:44:31Z</time>
      </trkpt>
      <trkpt lat="44.66682" lon="6.05446">
        <ele>1191.69</ele>
        <time>2020-06-06T05:44:54Z</time>
      </trkpt>
      <trkpt lat="44.66676" lon="6.05448">
        <ele>1193.13</ele>
        <time>2020-06-06T05:45:11Z</time>
      </trkpt>
      <trkpt lat="44.66678" lon="6.05447">
        <ele>1193.61</ele>
        <time>2020-06-06T05:45:34Z</time>
      </trkpt>
      <trkpt lat="44.66682" lon="6.05441">
        <ele>1193.61</ele>
        <time>2020-06-06T05:46:06Z</time>
      </trkpt>
      <trkpt lat="44.6668" lon="6.05452">
        <ele>1194.09</ele>
        <time>2020-06-06T05:46:39Z</time>
      </trkpt>
      <trkpt lat="44.66665" lon="6.05454">
        <ele>1195.06</ele>
        <time>2020-06-06T05:47:01Z</time>
      </trkpt>
      <trkpt lat="44.6665" lon="6.05455">
        <ele>1196.98</ele>
        <time>2020-06-06T05:47:18Z</time>
      </trkpt>
      <trkpt lat="44.66636" lon="6.05452">
        <ele>1198.9</ele>
        <time>2020-06-06T05:47:34Z</time>
      </trkpt>
      <trkpt lat="44.6662" lon="6.05452">
        <ele>1201.79</ele>
        <time>2020-06-06T05:47:50Z</time>
      </trkpt>
      <trkpt lat="44.66605" lon="6.05454">
        <ele>1204.67</ele>
        <time>2020-06-06T05:48:08Z</time>
      </trkpt>
      <trkpt lat="44.66586" lon="6.05462">
        <ele>1207.55</ele>
        <time>2020-06-06T05:48:27Z</time>
      </trkpt>
      <trkpt lat="44.66567" lon="6.0546">
        <ele>1210.44</ele>
        <time>2020-06-06T05:48:46Z</time>
      </trkpt>
      <trkpt lat="44.66556" lon="6.05454">
        <ele>1214.28</ele>
        <time>2020-06-06T05:49:05Z</time>
      </trkpt>
      <trkpt lat="44.66559" lon="6.05441">
        <ele>1217.17</ele>
        <time>2020-06-06T05:49:21Z</time>
      </trkpt>
      <trkpt lat="44.66566" lon="6.05421">
        <ele>1220.53</ele>
        <time>2020-06-06T05:49:39Z</time>
      </trkpt>
      <trkpt lat="44.66571" lon="6.05413">
        <ele>1223.9</ele>
        <time>2020-06-06T05:49:56Z</time>
      </trkpt>
      <trkpt lat="44.66577" lon="6.05399">
        <ele>1226.78</ele>
        <time>2020-06-06T05:50:15Z</time>
      </trkpt>
      <trkpt lat="44.66593" lon="6.05377">
        <ele>1229.66</ele>
        <time>2020-06-06T05:50:35Z</time>
      </trkpt>
      <trkpt lat="44.66596" lon="6.05362">
        <ele>1233.03</ele>
        <time>2020-06-06T05:50:52Z</time>
      </trkpt>
      <trkpt lat="44.66594" lon="6.05336">
        <ele>1235.91</ele>
        <time>2020-06-06T05:51:15Z</time>
      </trkpt>
      <trkpt lat="44.66599" lon="6.05309">
        <ele>1239.28</ele>
        <time>2020-06-06T05:51:37Z</time>
      </trkpt>
      <trkpt lat="44.66595" lon="6.05293">
        <ele>1242.16</ele>
        <time>2020-06-06T05:51:53Z</time>
      </trkpt>
      <trkpt lat="44.66575" lon="6.05291">
        <ele>1245.04</ele>
        <time>2020-06-06T05:52:13Z</time>
      </trkpt>
      <trkpt lat="44.66562" lon="6.05298">
        <ele>1247.93</ele>
        <time>2020-06-06T05:52:34Z</time>
      </trkpt>
      <trkpt lat="44.66549" lon="6.05295">
        <ele>1251.29</ele>
        <time>2020-06-06T05:52:59Z</time>
      </trkpt>
      <trkpt lat="44.66531" lon="6.05292">
        <ele>1255.14</ele>
        <time>2020-06-06T05:53:24Z</time>
      </trkpt>
      <trkpt lat="44.66519" lon="6.05278">
        <ele>1257.54</ele>
        <time>2020-06-06T05:53:47Z</time>
      </trkpt>
      <trkpt lat="44.66503" lon="6.05272">
        <ele>1260.91</ele>
        <time>2020-06-06T05:54:11Z</time>
      </trkpt>
      <trkpt lat="44.6649" lon="6.05268">
        <ele>1263.79</ele>
        <time>2020-06-06T05:54:34Z</time>
      </trkpt>
      <trkpt lat="44.6648" lon="6.05261">
        <ele>1266.67</ele>
        <time>2020-06-06T05:54:54Z</time>
      </trkpt>
      <trkpt lat="44.66467" lon="6.05243">
        <ele>1270.04</ele>
        <time>2020-06-06T05:55:17Z</time>
      </trkpt>
      <trkpt lat="44.6645" lon="6.05241">
        <ele>1273.4</ele>
        <time>2020-06-06T05:55:39Z</time>
      </trkpt>
      <trkpt lat="44.66443" lon="6.05218">
        <ele>1275.33</ele>
        <time>2020-06-06T05:56:01Z</time>
      </trkpt>
      <trkpt lat="44.66433" lon="6.05221">
        <ele>1276.29</ele>
        <time>2020-06-06T05:56:21Z</time>
      </trkpt>
      <trkpt lat="44.66429" lon="6.05227">
        <ele>1276.29</ele>
        <time>2020-06-06T05:56:43Z</time>
      </trkpt>
      <trkpt lat="44.66426" lon="6.05235">
        <ele>1276.29</ele>
        <time>2020-06-06T05:57:14Z</time>
      </trkpt>
      <trkpt lat="44.66413" lon="6.0524">
        <ele>1277.73</ele>
        <time>2020-06-06T05:57:35Z</time>
      </trkpt>
      <trkpt lat="44.66411" lon="6.05219">
        <ele>1279.65</ele>
        <time>2020-06-06T05:57:58Z</time>
      </trkpt>
      <trkpt lat="44.66404" lon="6.05207">
        <ele>1283.02</ele>
        <time>2020-06-06T05:58:13Z</time>
      </trkpt>
      <trkpt lat="44.66387" lon="6.05209">
        <ele>1286.38</ele>
        <time>2020-06-06T05:58:35Z</time>
      </trkpt>
      <trkpt lat="44.66374" lon="6.05211">
        <ele>1289.75</ele>
        <time>2020-06-06T05:58:56Z</time>
      </trkpt>
      <trkpt lat="44.66359" lon="6.05217">
        <ele>1292.63</ele>
        <time>2020-06-06T05:59:15Z</time>
      </trkpt>
      <trkpt lat="44.66343" lon="6.05214">
        <ele>1295.51</ele>
        <time>2020-06-06T05:59:34Z</time>
      </trkpt>
      <trkpt lat="44.66329" lon="6.05219">
        <ele>1298.88</ele>
        <time>2020-06-06T05:59:56Z</time>
      </trkpt>
      <trkpt lat="44.66316" lon="6.05214">
        <ele>1302.24</ele>
        <time>2020-06-06T06:00:18Z</time>
      </trkpt>
      <trkpt lat="44.66302" lon="6.05211">
        <ele>1305.13</ele>
        <time>2020-06-06T06:00:40Z</time>
      </trkpt>
      <trkpt lat="44.66287" lon="6.0521">
        <ele>1307.53</ele>
        <time>2020-06-06T06:01:00Z</time>
      </trkpt>
      <trkpt lat="44.66272" lon="6.05211">
        <ele>1310.9</ele>
        <time>2020-06-06T06:01:21Z</time>
      </trkpt>
      <trkpt lat="44.66259" lon="6.05212">
        <ele>1312.34</ele>
        <time>2020-06-06T06:01:38Z</time>
      </trkpt>
      <trkpt lat="44.66248" lon="6.05218">
        <ele>1314.26</ele>
        <time>2020-06-06T06:02:00Z</time>
      </trkpt>
      <trkpt lat="44.66241" lon="6.05222">
        <ele>1315.22</ele>
        <time>2020-06-06T06:02:27Z</time>
      </trkpt>
      <trkpt lat="44.66231" lon="6.05217">
        <ele>1317.62</ele>
        <time>2020-06-06T06:02:47Z</time>
      </trkpt>
      <trkpt lat="44.66213" lon="6.05219">
        <ele>1320.51</ele>
        <time>2020-06-06T06:03:08Z</time>
      </trkpt>
      <trkpt lat="44.66202" lon="6.05223">
        <ele>1323.87</ele>
        <time>2020-06-06T06:03:27Z</time>
      </trkpt>
      <trkpt lat="44.66182" lon="6.05228">
        <ele>1327.24</ele>
        <time>2020-06-06T06:03:51Z</time>
      </trkpt>
      <trkpt lat="44.66161" lon="6.05228">
        <ele>1330.12</ele>
        <time>2020-06-06T06:04:14Z</time>
      </trkpt>
      <trkpt lat="44.66148" lon="6.0522">
        <ele>1333.49</ele>
        <time>2020-06-06T06:04:34Z</time>
      </trkpt>
      <trkpt lat="44.66126" lon="6.05225">
        <ele>1336.85</ele>
        <time>2020-06-06T06:04:55Z</time>
      </trkpt>
      <trkpt lat="44.66114" lon="6.05225">
        <ele>1338.29</ele>
        <time>2020-06-06T06:05:15Z</time>
      </trkpt>
      <trkpt lat="44.66111" lon="6.0523">
        <ele>1338.77</ele>
        <time>2020-06-06T06:05:42Z</time>
      </trkpt>
      <trkpt lat="44.6611" lon="6.0523">
        <ele>1338.77</ele>
        <time>2020-06-06T06:06:09Z</time>
      </trkpt>
      <trkpt lat="44.66111" lon="6.0523">
        <ele>1339.73</ele>
        <time>2020-06-06T06:06:28Z</time>
      </trkpt>
      <trkpt lat="44.66111" lon="6.0523">
        <ele>1339.25</ele>
        <time>2020-06-06T06:06:45Z</time>
      </trkpt>
      <trkpt lat="44.66108" lon="6.05227">
        <ele>1340.22</ele>
        <time>2020-06-06T06:06:53Z</time>
      </trkpt>
      <trkpt lat="44.66102" lon="6.05225">
        <ele>1342.14</ele>
        <time>2020-06-06T06:07:08Z</time>
      </trkpt>
      <trkpt lat="44.66091" lon="6.05214">
        <ele>1345.02</ele>
        <time>2020-06-06T06:07:29Z</time>
      </trkpt>
      <trkpt lat="44.66074" lon="6.05214">
        <ele>1347.43</ele>
        <time>2020-06-06T06:07:49Z</time>
      </trkpt>
      <trkpt lat="44.66061" lon="6.05214">
        <ele>1350.31</ele>
        <time>2020-06-06T06:08:08Z</time>
      </trkpt>
      <trkpt lat="44.66048" lon="6.05213">
        <ele>1353.19</ele>
        <time>2020-06-06T06:08:26Z</time>
      </trkpt>
      <trkpt lat="44.66043" lon="6.05216">
        <ele>1354.15</ele>
        <time>2020-06-06T06:08:48Z</time>
      </trkpt>
      <trkpt lat="44.66043" lon="6.05227">
        <ele>1355.12</ele>
        <time>2020-06-06T06:09:15Z</time>
      </trkpt>
      <trkpt lat="44.66033" lon="6.05214">
        <ele>1356.56</ele>
        <time>2020-06-06T06:09:34Z</time>
      </trkpt>
      <trkpt lat="44.66019" lon="6.05207">
        <ele>1359.44</ele>
        <time>2020-06-06T06:09:53Z</time>
      </trkpt>
      <trkpt lat="44.66007" lon="6.05197">
        <ele>1362.81</ele>
        <time>2020-06-06T06:10:11Z</time>
      </trkpt>
      <trkpt lat="44.65993" lon="6.05185">
        <ele>1366.17</ele>
        <time>2020-06-06T06:10:31Z</time>
      </trkpt>
      <trkpt lat="44.6598" lon="6.05182">
        <ele>1368.09</ele>
        <time>2020-06-06T06:10:51Z</time>
      </trkpt>
      <trkpt lat="44.65969" lon="6.05177">
        <ele>1370.98</ele>
        <time>2020-06-06T06:11:07Z</time>
      </trkpt>
      <trkpt lat="44.65957" lon="6.05169">
        <ele>1373.86</ele>
        <time>2020-06-06T06:11:26Z</time>
      </trkpt>
      <trkpt lat="44.65951" lon="6.05168">
        <ele>1374.82</ele>
        <time>2020-06-06T06:11:45Z</time>
      </trkpt>
      <trkpt lat="44.6594" lon="6.05155">
        <ele>1377.23</ele>
        <time>2020-06-06T06:12:02Z</time>
      </trkpt>
      <trkpt lat="44.65933" lon="6.05149">
        <ele>1379.15</ele>
        <time>2020-06-06T06:12:19Z</time>
      </trkpt>
      <trkpt lat="44.65924" lon="6.05138">
        <ele>1382.03</ele>
        <time>2020-06-06T06:12:36Z</time>
      </trkpt>
      <trkpt lat="44.65912" lon="6.05128">
        <ele>1383.96</ele>
        <time>2020-06-06T06:12:53Z</time>
      </trkpt>
      <trkpt lat="44.659" lon="6.05119">
        <ele>1386.84</ele>
        <time>2020-06-06T06:13:10Z</time>
      </trkpt>
      <trkpt lat="44.65885" lon="6.05112">
        <ele>1389.72</ele>
        <time>2020-06-06T06:13:31Z</time>
      </trkpt>
      <trkpt lat="44.65878" lon="6.05106">
        <ele>1393.09</ele>
        <time>2020-06-06T06:13:45Z</time>
      </trkpt>
      <trkpt lat="44.65865" lon="6.051">
        <ele>1395.01</ele>
        <time>2020-06-06T06:14:02Z</time>
      </trkpt>
      <trkpt lat="44.65853" lon="6.05096">
        <ele>1398.37</ele>
        <time>2020-06-06T06:14:19Z</time>
      </trkpt>
      <trkpt lat="44.65851" lon="6.05101">
        <ele>1398.86</ele>
        <time>2020-06-06T06:14:36Z</time>
      </trkpt>
      <trkpt lat="44.65848" lon="6.05102">
        <ele>1398.86</ele>
        <time>2020-06-06T06:15:00Z</time>
      </trkpt>
      <trkpt lat="44.65839" lon="6.05101">
        <ele>1400.78</ele>
        <time>2020-06-06T06:15:14Z</time>
      </trkpt>
      <trkpt lat="44.65843" lon="6.05099">
        <ele>1403.66</ele>
        <time>2020-06-06T06:15:33Z</time>
      </trkpt>
      <trkpt lat="44.65857" lon="6.05097">
        <ele>1405.58</ele>
        <time>2020-06-06T06:15:51Z</time>
      </trkpt>
      <trkpt lat="44.65864" lon="6.05095">
        <ele>1407.51</ele>
        <time>2020-06-06T06:16:07Z</time>
      </trkpt>
      <trkpt lat="44.65878" lon="6.05088">
        <ele>1409.91</ele>
        <time>2020-06-06T06:16:26Z</time>
      </trkpt>
      <trkpt lat="44.6589" lon="6.05084">
        <ele>1412.31</ele>
        <time>2020-06-06T06:16:45Z</time>
      </trkpt>
      <trkpt lat="44.65903" lon="6.05083">
        <ele>1414.24</ele>
        <time>2020-06-06T06:17:03Z</time>
      </trkpt>
      <trkpt lat="44.65919" lon="6.05078">
        <ele>1417.12</ele>
        <time>2020-06-06T06:17:22Z</time>
      </trkpt>
      <trkpt lat="44.65926" lon="6.05077">
        <ele>1419.04</ele>
        <time>2020-06-06T06:17:39Z</time>
      </trkpt>
      <trkpt lat="44.65919" lon="6.05069">
        <ele>1420.97</ele>
        <time>2020-06-06T06:18:02Z</time>
      </trkpt>
      <trkpt lat="44.65906" lon="6.05066">
        <ele>1423.37</ele>
        <time>2020-06-06T06:18:25Z</time>
      </trkpt>
      <trkpt lat="44.65899" lon="6.05062">
        <ele>1424.81</ele>
        <time>2020-06-06T06:18:47Z</time>
      </trkpt>
      <trkpt lat="44.65891" lon="6.05055">
        <ele>1427.7</ele>
        <time>2020-06-06T06:19:04Z</time>
      </trkpt>
      <trkpt lat="44.65879" lon="6.05052">
        <ele>1431.06</ele>
        <time>2020-06-06T06:19:21Z</time>
      </trkpt>
      <trkpt lat="44.65867" lon="6.05053">
        <ele>1432.98</ele>
        <time>2020-06-06T06:19:41Z</time>
      </trkpt>
      <trkpt lat="44.65864" lon="6.05059">
        <ele>1433.94</ele>
        <time>2020-06-06T06:20:09Z</time>
      </trkpt>
      <trkpt lat="44.65855" lon="6.05049">
        <ele>1435.87</ele>
        <time>2020-06-06T06:20:28Z</time>
      </trkpt>
      <trkpt lat="44.65856" lon="6.05047">
        <ele>1437.31</ele>
        <time>2020-06-06T06:20:47Z</time>
      </trkpt>
      <trkpt lat="44.65852" lon="6.05042">
        <ele>1437.79</ele>
        <time>2020-06-06T06:21:11Z</time>
      </trkpt>
      <trkpt lat="44.65844" lon="6.05051">
        <ele>1438.27</ele>
        <time>2020-06-06T06:21:44Z</time>
      </trkpt>
      <trkpt lat="44.65847" lon="6.05048">
        <ele>1438.75</ele>
        <time>2020-06-06T06:22:12Z</time>
      </trkpt>
      <trkpt lat="44.65846" lon="6.05046">
        <ele>1439.23</ele>
        <time>2020-06-06T06:22:41Z</time>
      </trkpt>
      <trkpt lat="44.65849" lon="6.05043">
        <ele>1440.19</ele>
        <time>2020-06-06T06:23:03Z</time>
      </trkpt>
      <trkpt lat="44.65849" lon="6.05041">
        <ele>1440.19</ele>
        <time>2020-06-06T06:23:27Z</time>
      </trkpt>
      <trkpt lat="44.65848" lon="6.05038">
        <ele>1440.19</ele>
        <time>2020-06-06T06:23:48Z</time>
      </trkpt>
      <trkpt lat="44.65842" lon="6.05028">
        <ele>1442.11</ele>
        <time>2020-06-06T06:24:06Z</time>
      </trkpt>
      <trkpt lat="44.65836" lon="6.05013">
        <ele>1444.52</ele>
        <time>2020-06-06T06:24:25Z</time>
      </trkpt>
      <trkpt lat="44.65832" lon="6.04998">
        <ele>1447.88</ele>
        <time>2020-06-06T06:24:43Z</time>
      </trkpt>
      <trkpt lat="44.65824" lon="6.04991">
        <ele>1449.32</ele>
        <time>2020-06-06T06:25:01Z</time>
      </trkpt>
      <trkpt lat="44.65822" lon="6.04983">
        <ele>1451.25</ele>
        <time>2020-06-06T06:25:20Z</time>
      </trkpt>
      <trkpt lat="44.65819" lon="6.0497">
        <ele>1453.17</ele>
        <time>2020-06-06T06:25:36Z</time>
      </trkpt>
      <trkpt lat="44.65814" lon="6.04958">
        <ele>1455.09</ele>
        <time>2020-06-06T06:25:58Z</time>
      </trkpt>
      <trkpt lat="44.6581" lon="6.04939">
        <ele>1457.98</ele>
        <time>2020-06-06T06:26:19Z</time>
      </trkpt>
      <trkpt lat="44.6581" lon="6.04936">
        <ele>1460.38</ele>
        <time>2020-06-06T06:26:37Z</time>
      </trkpt>
      <trkpt lat="44.65811" lon="6.0494">
        <ele>1461.34</ele>
        <time>2020-06-06T06:26:54Z</time>
      </trkpt>
      <trkpt lat="44.6582" lon="6.04951">
        <ele>1462.78</ele>
        <time>2020-06-06T06:27:10Z</time>
      </trkpt>
      <trkpt lat="44.65829" lon="6.04962">
        <ele>1465.19</ele>
        <time>2020-06-06T06:27:26Z</time>
      </trkpt>
      <trkpt lat="44.65841" lon="6.04969">
        <ele>1468.07</ele>
        <time>2020-06-06T06:27:43Z</time>
      </trkpt>
      <trkpt lat="44.6585" lon="6.04973">
        <ele>1469.99</ele>
        <time>2020-06-06T06:28:03Z</time>
      </trkpt>
      <trkpt lat="44.65859" lon="6.04985">
        <ele>1471.92</ele>
        <time>2020-06-06T06:28:24Z</time>
      </trkpt>
      <trkpt lat="44.6587" lon="6.04991">
        <ele>1474.8</ele>
        <time>2020-06-06T06:28:40Z</time>
      </trkpt>
      <trkpt lat="44.65879" lon="6.04995">
        <ele>1476.72</ele>
        <time>2020-06-06T06:28:58Z</time>
      </trkpt>
      <trkpt lat="44.65886" lon="6.04999">
        <ele>1478.65</ele>
        <time>2020-06-06T06:29:14Z</time>
      </trkpt>
      <trkpt lat="44.65888" lon="6.04996">
        <ele>1480.57</ele>
        <time>2020-06-06T06:29:32Z</time>
      </trkpt>
      <trkpt lat="44.65882" lon="6.04983">
        <ele>1483.93</ele>
        <time>2020-06-06T06:29:51Z</time>
      </trkpt>
      <trkpt lat="44.65878" lon="6.04981">
        <ele>1484.89</ele>
        <time>2020-06-06T06:30:16Z</time>
      </trkpt>
      <trkpt lat="44.65871" lon="6.04965">
        <ele>1487.3</ele>
        <time>2020-06-06T06:30:36Z</time>
      </trkpt>
      <trkpt lat="44.65866" lon="6.04955">
        <ele>1490.66</ele>
        <time>2020-06-06T06:30:50Z</time>
      </trkpt>
      <trkpt lat="44.65856" lon="6.04941">
        <ele>1494.51</ele>
        <time>2020-06-06T06:31:09Z</time>
      </trkpt>
      <trkpt lat="44.65847" lon="6.04932">
        <ele>1497.39</ele>
        <time>2020-06-06T06:31:26Z</time>
      </trkpt>
      <trkpt lat="44.65845" lon="6.04933">
        <ele>1498.35</ele>
        <time>2020-06-06T06:31:50Z</time>
      </trkpt>
      <trkpt lat="44.65839" lon="6.04921">
        <ele>1499.79</ele>
        <time>2020-06-06T06:32:11Z</time>
      </trkpt>
      <trkpt lat="44.65832" lon="6.0491">
        <ele>1501.24</ele>
        <time>2020-06-06T06:32:31Z</time>
      </trkpt>
      <trkpt lat="44.65826" lon="6.04897">
        <ele>1502.68</ele>
        <time>2020-06-06T06:32:48Z</time>
      </trkpt>
      <trkpt lat="44.6582" lon="6.04889">
        <ele>1506.04</ele>
        <time>2020-06-06T06:33:05Z</time>
      </trkpt>
      <trkpt lat="44.65811" lon="6.04883">
        <ele>1506.04</ele>
        <time>2020-06-06T06:33:27Z</time>
      </trkpt>
      <trkpt lat="44.65802" lon="6.049">
        <ele>1507</ele>
        <time>2020-06-06T06:33:59Z</time>
      </trkpt>
      <trkpt lat="44.65794" lon="6.04899">
        <ele>1505.56</ele>
        <time>2020-06-06T06:34:10Z</time>
      </trkpt>
      <trkpt lat="44.65802" lon="6.04908">
        <ele>1505.56</ele>
        <time>2020-06-06T06:34:33Z</time>
      </trkpt>
      <trkpt lat="44.65791" lon="6.04912">
        <ele>1503.64</ele>
        <time>2020-06-06T06:34:51Z</time>
      </trkpt>
      <trkpt lat="44.65783" lon="6.04916">
        <ele>1504.6</ele>
        <time>2020-06-06T06:35:21Z</time>
      </trkpt>
      <trkpt lat="44.65789" lon="6.04902">
        <ele>1505.08</ele>
        <time>2020-06-06T06:35:51Z</time>
      </trkpt>
      <trkpt lat="44.6579" lon="6.04904">
        <ele>1505.08</ele>
        <time>2020-06-06T06:36:17Z</time>
      </trkpt>
      <trkpt lat="44.65781" lon="6.04884">
        <ele>1504.12</ele>
        <time>2020-06-06T06:36:36Z</time>
      </trkpt>
      <trkpt lat="44.65771" lon="6.04844">
        <ele>1504.12</ele>
        <time>2020-06-06T06:36:53Z</time>
      </trkpt>
      <trkpt lat="44.65769" lon="6.0483">
        <ele>1505.56</ele>
        <time>2020-06-06T06:37:04Z</time>
      </trkpt>
      <trkpt lat="44.65772" lon="6.0482">
        <ele>1507</ele>
        <time>2020-06-06T06:37:22Z</time>
      </trkpt>
      <trkpt lat="44.65757" lon="6.04823">
        <ele>1507.48</ele>
        <time>2020-06-06T06:37:53Z</time>
      </trkpt>
      <trkpt lat="44.65752" lon="6.04821">
        <ele>1507.97</ele>
        <time>2020-06-06T06:38:23Z</time>
      </trkpt>
      <trkpt lat="44.6577" lon="6.04826">
        <ele>1508.45</ele>
        <time>2020-06-06T06:38:41Z</time>
      </trkpt>
      <trkpt lat="44.65777" lon="6.04826">
        <ele>1511.81</ele>
        <time>2020-06-06T06:39:00Z</time>
      </trkpt>
      <trkpt lat="44.65782" lon="6.0481">
        <ele>1514.69</ele>
        <time>2020-06-06T06:39:19Z</time>
      </trkpt>
      <trkpt lat="44.65781" lon="6.04797">
        <ele>1517.1</ele>
        <time>2020-06-06T06:39:36Z</time>
      </trkpt>
      <trkpt lat="44.6577" lon="6.04785">
        <ele>1519.02</ele>
        <time>2020-06-06T06:39:54Z</time>
      </trkpt>
      <trkpt lat="44.65762" lon="6.04779">
        <ele>1521.9</ele>
        <time>2020-06-06T06:40:15Z</time>
      </trkpt>
      <trkpt lat="44.6574" lon="6.04778">
        <ele>1525.27</ele>
        <time>2020-06-06T06:40:31Z</time>
      </trkpt>
      <trkpt lat="44.65676" lon="6.0477">
        <ele>1525.27</ele>
        <time>2020-06-06T06:40:53Z</time>
      </trkpt>
      <trkpt lat="44.65686" lon="6.04774">
        <ele>1526.23</ele>
        <time>2020-06-06T06:41:18Z</time>
      </trkpt>
      <trkpt lat="44.65687" lon="6.04777">
        <ele>1527.67</ele>
        <time>2020-06-06T06:41:45Z</time>
      </trkpt>
      <trkpt lat="44.65693" lon="6.04777">
        <ele>1529.11</ele>
        <time>2020-06-06T06:42:01Z</time>
      </trkpt>
      <trkpt lat="44.65684" lon="6.0477">
        <ele>1531.52</ele>
        <time>2020-06-06T06:42:18Z</time>
      </trkpt>
      <trkpt lat="44.65679" lon="6.04762">
        <ele>1533.92</ele>
        <time>2020-06-06T06:42:35Z</time>
      </trkpt>
      <trkpt lat="44.65676" lon="6.04751">
        <ele>1535.84</ele>
        <time>2020-06-06T06:42:49Z</time>
      </trkpt>
      <trkpt lat="44.65651" lon="6.04746">
        <ele>1537.29</ele>
        <time>2020-06-06T06:43:14Z</time>
      </trkpt>
      <trkpt lat="44.65626" lon="6.04733">
        <ele>1539.69</ele>
        <time>2020-06-06T06:43:44Z</time>
      </trkpt>
      <trkpt lat="44.65637" lon="6.04725">
        <ele>1542.57</ele>
        <time>2020-06-06T06:43:54Z</time>
      </trkpt>
      <trkpt lat="44.65655" lon="6.04712">
        <ele>1545.94</ele>
        <time>2020-06-06T06:44:09Z</time>
      </trkpt>
      <trkpt lat="44.65682" lon="6.04704">
        <ele>1549.3</ele>
        <time>2020-06-06T06:44:24Z</time>
      </trkpt>
      <trkpt lat="44.65701" lon="6.04687">
        <ele>1552.19</ele>
        <time>2020-06-06T06:44:40Z</time>
      </trkpt>
      <trkpt lat="44.65722" lon="6.04674">
        <ele>1555.55</ele>
        <time>2020-06-06T06:44:55Z</time>
      </trkpt>
      <trkpt lat="44.65737" lon="6.04668">
        <ele>1556.51</ele>
        <time>2020-06-06T06:45:12Z</time>
      </trkpt>
      <trkpt lat="44.65738" lon="6.04682">
        <ele>1559.88</ele>
        <time>2020-06-06T06:45:26Z</time>
      </trkpt>
      <trkpt lat="44.65754" lon="6.04699">
        <ele>1563.24</ele>
        <time>2020-06-06T06:45:44Z</time>
      </trkpt>
      <trkpt lat="44.65785" lon="6.04722">
        <ele>1566.12</ele>
        <time>2020-06-06T06:46:02Z</time>
      </trkpt>
      <trkpt lat="44.65805" lon="6.04743">
        <ele>1569.49</ele>
        <time>2020-06-06T06:46:25Z</time>
      </trkpt>
      <trkpt lat="44.65816" lon="6.04758">
        <ele>1572.37</ele>
        <time>2020-06-06T06:46:48Z</time>
      </trkpt>
      <trkpt lat="44.65827" lon="6.04764">
        <ele>1574.78</ele>
        <time>2020-06-06T06:47:10Z</time>
      </trkpt>
      <trkpt lat="44.65829" lon="6.04772">
        <ele>1575.74</ele>
        <time>2020-06-06T06:47:35Z</time>
      </trkpt>
      <trkpt lat="44.65829" lon="6.0479">
        <ele>1578.62</ele>
        <time>2020-06-06T06:47:53Z</time>
      </trkpt>
      <trkpt lat="44.65826" lon="6.04795">
        <ele>1580.54</ele>
        <time>2020-06-06T06:48:08Z</time>
      </trkpt>
      <trkpt lat="44.65782" lon="6.04788">
        <ele>1583.91</ele>
        <time>2020-06-06T06:48:27Z</time>
      </trkpt>
      <trkpt lat="44.65754" lon="6.04799">
        <ele>1587.27</ele>
        <time>2020-06-06T06:48:50Z</time>
      </trkpt>
      <trkpt lat="44.65701" lon="6.04779">
        <ele>1589.2</ele>
        <time>2020-06-06T06:49:14Z</time>
      </trkpt>
      <trkpt lat="44.65684" lon="6.04752">
        <ele>1591.6</ele>
        <time>2020-06-06T06:49:35Z</time>
      </trkpt>
      <trkpt lat="44.6571" lon="6.04781">
        <ele>1593.04</ele>
        <time>2020-06-06T06:49:54Z</time>
      </trkpt>
      <trkpt lat="44.65757" lon="6.04809">
        <ele>1595.45</ele>
        <time>2020-06-06T06:50:14Z</time>
      </trkpt>
      <trkpt lat="44.65781" lon="6.04807">
        <ele>1597.85</ele>
        <time>2020-06-06T06:50:30Z</time>
      </trkpt>
      <trkpt lat="44.65793" lon="6.04797">
        <ele>1599.77</ele>
        <time>2020-06-06T06:50:46Z</time>
      </trkpt>
      <trkpt lat="44.65801" lon="6.04784">
        <ele>1601.69</ele>
        <time>2020-06-06T06:51:04Z</time>
      </trkpt>
      <trkpt lat="44.65806" lon="6.04776">
        <ele>1605.06</ele>
        <time>2020-06-06T06:51:21Z</time>
      </trkpt>
      <trkpt lat="44.6581" lon="6.04761">
        <ele>1607.94</ele>
        <time>2020-06-06T06:51:38Z</time>
      </trkpt>
      <trkpt lat="44.65817" lon="6.04743">
        <ele>1611.31</ele>
        <time>2020-06-06T06:51:57Z</time>
      </trkpt>
      <trkpt lat="44.65827" lon="6.04731">
        <ele>1613.23</ele>
        <time>2020-06-06T06:52:13Z</time>
      </trkpt>
      <trkpt lat="44.65839" lon="6.04719">
        <ele>1615.63</ele>
        <time>2020-06-06T06:52:29Z</time>
      </trkpt>
      <trkpt lat="44.65845" lon="6.04704">
        <ele>1618.04</ele>
        <time>2020-06-06T06:52:47Z</time>
      </trkpt>
      <trkpt lat="44.65851" lon="6.04693">
        <ele>1620.92</ele>
        <time>2020-06-06T06:53:08Z</time>
      </trkpt>
      <trkpt lat="44.65859" lon="6.04681">
        <ele>1623.32</ele>
        <time>2020-06-06T06:53:30Z</time>
      </trkpt>
      <trkpt lat="44.65865" lon="6.04668">
        <ele>1625.73</ele>
        <time>2020-06-06T06:53:50Z</time>
      </trkpt>
      <trkpt lat="44.65877" lon="6.0465">
        <ele>1629.57</ele>
        <time>2020-06-06T06:54:13Z</time>
      </trkpt>
      <trkpt lat="44.65887" lon="6.04631">
        <ele>1632.46</ele>
        <time>2020-06-06T06:54:33Z</time>
      </trkpt>
      <trkpt lat="44.65899" lon="6.0462">
        <ele>1633.9</ele>
        <time>2020-06-06T06:54:54Z</time>
      </trkpt>
      <trkpt lat="44.65897" lon="6.04612">
        <ele>1635.34</ele>
        <time>2020-06-06T06:55:10Z</time>
      </trkpt>
      <trkpt lat="44.65879" lon="6.04599">
        <ele>1637.74</ele>
        <time>2020-06-06T06:55:29Z</time>
      </trkpt>
      <trkpt lat="44.65871" lon="6.04593">
        <ele>1639.67</ele>
        <time>2020-06-06T06:55:48Z</time>
      </trkpt>
      <trkpt lat="44.65865" lon="6.04585">
        <ele>1641.11</ele>
        <time>2020-06-06T06:56:13Z</time>
      </trkpt>
      <trkpt lat="44.65867" lon="6.0457">
        <ele>1643.99</ele>
        <time>2020-06-06T06:56:34Z</time>
      </trkpt>
      <trkpt lat="44.65866" lon="6.04562">
        <ele>1644.95</ele>
        <time>2020-06-06T06:56:53Z</time>
      </trkpt>
      <trkpt lat="44.65867" lon="6.04553">
        <ele>1646.4</ele>
        <time>2020-06-06T06:57:14Z</time>
      </trkpt>
      <trkpt lat="44.65863" lon="6.04539">
        <ele>1649.28</ele>
        <time>2020-06-06T06:57:34Z</time>
      </trkpt>
      <trkpt lat="44.6587" lon="6.04525">
        <ele>1652.16</ele>
        <time>2020-06-06T06:57:53Z</time>
      </trkpt>
      <trkpt lat="44.65875" lon="6.04516">
        <ele>1654.57</ele>
        <time>2020-06-06T06:58:13Z</time>
      </trkpt>
      <trkpt lat="44.65879" lon="6.04532">
        <ele>1656.97</ele>
        <time>2020-06-06T06:58:32Z</time>
      </trkpt>
      <trkpt lat="44.65883" lon="6.04551">
        <ele>1659.85</ele>
        <time>2020-06-06T06:58:51Z</time>
      </trkpt>
      <trkpt lat="44.65896" lon="6.04566">
        <ele>1662.74</ele>
        <time>2020-06-06T06:59:13Z</time>
      </trkpt>
      <trkpt lat="44.65907" lon="6.04574">
        <ele>1665.14</ele>
        <time>2020-06-06T06:59:32Z</time>
      </trkpt>
      <trkpt lat="44.65918" lon="6.04577">
        <ele>1668.02</ele>
        <time>2020-06-06T06:59:50Z</time>
      </trkpt>
      <trkpt lat="44.65934" lon="6.04583">
        <ele>1670.91</ele>
        <time>2020-06-06T07:00:10Z</time>
      </trkpt>
      <trkpt lat="44.65945" lon="6.04583">
        <ele>1671.87</ele>
        <time>2020-06-06T07:00:26Z</time>
      </trkpt>
      <trkpt lat="44.6595" lon="6.04584">
        <ele>1672.83</ele>
        <time>2020-06-06T07:00:44Z</time>
      </trkpt>
      <trkpt lat="44.6595" lon="6.04583">
        <ele>1670.43</ele>
        <time>2020-06-06T07:00:59Z</time>
      </trkpt>
      <trkpt lat="44.6595" lon="6.04583">
        <ele>1674.75</ele>
        <time>2020-06-06T07:01:00Z</time>
      </trkpt>
      <trkpt lat="44.65947" lon="6.04589">
        <ele>1673.31</ele>
        <time>2020-06-06T07:01:12Z</time>
      </trkpt>
      <trkpt lat="44.65944" lon="6.04592">
        <ele>1674.75</ele>
        <time>2020-06-06T07:01:26Z</time>
      </trkpt>
      <trkpt lat="44.65941" lon="6.04613">
        <ele>1676.68</ele>
        <time>2020-06-06T07:01:43Z</time>
      </trkpt>
      <trkpt lat="44.65951" lon="6.04634">
        <ele>1678.12</ele>
        <time>2020-06-06T07:02:03Z</time>
      </trkpt>
      <trkpt lat="44.65954" lon="6.04656">
        <ele>1678.6</ele>
        <time>2020-06-06T07:02:22Z</time>
      </trkpt>
      <trkpt lat="44.65953" lon="6.04675">
        <ele>1681</ele>
        <time>2020-06-06T07:02:41Z</time>
      </trkpt>
      <trkpt lat="44.65958" lon="6.04672">
        <ele>1681.48</ele>
        <time>2020-06-06T07:03:03Z</time>
      </trkpt>
      <trkpt lat="44.65965" lon="6.04655">
        <ele>1683.89</ele>
        <time>2020-06-06T07:03:24Z</time>
      </trkpt>
      <trkpt lat="44.65965" lon="6.04645">
        <ele>1684.85</ele>
        <time>2020-06-06T07:03:33Z</time>
      </trkpt>
      <trkpt lat="44.6596" lon="6.04626">
        <ele>1686.77</ele>
        <time>2020-06-06T07:03:52Z</time>
      </trkpt>
      <trkpt lat="44.65961" lon="6.04618">
        <ele>1688.69</ele>
        <time>2020-06-06T07:04:07Z</time>
      </trkpt>
      <trkpt lat="44.65967" lon="6.04622">
        <ele>1688.69</ele>
        <time>2020-06-06T07:04:35Z</time>
      </trkpt>
      <trkpt lat="44.65974" lon="6.0463">
        <ele>1690.62</ele>
        <time>2020-06-06T07:04:54Z</time>
      </trkpt>
      <trkpt lat="44.65979" lon="6.04642">
        <ele>1692.54</ele>
        <time>2020-06-06T07:05:12Z</time>
      </trkpt>
      <trkpt lat="44.65981" lon="6.04643">
        <ele>1695.42</ele>
        <time>2020-06-06T07:05:34Z</time>
      </trkpt>
      <trkpt lat="44.65984" lon="6.04631">
        <ele>1698.31</ele>
        <time>2020-06-06T07:05:53Z</time>
      </trkpt>
      <trkpt lat="44.65986" lon="6.04615">
        <ele>1701.19</ele>
        <time>2020-06-06T07:06:11Z</time>
      </trkpt>
      <trkpt lat="44.65985" lon="6.04609">
        <ele>1703.11</ele>
        <time>2020-06-06T07:06:29Z</time>
      </trkpt>
      <trkpt lat="44.65989" lon="6.04622">
        <ele>1705.52</ele>
        <time>2020-06-06T07:06:51Z</time>
      </trkpt>
      <trkpt lat="44.65997" lon="6.04627">
        <ele>1708.88</ele>
        <time>2020-06-06T07:07:11Z</time>
      </trkpt>
      <trkpt lat="44.66005" lon="6.04639">
        <ele>1711.28</ele>
        <time>2020-06-06T07:07:28Z</time>
      </trkpt>
      <trkpt lat="44.6601" lon="6.04646">
        <ele>1712.25</ele>
        <time>2020-06-06T07:07:41Z</time>
      </trkpt>
      <trkpt lat="44.66015" lon="6.04656">
        <ele>1713.69</ele>
        <time>2020-06-06T07:07:54Z</time>
      </trkpt>
      <trkpt lat="44.66013" lon="6.04668">
        <ele>1715.13</ele>
        <time>2020-06-06T07:08:10Z</time>
      </trkpt>
      <trkpt lat="44.66008" lon="6.04679">
        <ele>1718.01</ele>
        <time>2020-06-06T07:08:28Z</time>
      </trkpt>
      <trkpt lat="44.66007" lon="6.04692">
        <ele>1719.94</ele>
        <time>2020-06-06T07:08:44Z</time>
      </trkpt>
      <trkpt lat="44.66006" lon="6.04708">
        <ele>1722.34</ele>
        <time>2020-06-06T07:09:02Z</time>
      </trkpt>
      <trkpt lat="44.66006" lon="6.04722">
        <ele>1723.78</ele>
        <time>2020-06-06T07:09:17Z</time>
      </trkpt>
      <trkpt lat="44.66013" lon="6.04737">
        <ele>1726.18</ele>
        <time>2020-06-06T07:09:34Z</time>
      </trkpt>
      <trkpt lat="44.66016" lon="6.0475">
        <ele>1728.11</ele>
        <time>2020-06-06T07:09:51Z</time>
      </trkpt>
      <trkpt lat="44.66015" lon="6.04761">
        <ele>1730.51</ele>
        <time>2020-06-06T07:10:07Z</time>
      </trkpt>
      <trkpt lat="44.66015" lon="6.04774">
        <ele>1732.91</ele>
        <time>2020-06-06T07:10:24Z</time>
      </trkpt>
      <trkpt lat="44.66012" lon="6.04789">
        <ele>1734.36</ele>
        <time>2020-06-06T07:10:42Z</time>
      </trkpt>
      <trkpt lat="44.66016" lon="6.04806">
        <ele>1736.28</ele>
        <time>2020-06-06T07:11:00Z</time>
      </trkpt>
      <trkpt lat="44.66022" lon="6.0482">
        <ele>1737.72</ele>
        <time>2020-06-06T07:11:17Z</time>
      </trkpt>
      <trkpt lat="44.66027" lon="6.04834">
        <ele>1739.16</ele>
        <time>2020-06-06T07:11:35Z</time>
      </trkpt>
      <trkpt lat="44.66027" lon="6.04837">
        <ele>1739.64</ele>
        <time>2020-06-06T07:11:54Z</time>
      </trkpt>
      <trkpt lat="44.66027" lon="6.04835">
        <ele>1739.64</ele>
        <time>2020-06-06T07:12:16Z</time>
      </trkpt>
      <trkpt lat="44.66027" lon="6.04835">
        <ele>1739.64</ele>
        <time>2020-06-06T07:12:43Z</time>
      </trkpt>
      <trkpt lat="44.66029" lon="6.04834">
        <ele>1739.64</ele>
        <time>2020-06-06T07:13:21Z</time>
      </trkpt>
      <trkpt lat="44.6603" lon="6.04834">
        <ele>1739.64</ele>
        <time>2020-06-06T07:13:39Z</time>
      </trkpt>
      <trkpt lat="44.6603" lon="6.04829">
        <ele>1739.64</ele>
        <time>2020-06-06T07:13:53Z</time>
      </trkpt>
      <trkpt lat="44.66032" lon="6.04815">
        <ele>1742.05</ele>
        <time>2020-06-06T07:14:10Z</time>
      </trkpt>
      <trkpt lat="44.66035" lon="6.04802">
        <ele>1744.45</ele>
        <time>2020-06-06T07:14:25Z</time>
      </trkpt>
      <trkpt lat="44.6604" lon="6.04787">
        <ele>1746.37</ele>
        <time>2020-06-06T07:14:42Z</time>
      </trkpt>
      <trkpt lat="44.66044" lon="6.04777">
        <ele>1747.33</ele>
        <time>2020-06-06T07:14:55Z</time>
      </trkpt>
      <trkpt lat="44.6605" lon="6.04766">
        <ele>1750.22</ele>
        <time>2020-06-06T07:15:11Z</time>
      </trkpt>
      <trkpt lat="44.66057" lon="6.04753">
        <ele>1752.62</ele>
        <time>2020-06-06T07:15:30Z</time>
      </trkpt>
      <trkpt lat="44.66064" lon="6.0474">
        <ele>1754.54</ele>
        <time>2020-06-06T07:15:46Z</time>
      </trkpt>
      <trkpt lat="44.6607" lon="6.04741">
        <ele>1755.99</ele>
        <time>2020-06-06T07:16:01Z</time>
      </trkpt>
      <trkpt lat="44.6607" lon="6.04765">
        <ele>1757.91</ele>
        <time>2020-06-06T07:16:21Z</time>
      </trkpt>
      <trkpt lat="44.66072" lon="6.04778">
        <ele>1760.31</ele>
        <time>2020-06-06T07:16:38Z</time>
      </trkpt>
      <trkpt lat="44.66075" lon="6.04794">
        <ele>1762.23</ele>
        <time>2020-06-06T07:16:54Z</time>
      </trkpt>
      <trkpt lat="44.66079" lon="6.0481">
        <ele>1764.16</ele>
        <time>2020-06-06T07:17:11Z</time>
      </trkpt>
      <trkpt lat="44.66083" lon="6.04811">
        <ele>1765.6</ele>
        <time>2020-06-06T07:17:27Z</time>
      </trkpt>
      <trkpt lat="44.66085" lon="6.04808">
        <ele>1765.6</ele>
        <time>2020-06-06T07:17:44Z</time>
      </trkpt>
      <trkpt lat="44.66092" lon="6.04807">
        <ele>1768.96</ele>
        <time>2020-06-06T07:17:58Z</time>
      </trkpt>
      <trkpt lat="44.66092" lon="6.04808">
        <ele>1769.44</ele>
        <time>2020-06-06T07:18:15Z</time>
      </trkpt>
      <trkpt lat="44.66096" lon="6.048">
        <ele>1769.92</ele>
        <time>2020-06-06T07:18:38Z</time>
      </trkpt>
      <trkpt lat="44.66104" lon="6.04786">
        <ele>1771.85</ele>
        <time>2020-06-06T07:18:54Z</time>
      </trkpt>
      <trkpt lat="44.66111" lon="6.0478">
        <ele>1774.73</ele>
        <time>2020-06-06T07:19:06Z</time>
      </trkpt>
      <trkpt lat="44.66115" lon="6.04777">
        <ele>1776.17</ele>
        <time>2020-06-06T07:19:25Z</time>
      </trkpt>
      <trkpt lat="44.66109" lon="6.04783">
        <ele>1774.25</ele>
        <time>2020-06-06T07:19:43Z</time>
      </trkpt>
      <trkpt lat="44.66113" lon="6.04775">
        <ele>1775.69</ele>
        <time>2020-06-06T07:19:54Z</time>
      </trkpt>
      <trkpt lat="44.66114" lon="6.04774">
        <ele>1777.13</ele>
        <time>2020-06-06T07:20:13Z</time>
      </trkpt>
      <trkpt lat="44.66115" lon="6.04775">
        <ele>1775.69</ele>
        <time>2020-06-06T07:20:18Z</time>
      </trkpt>
      <trkpt lat="44.66113" lon="6.04775">
        <ele>1775.21</ele>
        <time>2020-06-06T07:39:29Z</time>
      </trkpt>
      <trkpt lat="44.66102" lon="6.04775">
        <ele>1775.21</ele>
        <time>2020-06-06T07:39:30Z</time>
      </trkpt>
      <trkpt lat="44.66113" lon="6.04775">
        <ele>1775.21</ele>
        <time>2020-06-06T07:39:52Z</time>
      </trkpt>
      <trkpt lat="44.66113" lon="6.04773">
        <ele>1776.65</ele>
        <time>2020-06-06T07:40:19Z</time>
      </trkpt>
      <trkpt lat="44.66114" lon="6.04773">
        <ele>1776.65</ele>
        <time>2020-06-06T07:40:29Z</time>
      </trkpt>
      <trkpt lat="44.66114" lon="6.04773">
        <ele>1776.65</ele>
        <time>2020-06-06T07:40:45Z</time>
      </trkpt>
      <trkpt lat="44.66116" lon="6.04766">
        <ele>1777.13</ele>
        <time>2020-06-06T07:41:01Z</time>
      </trkpt>
      <trkpt lat="44.66115" lon="6.04764">
        <ele>1775.69</ele>
        <time>2020-06-06T07:41:05Z</time>
      </trkpt>
      <trkpt lat="44.66121" lon="6.0475">
        <ele>1776.65</ele>
        <time>2020-06-06T07:41:19Z</time>
      </trkpt>
      <trkpt lat="44.66128" lon="6.04742">
        <ele>1778.1</ele>
        <time>2020-06-06T07:41:35Z</time>
      </trkpt>
      <trkpt lat="44.66141" lon="6.04738">
        <ele>1780.02</ele>
        <time>2020-06-06T07:41:52Z</time>
      </trkpt>
      <trkpt lat="44.66148" lon="6.04728">
        <ele>1781.46</ele>
        <time>2020-06-06T07:42:07Z</time>
      </trkpt>
      <trkpt lat="44.66155" lon="6.0471">
        <ele>1780.5</ele>
        <time>2020-06-06T07:42:24Z</time>
      </trkpt>
      <trkpt lat="44.66166" lon="6.04672">
        <ele>1780.5</ele>
        <time>2020-06-06T07:42:46Z</time>
      </trkpt>
      <trkpt lat="44.66161" lon="6.04655">
        <ele>1781.94</ele>
        <time>2020-06-06T07:43:03Z</time>
      </trkpt>
      <trkpt lat="44.66154" lon="6.04642">
        <ele>1782.9</ele>
        <time>2020-06-06T07:43:18Z</time>
      </trkpt>
      <trkpt lat="44.66149" lon="6.04625">
        <ele>1783.86</ele>
        <time>2020-06-06T07:43:32Z</time>
      </trkpt>
      <trkpt lat="44.6615" lon="6.04609">
        <ele>1786.27</ele>
        <time>2020-06-06T07:43:48Z</time>
      </trkpt>
      <trkpt lat="44.66153" lon="6.04589">
        <ele>1788.19</ele>
        <time>2020-06-06T07:44:06Z</time>
      </trkpt>
      <trkpt lat="44.66158" lon="6.04568">
        <ele>1789.15</ele>
        <time>2020-06-06T07:44:23Z</time>
      </trkpt>
      <trkpt lat="44.66161" lon="6.04552">
        <ele>1789.15</ele>
        <time>2020-06-06T07:44:38Z</time>
      </trkpt>
      <trkpt lat="44.66162" lon="6.04548">
        <ele>1787.71</ele>
        <time>2020-06-06T07:44:41Z</time>
      </trkpt>
      <trkpt lat="44.66163" lon="6.04544">
        <ele>1787.71</ele>
        <time>2020-06-06T07:44:55Z</time>
      </trkpt>
      <trkpt lat="44.66167" lon="6.04536">
        <ele>1787.71</ele>
        <time>2020-06-06T07:45:15Z</time>
      </trkpt>
      <trkpt lat="44.66167" lon="6.04536">
        <ele>1787.71</ele>
        <time>2020-06-06T07:45:16Z</time>
      </trkpt>
      <trkpt lat="44.66175" lon="6.04523">
        <ele>1787.71</ele>
        <time>2020-06-06T07:45:30Z</time>
      </trkpt>
      <trkpt lat="44.66176" lon="6.04522">
        <ele>1787.71</ele>
        <time>2020-06-06T07:45:32Z</time>
      </trkpt>
      <trkpt lat="44.6618" lon="6.04514">
        <ele>1787.71</ele>
        <time>2020-06-06T07:45:39Z</time>
      </trkpt>
      <trkpt lat="44.66184" lon="6.0451">
        <ele>1787.71</ele>
        <time>2020-06-06T07:45:45Z</time>
      </trkpt>
      <trkpt lat="44.66184" lon="6.04508">
        <ele>1787.71</ele>
        <time>2020-06-06T07:45:47Z</time>
      </trkpt>
      <trkpt lat="44.66188" lon="6.04503">
        <ele>1787.71</ele>
        <time>2020-06-06T07:45:57Z</time>
      </trkpt>
      <trkpt lat="44.6619" lon="6.04494">
        <ele>1787.71</ele>
        <time>2020-06-06T07:46:07Z</time>
      </trkpt>
      <trkpt lat="44.66191" lon="6.04491">
        <ele>1788.67</ele>
        <time>2020-06-06T07:46:09Z</time>
      </trkpt>
      <trkpt lat="44.66194" lon="6.0448">
        <ele>1789.63</ele>
        <time>2020-06-06T07:46:23Z</time>
      </trkpt>
      <trkpt lat="44.66195" lon="6.04481">
        <ele>1790.11</ele>
        <time>2020-06-06T07:46:45Z</time>
      </trkpt>
      <trkpt lat="44.66196" lon="6.0448">
        <ele>1790.11</ele>
        <time>2020-06-06T07:47:02Z</time>
      </trkpt>
      <trkpt lat="44.66196" lon="6.04465">
        <ele>1790.11</ele>
        <time>2020-06-06T07:47:20Z</time>
      </trkpt>
      <trkpt lat="44.66197" lon="6.04444">
        <ele>1790.59</ele>
        <time>2020-06-06T07:47:37Z</time>
      </trkpt>
      <trkpt lat="44.66199" lon="6.04425">
        <ele>1791.07</ele>
        <time>2020-06-06T07:47:54Z</time>
      </trkpt>
      <trkpt lat="44.66198" lon="6.04404">
        <ele>1791.07</ele>
        <time>2020-06-06T07:48:12Z</time>
      </trkpt>
      <trkpt lat="44.66211" lon="6.0438">
        <ele>1791.07</ele>
        <time>2020-06-06T07:48:31Z</time>
      </trkpt>
      <trkpt lat="44.66214" lon="6.04356">
        <ele>1791.07</ele>
        <time>2020-06-06T07:48:51Z</time>
      </trkpt>
      <trkpt lat="44.66217" lon="6.04338">
        <ele>1791.55</ele>
        <time>2020-06-06T07:49:07Z</time>
      </trkpt>
      <trkpt lat="44.66225" lon="6.04318">
        <ele>1792.03</ele>
        <time>2020-06-06T07:49:24Z</time>
      </trkpt>
      <trkpt lat="44.66225" lon="6.04304">
        <ele>1792.03</ele>
        <time>2020-06-06T07:49:37Z</time>
      </trkpt>
      <trkpt lat="44.66222" lon="6.04289">
        <ele>1792.52</ele>
        <time>2020-06-06T07:49:53Z</time>
      </trkpt>
      <trkpt lat="44.6623" lon="6.04277">
        <ele>1792.52</ele>
        <time>2020-06-06T07:50:09Z</time>
      </trkpt>
      <trkpt lat="44.66234" lon="6.04273">
        <ele>1793</ele>
        <time>2020-06-06T07:50:27Z</time>
      </trkpt>
      <trkpt lat="44.66233" lon="6.0427">
        <ele>1793.48</ele>
        <time>2020-06-06T07:50:49Z</time>
      </trkpt>
      <trkpt lat="44.66235" lon="6.0426">
        <ele>1793.48</ele>
        <time>2020-06-06T07:51:03Z</time>
      </trkpt>
      <trkpt lat="44.66236" lon="6.04236">
        <ele>1794.44</ele>
        <time>2020-06-06T07:51:22Z</time>
      </trkpt>
      <trkpt lat="44.66237" lon="6.04229">
        <ele>1794.44</ele>
        <time>2020-06-06T07:51:35Z</time>
      </trkpt>
      <trkpt lat="44.66242" lon="6.04215">
        <ele>1794.92</ele>
        <time>2020-06-06T07:51:51Z</time>
      </trkpt>
      <trkpt lat="44.66243" lon="6.04205">
        <ele>1794.92</ele>
        <time>2020-06-06T07:52:09Z</time>
      </trkpt>
      <trkpt lat="44.66243" lon="6.04205">
        <ele>1794.92</ele>
        <time>2020-06-06T07:52:26Z</time>
      </trkpt>
      <trkpt lat="44.66247" lon="6.04194">
        <ele>1794.92</ele>
        <time>2020-06-06T07:52:46Z</time>
      </trkpt>
      <trkpt lat="44.6625" lon="6.0419">
        <ele>1793.48</ele>
        <time>2020-06-06T07:52:54Z</time>
      </trkpt>
      <trkpt lat="44.66257" lon="6.04187">
        <ele>1792.52</ele>
        <time>2020-06-06T07:53:08Z</time>
      </trkpt>
      <trkpt lat="44.66264" lon="6.04186">
        <ele>1794.44</ele>
        <time>2020-06-06T07:53:31Z</time>
      </trkpt>
      <trkpt lat="44.66266" lon="6.04173">
        <ele>1794.92</ele>
        <time>2020-06-06T07:53:48Z</time>
      </trkpt>
      <trkpt lat="44.66269" lon="6.04166">
        <ele>1794.92</ele>
        <time>2020-06-06T07:54:04Z</time>
      </trkpt>
      <trkpt lat="44.66272" lon="6.04163">
        <ele>1793</ele>
        <time>2020-06-06T07:54:18Z</time>
      </trkpt>
      <trkpt lat="44.66276" lon="6.04162">
        <ele>1793</ele>
        <time>2020-06-06T07:54:35Z</time>
      </trkpt>
      <trkpt lat="44.66283" lon="6.04158">
        <ele>1794.44</ele>
        <time>2020-06-06T07:54:49Z</time>
      </trkpt>
      <trkpt lat="44.66292" lon="6.04153">
        <ele>1794.92</ele>
        <time>2020-06-06T07:55:04Z</time>
      </trkpt>
      <trkpt lat="44.66298" lon="6.04147">
        <ele>1794.92</ele>
        <time>2020-06-06T07:55:17Z</time>
      </trkpt>
      <trkpt lat="44.66295" lon="6.04133">
        <ele>1794.92</ele>
        <time>2020-06-06T07:55:32Z</time>
      </trkpt>
      <trkpt lat="44.66296" lon="6.04125">
        <ele>1794.92</ele>
        <time>2020-06-06T07:55:47Z</time>
      </trkpt>
      <trkpt lat="44.66299" lon="6.04115">
        <ele>1795.4</ele>
        <time>2020-06-06T07:56:02Z</time>
      </trkpt>
      <trkpt lat="44.66306" lon="6.04109">
        <ele>1795.4</ele>
        <time>2020-06-06T07:56:18Z</time>
      </trkpt>
      <trkpt lat="44.66315" lon="6.04102">
        <ele>1795.4</ele>
        <time>2020-06-06T07:56:34Z</time>
      </trkpt>
      <trkpt lat="44.66315" lon="6.04105">
        <ele>1795.4</ele>
        <time>2020-06-06T07:56:57Z</time>
      </trkpt>
      <trkpt lat="44.66315" lon="6.04101">
        <ele>1795.4</ele>
        <time>2020-06-06T07:57:20Z</time>
      </trkpt>
      <trkpt lat="44.66315" lon="6.04099">
        <ele>1795.88</ele>
        <time>2020-06-06T07:57:43Z</time>
      </trkpt>
      <trkpt lat="44.66315" lon="6.04101">
        <ele>1795.88</ele>
        <time>2020-06-06T07:57:59Z</time>
      </trkpt>
      <trkpt lat="44.66314" lon="6.04094">
        <ele>1794.44</ele>
        <time>2020-06-06T07:58:22Z</time>
      </trkpt>
      <trkpt lat="44.66316" lon="6.0409">
        <ele>1793.48</ele>
        <time>2020-06-06T07:58:40Z</time>
      </trkpt>
      <trkpt lat="44.66318" lon="6.0409">
        <ele>1792.52</ele>
        <time>2020-06-06T07:59:02Z</time>
      </trkpt>
      <trkpt lat="44.66318" lon="6.04087">
        <ele>1791.55</ele>
        <time>2020-06-06T07:59:20Z</time>
      </trkpt>
      <trkpt lat="44.66317" lon="6.04083">
        <ele>1791.55</ele>
        <time>2020-06-06T07:59:38Z</time>
      </trkpt>
      <trkpt lat="44.66317" lon="6.04075">
        <ele>1792.52</ele>
        <time>2020-06-06T07:59:57Z</time>
      </trkpt>
      <trkpt lat="44.66316" lon="6.04073">
        <ele>1794.44</ele>
        <time>2020-06-06T08:00:15Z</time>
      </trkpt>
      <trkpt lat="44.66312" lon="6.0407">
        <ele>1794.44</ele>
        <time>2020-06-06T08:00:39Z</time>
      </trkpt>
      <trkpt lat="44.66315" lon="6.0407">
        <ele>1794.92</ele>
        <time>2020-06-06T08:00:54Z</time>
      </trkpt>
      <trkpt lat="44.6632" lon="6.04062">
        <ele>1794.92</ele>
        <time>2020-06-06T08:01:09Z</time>
      </trkpt>
      <trkpt lat="44.66325" lon="6.04046">
        <ele>1794.92</ele>
        <time>2020-06-06T08:01:27Z</time>
      </trkpt>
      <trkpt lat="44.66322" lon="6.04036">
        <ele>1794.92</ele>
        <time>2020-06-06T08:01:42Z</time>
      </trkpt>
      <trkpt lat="44.66319" lon="6.04029">
        <ele>1794.44</ele>
        <time>2020-06-06T08:02:02Z</time>
      </trkpt>
      <trkpt lat="44.66319" lon="6.04018">
        <ele>1794.44</ele>
        <time>2020-06-06T08:02:16Z</time>
      </trkpt>
      <trkpt lat="44.66319" lon="6.04013">
        <ele>1794.92</ele>
        <time>2020-06-06T08:02:34Z</time>
      </trkpt>
      <trkpt lat="44.66318" lon="6.04">
        <ele>1795.88</ele>
        <time>2020-06-06T08:02:49Z</time>
      </trkpt>
      <trkpt lat="44.66319" lon="6.03993">
        <ele>1795.88</ele>
        <time>2020-06-06T08:03:10Z</time>
      </trkpt>
      <trkpt lat="44.66326" lon="6.03986">
        <ele>1794.44</ele>
        <time>2020-06-06T08:03:29Z</time>
      </trkpt>
      <trkpt lat="44.66321" lon="6.03979">
        <ele>1793.96</ele>
        <time>2020-06-06T08:03:47Z</time>
      </trkpt>
      <trkpt lat="44.66324" lon="6.03975">
        <ele>1795.4</ele>
        <time>2020-06-06T08:04:04Z</time>
      </trkpt>
      <trkpt lat="44.66331" lon="6.03974">
        <ele>1795.4</ele>
        <time>2020-06-06T08:04:18Z</time>
      </trkpt>
      <trkpt lat="44.66338" lon="6.03972">
        <ele>1795.88</ele>
        <time>2020-06-06T08:04:33Z</time>
      </trkpt>
      <trkpt lat="44.6634" lon="6.0397">
        <ele>1794.44</ele>
        <time>2020-06-06T08:04:37Z</time>
      </trkpt>
      <trkpt lat="44.66341" lon="6.03972">
        <ele>1794.44</ele>
        <time>2020-06-06T08:05:05Z</time>
      </trkpt>
      <trkpt lat="44.66346" lon="6.03969">
        <ele>1795.88</ele>
        <time>2020-06-06T08:05:13Z</time>
      </trkpt>
      <trkpt lat="44.66355" lon="6.03965">
        <ele>1795.88</ele>
        <time>2020-06-06T08:05:27Z</time>
      </trkpt>
      <trkpt lat="44.66359" lon="6.03969">
        <ele>1795.88</ele>
        <time>2020-06-06T08:05:42Z</time>
      </trkpt>
      <trkpt lat="44.66365" lon="6.03973">
        <ele>1795.88</ele>
        <time>2020-06-06T08:05:57Z</time>
      </trkpt>
      <trkpt lat="44.66375" lon="6.03976">
        <ele>1797.32</ele>
        <time>2020-06-06T08:06:10Z</time>
      </trkpt>
      <trkpt lat="44.66383" lon="6.03967">
        <ele>1797.32</ele>
        <time>2020-06-06T08:06:25Z</time>
      </trkpt>
      <trkpt lat="44.66388" lon="6.03965">
        <ele>1797.32</ele>
        <time>2020-06-06T08:06:38Z</time>
      </trkpt>
      <trkpt lat="44.6639" lon="6.03962">
        <ele>1797.32</ele>
        <time>2020-06-06T08:06:53Z</time>
      </trkpt>
      <trkpt lat="44.66398" lon="6.03957">
        <ele>1797.32</ele>
        <time>2020-06-06T08:07:07Z</time>
      </trkpt>
      <trkpt lat="44.66407" lon="6.03963">
        <ele>1797.8</ele>
        <time>2020-06-06T08:07:21Z</time>
      </trkpt>
      <trkpt lat="44.66414" lon="6.03969">
        <ele>1798.76</ele>
        <time>2020-06-06T08:07:35Z</time>
      </trkpt>
      <trkpt lat="44.6642" lon="6.03954">
        <ele>1798.76</ele>
        <time>2020-06-06T08:07:50Z</time>
      </trkpt>
      <trkpt lat="44.66426" lon="6.03952">
        <ele>1798.76</ele>
        <time>2020-06-06T08:08:02Z</time>
      </trkpt>
      <trkpt lat="44.6643" lon="6.03952">
        <ele>1797.32</ele>
        <time>2020-06-06T08:08:11Z</time>
      </trkpt>
      <trkpt lat="44.66441" lon="6.03953">
        <ele>1798.76</ele>
        <time>2020-06-06T08:08:26Z</time>
      </trkpt>
      <trkpt lat="44.66447" lon="6.03961">
        <ele>1798.76</ele>
        <time>2020-06-06T08:08:41Z</time>
      </trkpt>
      <trkpt lat="44.66451" lon="6.03969">
        <ele>1798.76</ele>
        <time>2020-06-06T08:08:57Z</time>
      </trkpt>
      <trkpt lat="44.66454" lon="6.03984">
        <ele>1798.76</ele>
        <time>2020-06-06T08:09:13Z</time>
      </trkpt>
      <trkpt lat="44.66458" lon="6.03977">
        <ele>1798.76</ele>
        <time>2020-06-06T08:09:35Z</time>
      </trkpt>
      <trkpt lat="44.66461" lon="6.03969">
        <ele>1801.17</ele>
        <time>2020-06-06T08:09:44Z</time>
      </trkpt>
      <trkpt lat="44.66457" lon="6.03966">
        <ele>1802.13</ele>
        <time>2020-06-06T08:10:06Z</time>
      </trkpt>
      <trkpt lat="44.66457" lon="6.03973">
        <ele>1800.69</ele>
        <time>2020-06-06T08:10:17Z</time>
      </trkpt>
      <trkpt lat="44.66468" lon="6.03971">
        <ele>1798.76</ele>
        <time>2020-06-06T08:10:32Z</time>
      </trkpt>
      <trkpt lat="44.66475" lon="6.03961">
        <ele>1800.21</ele>
        <time>2020-06-06T08:10:41Z</time>
      </trkpt>
      <trkpt lat="44.66483" lon="6.03952">
        <ele>1800.21</ele>
        <time>2020-06-06T08:10:55Z</time>
      </trkpt>
      <trkpt lat="44.66494" lon="6.03939">
        <ele>1800.69</ele>
        <time>2020-06-06T08:11:10Z</time>
      </trkpt>
      <trkpt lat="44.66505" lon="6.03925">
        <ele>1801.65</ele>
        <time>2020-06-06T08:11:26Z</time>
      </trkpt>
      <trkpt lat="44.66517" lon="6.0391">
        <ele>1801.65</ele>
        <time>2020-06-06T08:11:44Z</time>
      </trkpt>
      <trkpt lat="44.66531" lon="6.03899">
        <ele>1802.61</ele>
        <time>2020-06-06T08:12:01Z</time>
      </trkpt>
      <trkpt lat="44.66537" lon="6.0389">
        <ele>1802.13</ele>
        <time>2020-06-06T08:12:20Z</time>
      </trkpt>
      <trkpt lat="44.66549" lon="6.03877">
        <ele>1802.13</ele>
        <time>2020-06-06T08:12:37Z</time>
      </trkpt>
      <trkpt lat="44.66551" lon="6.03868">
        <ele>1803.57</ele>
        <time>2020-06-06T08:12:46Z</time>
      </trkpt>
      <trkpt lat="44.66557" lon="6.03865">
        <ele>1803.57</ele>
        <time>2020-06-06T08:13:04Z</time>
      </trkpt>
      <trkpt lat="44.66561" lon="6.0386">
        <ele>1804.53</ele>
        <time>2020-06-06T08:13:28Z</time>
      </trkpt>
      <trkpt lat="44.66567" lon="6.03852">
        <ele>1803.57</ele>
        <time>2020-06-06T08:13:48Z</time>
      </trkpt>
      <trkpt lat="44.66571" lon="6.03848">
        <ele>1803.57</ele>
        <time>2020-06-06T08:13:52Z</time>
      </trkpt>
      <trkpt lat="44.66571" lon="6.03846">
        <ele>1805.01</ele>
        <time>2020-06-06T08:13:56Z</time>
      </trkpt>
      <trkpt lat="44.66578" lon="6.03835">
        <ele>1805.01</ele>
        <time>2020-06-06T08:14:10Z</time>
      </trkpt>
      <trkpt lat="44.6658" lon="6.03834">
        <ele>1805.01</ele>
        <time>2020-06-06T08:14:13Z</time>
      </trkpt>
      <trkpt lat="44.66594" lon="6.0382">
        <ele>1805.97</ele>
        <time>2020-06-06T08:14:31Z</time>
      </trkpt>
      <trkpt lat="44.66595" lon="6.03816">
        <ele>1805.97</ele>
        <time>2020-06-06T08:14:34Z</time>
      </trkpt>
      <trkpt lat="44.66602" lon="6.03794">
        <ele>1805.97</ele>
        <time>2020-06-06T08:14:53Z</time>
      </trkpt>
      <trkpt lat="44.66606" lon="6.03792">
        <ele>1805.97</ele>
        <time>2020-06-06T08:15:09Z</time>
      </trkpt>
      <trkpt lat="44.66607" lon="6.03794">
        <ele>1805.97</ele>
        <time>2020-06-06T08:15:12Z</time>
      </trkpt>
      <trkpt lat="44.66616" lon="6.03793">
        <ele>1806.45</ele>
        <time>2020-06-06T08:15:27Z</time>
      </trkpt>
      <trkpt lat="44.66623" lon="6.03795">
        <ele>1806.45</ele>
        <time>2020-06-06T08:15:42Z</time>
      </trkpt>
      <trkpt lat="44.66631" lon="6.03809">
        <ele>1807.42</ele>
        <time>2020-06-06T08:15:56Z</time>
      </trkpt>
      <trkpt lat="44.66639" lon="6.03817">
        <ele>1807.9</ele>
        <time>2020-06-06T08:16:13Z</time>
      </trkpt>
      <trkpt lat="44.66645" lon="6.03812">
        <ele>1807.9</ele>
        <time>2020-06-06T08:16:35Z</time>
      </trkpt>
      <trkpt lat="44.66648" lon="6.03807">
        <ele>1807.9</ele>
        <time>2020-06-06T08:16:39Z</time>
      </trkpt>
      <trkpt lat="44.66664" lon="6.03817">
        <ele>1808.86</ele>
        <time>2020-06-06T08:16:56Z</time>
      </trkpt>
      <trkpt lat="44.66676" lon="6.03829">
        <ele>1809.34</ele>
        <time>2020-06-06T08:17:13Z</time>
      </trkpt>
      <trkpt lat="44.66678" lon="6.03831">
        <ele>1809.82</ele>
        <time>2020-06-06T08:17:30Z</time>
      </trkpt>
      <trkpt lat="44.6668" lon="6.03833">
        <ele>1809.82</ele>
        <time>2020-06-06T08:17:47Z</time>
      </trkpt>
      <trkpt lat="44.66678" lon="6.03826">
        <ele>1810.3</ele>
        <time>2020-06-06T08:18:05Z</time>
      </trkpt>
      <trkpt lat="44.66676" lon="6.03813">
        <ele>1813.66</ele>
        <time>2020-06-06T08:18:18Z</time>
      </trkpt>
      <trkpt lat="44.66676" lon="6.03811">
        <ele>1814.15</ele>
        <time>2020-06-06T08:18:36Z</time>
      </trkpt>
      <trkpt lat="44.66677" lon="6.0381">
        <ele>1814.15</ele>
        <time>2020-06-06T08:18:51Z</time>
      </trkpt>
      <trkpt lat="44.66675" lon="6.03795">
        <ele>1817.03</ele>
        <time>2020-06-06T08:19:05Z</time>
      </trkpt>
      <trkpt lat="44.66672" lon="6.03782">
        <ele>1820.39</ele>
        <time>2020-06-06T08:19:19Z</time>
      </trkpt>
      <trkpt lat="44.66678" lon="6.03767">
        <ele>1822.8</ele>
        <time>2020-06-06T08:19:40Z</time>
      </trkpt>
      <trkpt lat="44.66692" lon="6.03755">
        <ele>1823.76</ele>
        <time>2020-06-06T08:20:02Z</time>
      </trkpt>
      <trkpt lat="44.66695" lon="6.03749">
        <ele>1823.28</ele>
        <time>2020-06-06T08:20:31Z</time>
      </trkpt>
      <trkpt lat="44.66696" lon="6.03745">
        <ele>1823.28</ele>
        <time>2020-06-06T08:20:35Z</time>
      </trkpt>
      <trkpt lat="44.66699" lon="6.03734">
        <ele>1823.28</ele>
        <time>2020-06-06T08:20:51Z</time>
      </trkpt>
      <trkpt lat="44.667" lon="6.0373">
        <ele>1823.28</ele>
        <time>2020-06-06T08:21:11Z</time>
      </trkpt>
      <trkpt lat="44.66701" lon="6.03723">
        <ele>1823.76</ele>
        <time>2020-06-06T08:21:26Z</time>
      </trkpt>
      <trkpt lat="44.66699" lon="6.03724">
        <ele>1823.76</ele>
        <time>2020-06-06T08:21:59Z</time>
      </trkpt>
      <trkpt lat="44.66702" lon="6.03725">
        <ele>1824.24</ele>
        <time>2020-06-06T08:22:14Z</time>
      </trkpt>
      <trkpt lat="44.66702" lon="6.03725">
        <ele>1822.8</ele>
        <time>2020-06-06T08:22:31Z</time>
      </trkpt>
      <trkpt lat="44.66698" lon="6.0373">
        <ele>1824.24</ele>
        <time>2020-06-06T08:22:40Z</time>
      </trkpt>
      <trkpt lat="44.66695" lon="6.03732">
        <ele>1824.24</ele>
        <time>2020-06-06T08:22:43Z</time>
      </trkpt>
      <trkpt lat="44.66692" lon="6.03737">
        <ele>1824.24</ele>
        <time>2020-06-06T08:22:57Z</time>
      </trkpt>
      <trkpt lat="44.66681" lon="6.0374">
        <ele>1825.2</ele>
        <time>2020-06-06T08:23:13Z</time>
      </trkpt>
      <trkpt lat="44.66674" lon="6.03742">
        <ele>1825.68</ele>
        <time>2020-06-06T08:23:26Z</time>
      </trkpt>
      <trkpt lat="44.66674" lon="6.03742">
        <ele>1825.68</ele>
        <time>2020-06-06T08:23:27Z</time>
      </trkpt>
      <trkpt lat="44.66662" lon="6.03736">
        <ele>1828.56</ele>
        <time>2020-06-06T08:23:41Z</time>
      </trkpt>
      <trkpt lat="44.66653" lon="6.0372">
        <ele>1831.45</ele>
        <time>2020-06-06T08:24:01Z</time>
      </trkpt>
      <trkpt lat="44.66645" lon="6.03711">
        <ele>1835.29</ele>
        <time>2020-06-06T08:24:20Z</time>
      </trkpt>
      <trkpt lat="44.66641" lon="6.03701">
        <ele>1836.74</ele>
        <time>2020-06-06T08:24:35Z</time>
      </trkpt>
      <trkpt lat="44.66638" lon="6.03685">
        <ele>1839.14</ele>
        <time>2020-06-06T08:24:50Z</time>
      </trkpt>
      <trkpt lat="44.66639" lon="6.03679">
        <ele>1840.58</ele>
        <time>2020-06-06T08:25:09Z</time>
      </trkpt>
      <trkpt lat="44.6663" lon="6.03675">
        <ele>1843.95</ele>
        <time>2020-06-06T08:25:22Z</time>
      </trkpt>
      <trkpt lat="44.66624" lon="6.03667">
        <ele>1846.35</ele>
        <time>2020-06-06T08:25:38Z</time>
      </trkpt>
      <trkpt lat="44.66616" lon="6.03667">
        <ele>1850.19</ele>
        <time>2020-06-06T08:25:52Z</time>
      </trkpt>
      <trkpt lat="44.66617" lon="6.03668">
        <ele>1850.19</ele>
        <time>2020-06-06T08:26:08Z</time>
      </trkpt>
      <trkpt lat="44.66608" lon="6.03669">
        <ele>1853.08</ele>
        <time>2020-06-06T08:26:24Z</time>
      </trkpt>
      <trkpt lat="44.666" lon="6.03668">
        <ele>1856.44</ele>
        <time>2020-06-06T08:26:38Z</time>
      </trkpt>
      <trkpt lat="44.66599" lon="6.03672">
        <ele>1857.4</ele>
        <time>2020-06-06T08:26:57Z</time>
      </trkpt>
      <trkpt lat="44.66598" lon="6.03669">
        <ele>1857.4</ele>
        <time>2020-06-06T08:27:20Z</time>
      </trkpt>
      <trkpt lat="44.6659" lon="6.03667">
        <ele>1859.81</ele>
        <time>2020-06-06T08:27:34Z</time>
      </trkpt>
      <trkpt lat="44.66581" lon="6.03666">
        <ele>1863.65</ele>
        <time>2020-06-06T08:27:47Z</time>
      </trkpt>
      <trkpt lat="44.66572" lon="6.03662">
        <ele>1865.58</ele>
        <time>2020-06-06T08:28:02Z</time>
      </trkpt>
      <trkpt lat="44.66571" lon="6.03666">
        <ele>1867.5</ele>
        <time>2020-06-06T08:28:19Z</time>
      </trkpt>
      <trkpt lat="44.66573" lon="6.03656">
        <ele>1868.94</ele>
        <time>2020-06-06T08:28:41Z</time>
      </trkpt>
      <trkpt lat="44.6657" lon="6.03653">
        <ele>1871.82</ele>
        <time>2020-06-06T08:28:55Z</time>
      </trkpt>
      <trkpt lat="44.6657" lon="6.03643">
        <ele>1875.19</ele>
        <time>2020-06-06T08:29:10Z</time>
      </trkpt>
      <trkpt lat="44.66576" lon="6.03644">
        <ele>1876.15</ele>
        <time>2020-06-06T08:29:30Z</time>
      </trkpt>
      <trkpt lat="44.66571" lon="6.03638">
        <ele>1878.07</ele>
        <time>2020-06-06T08:29:46Z</time>
      </trkpt>
      <trkpt lat="44.66564" lon="6.0364">
        <ele>1879.51</ele>
        <time>2020-06-06T08:30:05Z</time>
      </trkpt>
      <trkpt lat="44.66564" lon="6.03632">
        <ele>1883.36</ele>
        <time>2020-06-06T08:30:23Z</time>
      </trkpt>
      <trkpt lat="44.66565" lon="6.03621">
        <ele>1884.8</ele>
        <time>2020-06-06T08:30:39Z</time>
      </trkpt>
      <trkpt lat="44.66567" lon="6.0362">
        <ele>1886.24</ele>
        <time>2020-06-06T08:30:55Z</time>
      </trkpt>
      <trkpt lat="44.66563" lon="6.03612">
        <ele>1888.17</ele>
        <time>2020-06-06T08:31:10Z</time>
      </trkpt>
      <trkpt lat="44.66561" lon="6.03604">
        <ele>1891.05</ele>
        <time>2020-06-06T08:31:26Z</time>
      </trkpt>
      <trkpt lat="44.66564" lon="6.036">
        <ele>1892.49</ele>
        <time>2020-06-06T08:31:47Z</time>
      </trkpt>
      <trkpt lat="44.66563" lon="6.03601">
        <ele>1892.97</ele>
        <time>2020-06-06T08:32:10Z</time>
      </trkpt>
      <trkpt lat="44.66564" lon="6.03601">
        <ele>1892.97</ele>
        <time>2020-06-06T08:32:41Z</time>
      </trkpt>
      <trkpt lat="44.66567" lon="6.03587">
        <ele>1894.9</ele>
        <time>2020-06-06T08:32:57Z</time>
      </trkpt>
      <trkpt lat="44.66571" lon="6.03572">
        <ele>1898.26</ele>
        <time>2020-06-06T08:33:12Z</time>
      </trkpt>
      <trkpt lat="44.66575" lon="6.03559">
        <ele>1901.14</ele>
        <time>2020-06-06T08:33:28Z</time>
      </trkpt>
      <trkpt lat="44.66578" lon="6.03552">
        <ele>1904.03</ele>
        <time>2020-06-06T08:33:45Z</time>
      </trkpt>
      <trkpt lat="44.66581" lon="6.03542">
        <ele>1906.43</ele>
        <time>2020-06-06T08:34:00Z</time>
      </trkpt>
      <trkpt lat="44.66584" lon="6.03537">
        <ele>1908.35</ele>
        <time>2020-06-06T08:34:16Z</time>
      </trkpt>
      <trkpt lat="44.66584" lon="6.03536">
        <ele>1908.83</ele>
        <time>2020-06-06T08:34:44Z</time>
      </trkpt>
      <trkpt lat="44.66583" lon="6.03526">
        <ele>1912.2</ele>
        <time>2020-06-06T08:35:03Z</time>
      </trkpt>
      <trkpt lat="44.66579" lon="6.03517">
        <ele>1915.08</ele>
        <time>2020-06-06T08:35:15Z</time>
      </trkpt>
      <trkpt lat="44.66575" lon="6.03511">
        <ele>1917.97</ele>
        <time>2020-06-06T08:35:31Z</time>
      </trkpt>
      <trkpt lat="44.66568" lon="6.03509">
        <ele>1921.33</ele>
        <time>2020-06-06T08:35:44Z</time>
      </trkpt>
      <trkpt lat="44.66567" lon="6.03503">
        <ele>1924.22</ele>
        <time>2020-06-06T08:36:01Z</time>
      </trkpt>
      <trkpt lat="44.66567" lon="6.03502">
        <ele>1924.7</ele>
        <time>2020-06-06T08:36:02Z</time>
      </trkpt>
      <trkpt lat="44.66561" lon="6.035">
        <ele>1927.58</ele>
        <time>2020-06-06T08:36:16Z</time>
      </trkpt>
      <trkpt lat="44.6656" lon="6.035">
        <ele>1928.06</ele>
        <time>2020-06-06T08:36:34Z</time>
      </trkpt>
      <trkpt lat="44.66554" lon="6.03501">
        <ele>1929.02</ele>
        <time>2020-06-06T08:36:58Z</time>
      </trkpt>
      <trkpt lat="44.66548" lon="6.03504">
        <ele>1932.39</ele>
        <time>2020-06-06T08:37:14Z</time>
      </trkpt>
      <trkpt lat="44.66538" lon="6.03506">
        <ele>1935.27</ele>
        <time>2020-06-06T08:37:30Z</time>
      </trkpt>
      <trkpt lat="44.66527" lon="6.03508">
        <ele>1938.16</ele>
        <time>2020-06-06T08:37:45Z</time>
      </trkpt>
      <trkpt lat="44.66523" lon="6.03506">
        <ele>1940.08</ele>
        <time>2020-06-06T08:38:00Z</time>
      </trkpt>
      <trkpt lat="44.66517" lon="6.03507">
        <ele>1941.04</ele>
        <time>2020-06-06T08:38:21Z</time>
      </trkpt>
      <trkpt lat="44.66508" lon="6.03506">
        <ele>1943.92</ele>
        <time>2020-06-06T08:38:33Z</time>
      </trkpt>
      <trkpt lat="44.66506" lon="6.03499">
        <ele>1946.81</ele>
        <time>2020-06-06T08:38:50Z</time>
      </trkpt>
      <trkpt lat="44.66507" lon="6.03502">
        <ele>1946.81</ele>
        <time>2020-06-06T08:39:13Z</time>
      </trkpt>
      <trkpt lat="44.66497" lon="6.03502">
        <ele>1949.21</ele>
        <time>2020-06-06T08:39:29Z</time>
      </trkpt>
      <trkpt lat="44.6649" lon="6.03501">
        <ele>1952.57</ele>
        <time>2020-06-06T08:39:41Z</time>
      </trkpt>
      <trkpt lat="44.66484" lon="6.035">
        <ele>1955.46</ele>
        <time>2020-06-06T08:39:56Z</time>
      </trkpt>
      <trkpt lat="44.66478" lon="6.035">
        <ele>1957.38</ele>
        <time>2020-06-06T08:40:15Z</time>
      </trkpt>
      <trkpt lat="44.6647" lon="6.03498">
        <ele>1960.27</ele>
        <time>2020-06-06T08:40:30Z</time>
      </trkpt>
      <trkpt lat="44.66462" lon="6.03498">
        <ele>1963.63</ele>
        <time>2020-06-06T08:40:45Z</time>
      </trkpt>
      <trkpt lat="44.66459" lon="6.03499">
        <ele>1964.59</ele>
        <time>2020-06-06T08:41:01Z</time>
      </trkpt>
      <trkpt lat="44.66459" lon="6.035">
        <ele>1964.59</ele>
        <time>2020-06-06T08:41:20Z</time>
      </trkpt>
      <trkpt lat="44.66457" lon="6.03496">
        <ele>1964.59</ele>
        <time>2020-06-06T08:41:44Z</time>
      </trkpt>
      <trkpt lat="44.66453" lon="6.03497">
        <ele>1966.99</ele>
        <time>2020-06-06T08:42:01Z</time>
      </trkpt>
      <trkpt lat="44.66446" lon="6.03498">
        <ele>1969.4</ele>
        <time>2020-06-06T08:42:17Z</time>
      </trkpt>
      <trkpt lat="44.66439" lon="6.03496">
        <ele>1971.8</ele>
        <time>2020-06-06T08:42:38Z</time>
      </trkpt>
      <trkpt lat="44.66433" lon="6.03498">
        <ele>1975.17</ele>
        <time>2020-06-06T08:42:54Z</time>
      </trkpt>
      <trkpt lat="44.66427" lon="6.03497">
        <ele>1978.05</ele>
        <time>2020-06-06T08:43:13Z</time>
      </trkpt>
      <trkpt lat="44.6642" lon="6.035">
        <ele>1979.49</ele>
        <time>2020-06-06T08:43:31Z</time>
      </trkpt>
      <trkpt lat="44.66414" lon="6.03497">
        <ele>1982.38</ele>
        <time>2020-06-06T08:43:49Z</time>
      </trkpt>
      <trkpt lat="44.66404" lon="6.03501">
        <ele>1984.78</ele>
        <time>2020-06-06T08:44:08Z</time>
      </trkpt>
      <trkpt lat="44.66395" lon="6.03504">
        <ele>1987.66</ele>
        <time>2020-06-06T08:44:29Z</time>
      </trkpt>
      <trkpt lat="44.66388" lon="6.03507">
        <ele>1990.07</ele>
        <time>2020-06-06T08:44:47Z</time>
      </trkpt>
      <trkpt lat="44.66379" lon="6.03511">
        <ele>1993.43</ele>
        <time>2020-06-06T08:45:05Z</time>
      </trkpt>
      <trkpt lat="44.6637" lon="6.03515">
        <ele>1995.83</ele>
        <time>2020-06-06T08:45:24Z</time>
      </trkpt>
      <trkpt lat="44.66366" lon="6.03519">
        <ele>1997.28</ele>
        <time>2020-06-06T08:45:42Z</time>
      </trkpt>
      <trkpt lat="44.66362" lon="6.03521">
        <ele>1997.76</ele>
        <time>2020-06-06T08:46:07Z</time>
      </trkpt>
      <trkpt lat="44.66354" lon="6.03526">
        <ele>1999.68</ele>
        <time>2020-06-06T08:46:21Z</time>
      </trkpt>
      <trkpt lat="44.66352" lon="6.03527">
        <ele>2000.16</ele>
        <time>2020-06-06T08:46:24Z</time>
      </trkpt>
      <trkpt lat="44.66345" lon="6.03531">
        <ele>2002.56</ele>
        <time>2020-06-06T08:46:37Z</time>
      </trkpt>
      <trkpt lat="44.6634" lon="6.03536">
        <ele>2003.52</ele>
        <time>2020-06-06T08:46:50Z</time>
      </trkpt>
      <trkpt lat="44.66338" lon="6.03536">
        <ele>2004.01</ele>
        <time>2020-06-06T08:47:09Z</time>
      </trkpt>
      <trkpt lat="44.6633" lon="6.0354">
        <ele>2006.41</ele>
        <time>2020-06-06T08:47:28Z</time>
      </trkpt>
      <trkpt lat="44.66322" lon="6.03546">
        <ele>2008.81</ele>
        <time>2020-06-06T08:47:46Z</time>
      </trkpt>
      <trkpt lat="44.6631" lon="6.03554">
        <ele>2010.73</ele>
        <time>2020-06-06T08:48:03Z</time>
      </trkpt>
      <trkpt lat="44.66307" lon="6.03555">
        <ele>2011.7</ele>
        <time>2020-06-06T08:48:21Z</time>
      </trkpt>
      <trkpt lat="44.66297" lon="6.03566">
        <ele>2014.1</ele>
        <time>2020-06-06T08:48:39Z</time>
      </trkpt>
      <trkpt lat="44.66287" lon="6.03569">
        <ele>2016.98</ele>
        <time>2020-06-06T08:48:57Z</time>
      </trkpt>
      <trkpt lat="44.66276" lon="6.03576">
        <ele>2019.87</ele>
        <time>2020-06-06T08:49:16Z</time>
      </trkpt>
      <trkpt lat="44.66276" lon="6.03574">
        <ele>2020.83</ele>
        <time>2020-06-06T08:49:36Z</time>
      </trkpt>
      <trkpt lat="44.66268" lon="6.03579">
        <ele>2022.75</ele>
        <time>2020-06-06T08:49:53Z</time>
      </trkpt>
      <trkpt lat="44.66259" lon="6.03582">
        <ele>2026.12</ele>
        <time>2020-06-06T08:50:09Z</time>
      </trkpt>
      <trkpt lat="44.6625" lon="6.03584">
        <ele>2029.48</ele>
        <time>2020-06-06T08:50:25Z</time>
      </trkpt>
      <trkpt lat="44.66239" lon="6.03587">
        <ele>2032.84</ele>
        <time>2020-06-06T08:50:44Z</time>
      </trkpt>
      <trkpt lat="44.66226" lon="6.03592">
        <ele>2035.73</ele>
        <time>2020-06-06T08:51:04Z</time>
      </trkpt>
      <trkpt lat="44.66216" lon="6.03599">
        <ele>2038.13</ele>
        <time>2020-06-06T08:51:25Z</time>
      </trkpt>
      <trkpt lat="44.66211" lon="6.03597">
        <ele>2039.57</ele>
        <time>2020-06-06T08:51:41Z</time>
      </trkpt>
      <trkpt lat="44.6621" lon="6.03597">
        <ele>2039.57</ele>
        <time>2020-06-06T08:51:57Z</time>
      </trkpt>
      <trkpt lat="44.6621" lon="6.03595">
        <ele>2039.57</ele>
        <time>2020-06-06T08:52:21Z</time>
      </trkpt>
      <trkpt lat="44.6621" lon="6.03595">
        <ele>2038.61</ele>
        <time>2020-06-06T08:52:52Z</time>
      </trkpt>
      <trkpt lat="44.6621" lon="6.03595">
        <ele>2038.61</ele>
        <time>2020-06-06T08:53:28Z</time>
      </trkpt>
      <trkpt lat="44.6621" lon="6.03595">
        <ele>2039.09</ele>
        <time>2020-06-06T08:54:07Z</time>
      </trkpt>
      <trkpt lat="44.66209" lon="6.03597">
        <ele>2039.09</ele>
        <time>2020-06-06T08:54:32Z</time>
      </trkpt>
      <trkpt lat="44.6621" lon="6.03595">
        <ele>2039.09</ele>
        <time>2020-06-06T08:55:09Z</time>
      </trkpt>
      <trkpt lat="44.66209" lon="6.03595">
        <ele>2038.61</ele>
        <time>2020-06-06T08:55:46Z</time>
      </trkpt>
      <trkpt lat="44.6621" lon="6.03595">
        <ele>2038.61</ele>
        <time>2020-06-06T08:56:11Z</time>
      </trkpt>
      <trkpt lat="44.66211" lon="6.03593">
        <ele>2040.05</ele>
        <time>2020-06-06T08:56:28Z</time>
      </trkpt>
      <trkpt lat="44.66212" lon="6.03592">
        <ele>2040.54</ele>
        <time>2020-06-06T08:56:44Z</time>
      </trkpt>
      <trkpt lat="44.66211" lon="6.03593">
        <ele>2040.54</ele>
        <time>2020-06-06T08:57:13Z</time>
      </trkpt>
      <trkpt lat="44.6621" lon="6.03594">
        <ele>2039.57</ele>
        <time>2020-06-06T08:57:32Z</time>
      </trkpt>
      <trkpt lat="44.66212" lon="6.03595">
        <ele>2039.57</ele>
        <time>2020-06-06T08:58:12Z</time>
      </trkpt>
      <trkpt lat="44.66212" lon="6.03595">
        <ele>2040.05</ele>
        <time>2020-06-06T08:58:33Z</time>
      </trkpt>
      <trkpt lat="44.66214" lon="6.03594">
        <ele>2040.05</ele>
        <time>2020-06-06T08:58:54Z</time>
      </trkpt>
      <trkpt lat="44.66216" lon="6.03594">
        <ele>2040.05</ele>
        <time>2020-06-06T08:59:10Z</time>
      </trkpt>
      <trkpt lat="44.6622" lon="6.03586">
        <ele>2041.02</ele>
        <time>2020-06-06T08:59:19Z</time>
      </trkpt>
      <trkpt lat="44.66222" lon="6.03582">
        <ele>2041.5</ele>
        <time>2020-06-06T08:59:23Z</time>
      </trkpt>
      <trkpt lat="44.66233" lon="6.03563">
        <ele>2043.42</ele>
        <time>2020-06-06T08:59:43Z</time>
      </trkpt>
      <trkpt lat="44.6624" lon="6.03549">
        <ele>2044.86</ele>
        <time>2020-06-06T08:59:57Z</time>
      </trkpt>
      <trkpt lat="44.66248" lon="6.03535">
        <ele>2046.78</ele>
        <time>2020-06-06T09:00:13Z</time>
      </trkpt>
      <trkpt lat="44.66259" lon="6.03514">
        <ele>2048.71</ele>
        <time>2020-06-06T09:00:31Z</time>
      </trkpt>
      <trkpt lat="44.6627" lon="6.03494">
        <ele>2050.15</ele>
        <time>2020-06-06T09:00:50Z</time>
      </trkpt>
      <trkpt lat="44.66278" lon="6.0348">
        <ele>2052.07</ele>
        <time>2020-06-06T09:01:06Z</time>
      </trkpt>
      <trkpt lat="44.66287" lon="6.03463">
        <ele>2054.47</ele>
        <time>2020-06-06T09:01:24Z</time>
      </trkpt>
      <trkpt lat="44.66298" lon="6.03444">
        <ele>2057.36</ele>
        <time>2020-06-06T09:01:42Z</time>
      </trkpt>
      <trkpt lat="44.66303" lon="6.03432">
        <ele>2059.76</ele>
        <time>2020-06-06T09:01:59Z</time>
      </trkpt>
      <trkpt lat="44.66304" lon="6.03427">
        <ele>2060.72</ele>
        <time>2020-06-06T09:02:24Z</time>
      </trkpt>
      <trkpt lat="44.66311" lon="6.03412">
        <ele>2063.13</ele>
        <time>2020-06-06T09:02:39Z</time>
      </trkpt>
      <trkpt lat="44.66317" lon="6.03399">
        <ele>2066.49</ele>
        <time>2020-06-06T09:02:55Z</time>
      </trkpt>
      <trkpt lat="44.6632" lon="6.03388">
        <ele>2068.89</ele>
        <time>2020-06-06T09:03:11Z</time>
      </trkpt>
      <trkpt lat="44.66326" lon="6.03376">
        <ele>2071.78</ele>
        <time>2020-06-06T09:03:27Z</time>
      </trkpt>
      <trkpt lat="44.66329" lon="6.03363">
        <ele>2075.14</ele>
        <time>2020-06-06T09:03:46Z</time>
      </trkpt>
      <trkpt lat="44.66331" lon="6.03359">
        <ele>2075.14</ele>
        <time>2020-06-06T09:03:59Z</time>
      </trkpt>
      <trkpt lat="44.66331" lon="6.03359">
        <ele>2075.62</ele>
        <time>2020-06-06T09:04:22Z</time>
      </trkpt>
      <trkpt lat="44.66329" lon="6.03356">
        <ele>2075.62</ele>
        <time>2020-06-06T09:04:39Z</time>
      </trkpt>
      <trkpt lat="44.66327" lon="6.03337">
        <ele>2074.66</ele>
        <time>2020-06-06T09:04:57Z</time>
      </trkpt>
      <trkpt lat="44.66324" lon="6.0333">
        <ele>2073.7</ele>
        <time>2020-06-06T09:05:17Z</time>
      </trkpt>
      <trkpt lat="44.66324" lon="6.03318">
        <ele>2072.74</ele>
        <time>2020-06-06T09:05:27Z</time>
      </trkpt>
      <trkpt lat="44.66323" lon="6.03297">
        <ele>2071.78</ele>
        <time>2020-06-06T09:05:44Z</time>
      </trkpt>
      <trkpt lat="44.66323" lon="6.03271">
        <ele>2069.38</ele>
        <time>2020-06-06T09:06:03Z</time>
      </trkpt>
      <trkpt lat="44.66324" lon="6.03246">
        <ele>2066.49</ele>
        <time>2020-06-06T09:06:22Z</time>
      </trkpt>
      <trkpt lat="44.66326" lon="6.03228">
        <ele>2064.57</ele>
        <time>2020-06-06T09:06:39Z</time>
      </trkpt>
      <trkpt lat="44.6633" lon="6.03214">
        <ele>2062.17</ele>
        <time>2020-06-06T09:06:54Z</time>
      </trkpt>
      <trkpt lat="44.66332" lon="6.03203">
        <ele>2060.72</ele>
        <time>2020-06-06T09:07:13Z</time>
      </trkpt>
      <trkpt lat="44.66335" lon="6.03185">
        <ele>2057.84</ele>
        <time>2020-06-06T09:07:28Z</time>
      </trkpt>
      <trkpt lat="44.66341" lon="6.03169">
        <ele>2055.92</ele>
        <time>2020-06-06T09:07:45Z</time>
      </trkpt>
      <trkpt lat="44.66346" lon="6.03156">
        <ele>2053.51</ele>
        <time>2020-06-06T09:07:58Z</time>
      </trkpt>
      <trkpt lat="44.66352" lon="6.03141">
        <ele>2051.11</ele>
        <time>2020-06-06T09:08:13Z</time>
      </trkpt>
      <trkpt lat="44.66358" lon="6.03122">
        <ele>2048.71</ele>
        <time>2020-06-06T09:08:29Z</time>
      </trkpt>
      <trkpt lat="44.66361" lon="6.03113">
        <ele>2047.26</ele>
        <time>2020-06-06T09:08:43Z</time>
      </trkpt>
      <trkpt lat="44.66362" lon="6.03114">
        <ele>2047.75</ele>
        <time>2020-06-06T09:09:14Z</time>
      </trkpt>
      <trkpt lat="44.66362" lon="6.03114">
        <ele>2047.75</ele>
        <time>2020-06-06T09:09:40Z</time>
      </trkpt>
      <trkpt lat="44.66362" lon="6.03114">
        <ele>2047.75</ele>
        <time>2020-06-06T09:10:11Z</time>
      </trkpt>
      <trkpt lat="44.66366" lon="6.03103">
        <ele>2046.78</ele>
        <time>2020-06-06T09:10:30Z</time>
      </trkpt>
      <trkpt lat="44.66372" lon="6.03084">
        <ele>2044.86</ele>
        <time>2020-06-06T09:10:43Z</time>
      </trkpt>
      <trkpt lat="44.66378" lon="6.03061">
        <ele>2042.94</ele>
        <time>2020-06-06T09:11:02Z</time>
      </trkpt>
      <trkpt lat="44.66384" lon="6.03044">
        <ele>2040.54</ele>
        <time>2020-06-06T09:11:17Z</time>
      </trkpt>
      <trkpt lat="44.66392" lon="6.0303">
        <ele>2040.05</ele>
        <time>2020-06-06T09:11:32Z</time>
      </trkpt>
      <trkpt lat="44.66393" lon="6.03028">
        <ele>2041.5</ele>
        <time>2020-06-06T09:11:34Z</time>
      </trkpt>
      <trkpt lat="44.66397" lon="6.03016">
        <ele>2039.57</ele>
        <time>2020-06-06T09:11:48Z</time>
      </trkpt>
      <trkpt lat="44.66399" lon="6.03004">
        <ele>2036.69</ele>
        <time>2020-06-06T09:12:02Z</time>
      </trkpt>
      <trkpt lat="44.66399" lon="6.02994">
        <ele>2033.33</ele>
        <time>2020-06-06T09:12:17Z</time>
      </trkpt>
      <trkpt lat="44.66399" lon="6.02981">
        <ele>2029.96</ele>
        <time>2020-06-06T09:12:31Z</time>
      </trkpt>
      <trkpt lat="44.664" lon="6.02969">
        <ele>2026.6</ele>
        <time>2020-06-06T09:12:44Z</time>
      </trkpt>
      <trkpt lat="44.664" lon="6.02959">
        <ele>2023.23</ele>
        <time>2020-06-06T09:12:55Z</time>
      </trkpt>
      <trkpt lat="44.66402" lon="6.02946">
        <ele>2020.83</ele>
        <time>2020-06-06T09:13:10Z</time>
      </trkpt>
      <trkpt lat="44.66405" lon="6.0293">
        <ele>2017.94</ele>
        <time>2020-06-06T09:13:25Z</time>
      </trkpt>
      <trkpt lat="44.66406" lon="6.02923">
        <ele>2016.98</ele>
        <time>2020-06-06T09:13:30Z</time>
      </trkpt>
      <trkpt lat="44.66407" lon="6.02921">
        <ele>2016.5</ele>
        <time>2020-06-06T09:13:32Z</time>
      </trkpt>
      <trkpt lat="44.66409" lon="6.02911">
        <ele>2015.54</ele>
        <time>2020-06-06T09:13:51Z</time>
      </trkpt>
      <trkpt lat="44.66409" lon="6.02901">
        <ele>2012.18</ele>
        <time>2020-06-06T09:14:05Z</time>
      </trkpt>
      <trkpt lat="44.66408" lon="6.02893">
        <ele>2010.25</ele>
        <time>2020-06-06T09:14:18Z</time>
      </trkpt>
      <trkpt lat="44.66406" lon="6.02887">
        <ele>2006.89</ele>
        <time>2020-06-06T09:14:31Z</time>
      </trkpt>
      <trkpt lat="44.66409" lon="6.02878">
        <ele>2004.49</ele>
        <time>2020-06-06T09:14:47Z</time>
      </trkpt>
      <trkpt lat="44.66411" lon="6.02865">
        <ele>2001.12</ele>
        <time>2020-06-06T09:15:02Z</time>
      </trkpt>
      <trkpt lat="44.66413" lon="6.02854">
        <ele>1998.72</ele>
        <time>2020-06-06T09:15:17Z</time>
      </trkpt>
      <trkpt lat="44.66415" lon="6.02846">
        <ele>1996.32</ele>
        <time>2020-06-06T09:15:30Z</time>
      </trkpt>
      <trkpt lat="44.66416" lon="6.02835">
        <ele>1993.43</ele>
        <time>2020-06-06T09:15:44Z</time>
      </trkpt>
      <trkpt lat="44.6642" lon="6.02826">
        <ele>1990.07</ele>
        <time>2020-06-06T09:15:59Z</time>
      </trkpt>
      <trkpt lat="44.66422" lon="6.02816">
        <ele>1986.7</ele>
        <time>2020-06-06T09:16:09Z</time>
      </trkpt>
      <trkpt lat="44.66428" lon="6.02805">
        <ele>1983.34</ele>
        <time>2020-06-06T09:16:20Z</time>
      </trkpt>
      <trkpt lat="44.66433" lon="6.02794">
        <ele>1980.45</ele>
        <time>2020-06-06T09:16:32Z</time>
      </trkpt>
      <trkpt lat="44.66437" lon="6.02788">
        <ele>1978.53</ele>
        <time>2020-06-06T09:16:46Z</time>
      </trkpt>
      <trkpt lat="44.66444" lon="6.02774">
        <ele>1975.65</ele>
        <time>2020-06-06T09:17:01Z</time>
      </trkpt>
      <trkpt lat="44.66453" lon="6.02766">
        <ele>1974.2</ele>
        <time>2020-06-06T09:17:10Z</time>
      </trkpt>
      <trkpt lat="44.66456" lon="6.02754">
        <ele>1972.28</ele>
        <time>2020-06-06T09:17:27Z</time>
      </trkpt>
      <trkpt lat="44.66457" lon="6.02743">
        <ele>1968.92</ele>
        <time>2020-06-06T09:17:38Z</time>
      </trkpt>
      <trkpt lat="44.66459" lon="6.02734">
        <ele>1966.99</ele>
        <time>2020-06-06T09:17:54Z</time>
      </trkpt>
      <trkpt lat="44.66463" lon="6.02723">
        <ele>1963.63</ele>
        <time>2020-06-06T09:18:04Z</time>
      </trkpt>
      <trkpt lat="44.66465" lon="6.02715">
        <ele>1961.71</ele>
        <time>2020-06-06T09:18:11Z</time>
      </trkpt>
      <trkpt lat="44.66468" lon="6.02705">
        <ele>1959.78</ele>
        <time>2020-06-06T09:18:26Z</time>
      </trkpt>
      <trkpt lat="44.6647" lon="6.02699">
        <ele>1958.82</ele>
        <time>2020-06-06T09:18:38Z</time>
      </trkpt>
      <trkpt lat="44.66478" lon="6.02682">
        <ele>1955.94</ele>
        <time>2020-06-06T09:18:56Z</time>
      </trkpt>
      <trkpt lat="44.66486" lon="6.02654">
        <ele>1954.02</ele>
        <time>2020-06-06T09:19:14Z</time>
      </trkpt>
      <trkpt lat="44.66484" lon="6.0264">
        <ele>1953.06</ele>
        <time>2020-06-06T09:19:28Z</time>
      </trkpt>
      <trkpt lat="44.66478" lon="6.02621">
        <ele>1950.65</ele>
        <time>2020-06-06T09:19:45Z</time>
      </trkpt>
      <trkpt lat="44.66474" lon="6.02611">
        <ele>1949.69</ele>
        <time>2020-06-06T09:20:01Z</time>
      </trkpt>
      <trkpt lat="44.66474" lon="6.02595">
        <ele>1949.69</ele>
        <time>2020-06-06T09:20:15Z</time>
      </trkpt>
      <trkpt lat="44.66467" lon="6.02564">
        <ele>1949.69</ele>
        <time>2020-06-06T09:20:35Z</time>
      </trkpt>
      <trkpt lat="44.6646" lon="6.02538">
        <ele>1951.61</ele>
        <time>2020-06-06T09:20:53Z</time>
      </trkpt>
      <trkpt lat="44.66459" lon="6.02535">
        <ele>1950.17</ele>
        <time>2020-06-06T09:20:56Z</time>
      </trkpt>
      <trkpt lat="44.66457" lon="6.02524">
        <ele>1949.21</ele>
        <time>2020-06-06T09:21:19Z</time>
      </trkpt>
      <trkpt lat="44.66451" lon="6.02503">
        <ele>1949.69</ele>
        <time>2020-06-06T09:21:35Z</time>
      </trkpt>
      <trkpt lat="44.66444" lon="6.02477">
        <ele>1948.73</ele>
        <time>2020-06-06T09:21:53Z</time>
      </trkpt>
      <trkpt lat="44.66443" lon="6.02468">
        <ele>1948.73</ele>
        <time>2020-06-06T09:21:59Z</time>
      </trkpt>
      <trkpt lat="44.66442" lon="6.02465">
        <ele>1948.73</ele>
        <time>2020-06-06T09:22:01Z</time>
      </trkpt>
      <trkpt lat="44.66439" lon="6.02462">
        <ele>1950.17</ele>
        <time>2020-06-06T09:22:04Z</time>
      </trkpt>
      <trkpt lat="44.66427" lon="6.02447">
        <ele>1950.65</ele>
        <time>2020-06-06T09:22:21Z</time>
      </trkpt>
      <trkpt lat="44.66426" lon="6.02448">
        <ele>1950.65</ele>
        <time>2020-06-06T09:22:37Z</time>
      </trkpt>
      <trkpt lat="44.66429" lon="6.02451">
        <ele>1950.65</ele>
        <time>2020-06-06T09:23:01Z</time>
      </trkpt>
      <trkpt lat="44.66428" lon="6.02451">
        <ele>1950.65</ele>
        <time>2020-06-06T09:23:22Z</time>
      </trkpt>
      <trkpt lat="44.66429" lon="6.02448">
        <ele>1950.65</ele>
        <time>2020-06-06T09:23:41Z</time>
      </trkpt>
      <trkpt lat="44.66428" lon="6.02448">
        <ele>1950.65</ele>
        <time>2020-06-06T09:24:04Z</time>
      </trkpt>
      <trkpt lat="44.66428" lon="6.02449">
        <ele>1950.65</ele>
        <time>2020-06-06T09:24:24Z</time>
      </trkpt>
      <trkpt lat="44.66429" lon="6.0245">
        <ele>1950.65</ele>
        <time>2020-06-06T09:24:49Z</time>
      </trkpt>
      <trkpt lat="44.66428" lon="6.02451">
        <ele>1950.65</ele>
        <time>2020-06-06T09:25:15Z</time>
      </trkpt>
      <trkpt lat="44.66428" lon="6.02452">
        <ele>1949.21</ele>
        <time>2020-06-06T09:25:25Z</time>
      </trkpt>
      <trkpt lat="44.66428" lon="6.02451">
        <ele>1951.13</ele>
        <time>2020-06-06T09:25:27Z</time>
      </trkpt>
      <trkpt lat="44.66428" lon="6.02451">
        <ele>1949.69</ele>
        <time>2020-06-06T09:25:31Z</time>
      </trkpt>
      <trkpt lat="44.66427" lon="6.02451">
        <ele>1949.69</ele>
        <time>2020-06-06T09:25:50Z</time>
      </trkpt>
      <trkpt lat="44.66427" lon="6.02447">
        <ele>1950.65</ele>
        <time>2020-06-06T09:26:13Z</time>
      </trkpt>
      <trkpt lat="44.66416" lon="6.02428">
        <ele>1951.61</ele>
        <time>2020-06-06T09:26:30Z</time>
      </trkpt>
      <trkpt lat="44.66405" lon="6.02406">
        <ele>1953.54</ele>
        <time>2020-06-06T09:26:51Z</time>
      </trkpt>
      <trkpt lat="44.66397" lon="6.02392">
        <ele>1953.54</ele>
        <time>2020-06-06T09:27:06Z</time>
      </trkpt>
      <trkpt lat="44.66387" lon="6.02369">
        <ele>1955.46</ele>
        <time>2020-06-06T09:27:26Z</time>
      </trkpt>
      <trkpt lat="44.66386" lon="6.02367">
        <ele>1954.02</ele>
        <time>2020-06-06T09:27:28Z</time>
      </trkpt>
      <trkpt lat="44.66376" lon="6.02344">
        <ele>1954.02</ele>
        <time>2020-06-06T09:27:47Z</time>
      </trkpt>
      <trkpt lat="44.66368" lon="6.02338">
        <ele>1953.54</ele>
        <time>2020-06-06T09:28:02Z</time>
      </trkpt>
      <trkpt lat="44.66362" lon="6.0234">
        <ele>1950.17</ele>
        <time>2020-06-06T09:28:13Z</time>
      </trkpt>
      <trkpt lat="44.6635" lon="6.02333">
        <ele>1947.29</ele>
        <time>2020-06-06T09:28:29Z</time>
      </trkpt>
      <trkpt lat="44.66338" lon="6.0231">
        <ele>1946.81</ele>
        <time>2020-06-06T09:28:48Z</time>
      </trkpt>
      <trkpt lat="44.66336" lon="6.02306">
        <ele>1946.81</ele>
        <time>2020-06-06T09:28:51Z</time>
      </trkpt>
      <trkpt lat="44.66333" lon="6.02302">
        <ele>1946.81</ele>
        <time>2020-06-06T09:28:56Z</time>
      </trkpt>
      <trkpt lat="44.66328" lon="6.02292">
        <ele>1946.33</ele>
        <time>2020-06-06T09:29:04Z</time>
      </trkpt>
      <trkpt lat="44.66323" lon="6.02284">
        <ele>1946.33</ele>
        <time>2020-06-06T09:29:12Z</time>
      </trkpt>
      <trkpt lat="44.66321" lon="6.02278">
        <ele>1946.33</ele>
        <time>2020-06-06T09:29:17Z</time>
      </trkpt>
      <trkpt lat="44.6631" lon="6.02257">
        <ele>1945.85</ele>
        <time>2020-06-06T09:29:35Z</time>
      </trkpt>
      <trkpt lat="44.66305" lon="6.02241">
        <ele>1945.36</ele>
        <time>2020-06-06T09:29:49Z</time>
      </trkpt>
      <trkpt lat="44.66304" lon="6.02236">
        <ele>1946.33</ele>
        <time>2020-06-06T09:29:52Z</time>
      </trkpt>
      <trkpt lat="44.66304" lon="6.02235">
        <ele>1944.88</ele>
        <time>2020-06-06T09:29:53Z</time>
      </trkpt>
      <trkpt lat="44.66292" lon="6.0222">
        <ele>1943.92</ele>
        <time>2020-06-06T09:30:09Z</time>
      </trkpt>
      <trkpt lat="44.66291" lon="6.02215">
        <ele>1943.92</ele>
        <time>2020-06-06T09:30:12Z</time>
      </trkpt>
      <trkpt lat="44.66274" lon="6.02192">
        <ele>1941.52</ele>
        <time>2020-06-06T09:30:33Z</time>
      </trkpt>
      <trkpt lat="44.66255" lon="6.02172">
        <ele>1941.04</ele>
        <time>2020-06-06T09:30:53Z</time>
      </trkpt>
      <trkpt lat="44.66241" lon="6.02153">
        <ele>1942.48</ele>
        <time>2020-06-06T09:31:11Z</time>
      </trkpt>
      <trkpt lat="44.66238" lon="6.02146">
        <ele>1942.96</ele>
        <time>2020-06-06T09:31:30Z</time>
      </trkpt>
      <trkpt lat="44.66237" lon="6.02146">
        <ele>1942.96</ele>
        <time>2020-06-06T09:31:49Z</time>
      </trkpt>
      <trkpt lat="44.6622" lon="6.02132">
        <ele>1943.44</ele>
        <time>2020-06-06T09:32:07Z</time>
      </trkpt>
      <trkpt lat="44.66209" lon="6.02121">
        <ele>1943.92</ele>
        <time>2020-06-06T09:32:25Z</time>
      </trkpt>
      <trkpt lat="44.66202" lon="6.02117">
        <ele>1943.92</ele>
        <time>2020-06-06T09:32:45Z</time>
      </trkpt>
      <trkpt lat="44.66187" lon="6.02103">
        <ele>1946.33</ele>
        <time>2020-06-06T09:33:04Z</time>
      </trkpt>
      <trkpt lat="44.66177" lon="6.02092">
        <ele>1948.73</ele>
        <time>2020-06-06T09:33:20Z</time>
      </trkpt>
      <trkpt lat="44.6617" lon="6.02082">
        <ele>1952.09</ele>
        <time>2020-06-06T09:33:36Z</time>
      </trkpt>
      <trkpt lat="44.6616" lon="6.02072">
        <ele>1954.98</ele>
        <time>2020-06-06T09:33:54Z</time>
      </trkpt>
      <trkpt lat="44.66156" lon="6.0207">
        <ele>1954.98</ele>
        <time>2020-06-06T09:34:01Z</time>
      </trkpt>
      <trkpt lat="44.66152" lon="6.02066">
        <ele>1956.42</ele>
        <time>2020-06-06T09:34:17Z</time>
      </trkpt>
      <trkpt lat="44.6614" lon="6.02055">
        <ele>1959.3</ele>
        <time>2020-06-06T09:34:35Z</time>
      </trkpt>
      <trkpt lat="44.6613" lon="6.02044">
        <ele>1962.67</ele>
        <time>2020-06-06T09:34:53Z</time>
      </trkpt>
      <trkpt lat="44.6612" lon="6.02033">
        <ele>1966.03</ele>
        <time>2020-06-06T09:35:10Z</time>
      </trkpt>
      <trkpt lat="44.66114" lon="6.02027">
        <ele>1967.48</ele>
        <time>2020-06-06T09:35:29Z</time>
      </trkpt>
      <trkpt lat="44.66107" lon="6.02018">
        <ele>1970.84</ele>
        <time>2020-06-06T09:35:44Z</time>
      </trkpt>
      <trkpt lat="44.66101" lon="6.02009">
        <ele>1974.2</ele>
        <time>2020-06-06T09:35:58Z</time>
      </trkpt>
      <trkpt lat="44.66093" lon="6.02001">
        <ele>1976.61</ele>
        <time>2020-06-06T09:36:17Z</time>
      </trkpt>
      <trkpt lat="44.66085" lon="6.01992">
        <ele>1978.53</ele>
        <time>2020-06-06T09:36:33Z</time>
      </trkpt>
      <trkpt lat="44.66075" lon="6.01983">
        <ele>1980.93</ele>
        <time>2020-06-06T09:36:53Z</time>
      </trkpt>
      <trkpt lat="44.6607" lon="6.01974">
        <ele>1984.3</ele>
        <time>2020-06-06T09:37:08Z</time>
      </trkpt>
      <trkpt lat="44.6606" lon="6.01962">
        <ele>1986.7</ele>
        <time>2020-06-06T09:37:24Z</time>
      </trkpt>
      <trkpt lat="44.66056" lon="6.01954">
        <ele>1988.14</ele>
        <time>2020-06-06T09:37:40Z</time>
      </trkpt>
      <trkpt lat="44.66055" lon="6.01954">
        <ele>1988.62</ele>
        <time>2020-06-06T09:38:03Z</time>
      </trkpt>
      <trkpt lat="44.66053" lon="6.01953">
        <ele>1988.62</ele>
        <time>2020-06-06T09:38:35Z</time>
      </trkpt>
      <trkpt lat="44.66052" lon="6.01943">
        <ele>1989.59</ele>
        <time>2020-06-06T09:38:56Z</time>
      </trkpt>
      <trkpt lat="44.66047" lon="6.01936">
        <ele>1992.95</ele>
        <time>2020-06-06T09:39:13Z</time>
      </trkpt>
      <trkpt lat="44.66046" lon="6.01934">
        <ele>1993.91</ele>
        <time>2020-06-06T09:39:34Z</time>
      </trkpt>
      <trkpt lat="44.66042" lon="6.01923">
        <ele>1996.8</ele>
        <time>2020-06-06T09:39:50Z</time>
      </trkpt>
      <trkpt lat="44.66037" lon="6.01915">
        <ele>2000.16</ele>
        <time>2020-06-06T09:40:02Z</time>
      </trkpt>
      <trkpt lat="44.66032" lon="6.01908">
        <ele>2002.56</ele>
        <time>2020-06-06T09:40:20Z</time>
      </trkpt>
      <trkpt lat="44.66028" lon="6.01899">
        <ele>2005.45</ele>
        <time>2020-06-06T09:40:40Z</time>
      </trkpt>
      <trkpt lat="44.66022" lon="6.01889">
        <ele>2008.33</ele>
        <time>2020-06-06T09:40:59Z</time>
      </trkpt>
      <trkpt lat="44.6602" lon="6.01884">
        <ele>2011.7</ele>
        <time>2020-06-06T09:41:17Z</time>
      </trkpt>
      <trkpt lat="44.66018" lon="6.01877">
        <ele>2014.1</ele>
        <time>2020-06-06T09:41:36Z</time>
      </trkpt>
      <trkpt lat="44.66013" lon="6.0187">
        <ele>2016.5</ele>
        <time>2020-06-06T09:41:53Z</time>
      </trkpt>
      <trkpt lat="44.66009" lon="6.01863">
        <ele>2019.39</ele>
        <time>2020-06-06T09:42:11Z</time>
      </trkpt>
      <trkpt lat="44.66007" lon="6.0186">
        <ele>2021.31</ele>
        <time>2020-06-06T09:42:29Z</time>
      </trkpt>
      <trkpt lat="44.66006" lon="6.0186">
        <ele>2021.31</ele>
        <time>2020-06-06T09:42:55Z</time>
      </trkpt>
      <trkpt lat="44.66005" lon="6.01858">
        <ele>2022.27</ele>
        <time>2020-06-06T09:43:18Z</time>
      </trkpt>
      <trkpt lat="44.66002" lon="6.01852">
        <ele>2024.67</ele>
        <time>2020-06-06T09:43:37Z</time>
      </trkpt>
      <trkpt lat="44.66" lon="6.01846">
        <ele>2027.56</ele>
        <time>2020-06-06T09:43:53Z</time>
      </trkpt>
      <trkpt lat="44.65995" lon="6.01839">
        <ele>2030.44</ele>
        <time>2020-06-06T09:44:09Z</time>
      </trkpt>
      <trkpt lat="44.65988" lon="6.01832">
        <ele>2033.33</ele>
        <time>2020-06-06T09:44:29Z</time>
      </trkpt>
      <trkpt lat="44.65982" lon="6.01826">
        <ele>2036.21</ele>
        <time>2020-06-06T09:44:49Z</time>
      </trkpt>
      <trkpt lat="44.65979" lon="6.01823">
        <ele>2038.13</ele>
        <time>2020-06-06T09:44:55Z</time>
      </trkpt>
      <trkpt lat="44.65974" lon="6.01819">
        <ele>2039.57</ele>
        <time>2020-06-06T09:45:16Z</time>
      </trkpt>
      <trkpt lat="44.65968" lon="6.01811">
        <ele>2042.94</ele>
        <time>2020-06-06T09:45:34Z</time>
      </trkpt>
      <trkpt lat="44.65963" lon="6.01804">
        <ele>2045.34</ele>
        <time>2020-06-06T09:45:52Z</time>
      </trkpt>
      <trkpt lat="44.65955" lon="6.01798">
        <ele>2047.75</ele>
        <time>2020-06-06T09:46:12Z</time>
      </trkpt>
      <trkpt lat="44.65951" lon="6.01791">
        <ele>2049.67</ele>
        <time>2020-06-06T09:46:27Z</time>
      </trkpt>
      <trkpt lat="44.65945" lon="6.01785">
        <ele>2051.11</ele>
        <time>2020-06-06T09:46:50Z</time>
      </trkpt>
      <trkpt lat="44.65939" lon="6.01775">
        <ele>2053.99</ele>
        <time>2020-06-06T09:47:05Z</time>
      </trkpt>
      <trkpt lat="44.65935" lon="6.01762">
        <ele>2056.88</ele>
        <time>2020-06-06T09:47:20Z</time>
      </trkpt>
      <trkpt lat="44.65933" lon="6.0176">
        <ele>2058.32</ele>
        <time>2020-06-06T09:47:40Z</time>
      </trkpt>
      <trkpt lat="44.65931" lon="6.0175">
        <ele>2058.32</ele>
        <time>2020-06-06T09:48:00Z</time>
      </trkpt>
      <trkpt lat="44.65929" lon="6.01737">
        <ele>2059.28</ele>
        <time>2020-06-06T09:48:15Z</time>
      </trkpt>
      <trkpt lat="44.65927" lon="6.01741">
        <ele>2059.76</ele>
        <time>2020-06-06T09:48:36Z</time>
      </trkpt>
      <trkpt lat="44.65929" lon="6.01748">
        <ele>2060.24</ele>
        <time>2020-06-06T09:48:50Z</time>
      </trkpt>
      <trkpt lat="44.65927" lon="6.01753">
        <ele>2058.32</ele>
        <time>2020-06-06T09:49:10Z</time>
      </trkpt>
      <trkpt lat="44.65927" lon="6.01763">
        <ele>2056.4</ele>
        <time>2020-06-06T09:49:25Z</time>
      </trkpt>
      <trkpt lat="44.65927" lon="6.01762">
        <ele>2056.88</ele>
        <time>2020-06-06T09:49:44Z</time>
      </trkpt>
      <trkpt lat="44.65927" lon="6.01762">
        <ele>2056.88</ele>
        <time>2020-06-06T09:50:04Z</time>
      </trkpt>
      <trkpt lat="44.65927" lon="6.01765">
        <ele>2055.92</ele>
        <time>2020-06-06T09:50:27Z</time>
      </trkpt>
      <trkpt lat="44.65927" lon="6.01764">
        <ele>2055.44</ele>
        <time>2020-06-06T09:50:58Z</time>
      </trkpt>
      <trkpt lat="44.65927" lon="6.01765">
        <ele>2056.88</ele>
        <time>2020-06-06T09:51:24Z</time>
      </trkpt>
      <trkpt lat="44.65927" lon="6.01765">
        <ele>2055.44</ele>
        <time>2020-06-06T09:51:27Z</time>
      </trkpt>
      <trkpt lat="44.65928" lon="6.01764">
        <ele>2055.44</ele>
        <time>2020-06-06T09:52:03Z</time>
      </trkpt>
      <trkpt lat="44.65927" lon="6.01761">
        <ele>2055.44</ele>
        <time>2020-06-06T09:52:31Z</time>
      </trkpt>
      <trkpt lat="44.65927" lon="6.0176">
        <ele>2054.96</ele>
        <time>2020-06-06T09:52:32Z</time>
      </trkpt>
      <trkpt lat="44.65929" lon="6.01765">
        <ele>2053.03</ele>
        <time>2020-06-06T10:15:53Z</time>
      </trkpt>
      <trkpt lat="44.65927" lon="6.01763">
        <ele>2053.03</ele>
        <time>2020-06-06T10:15:54Z</time>
      </trkpt>
      <trkpt lat="44.65931" lon="6.01767">
        <ele>2054.47</ele>
        <time>2020-06-06T10:16:14Z</time>
      </trkpt>
      <trkpt lat="44.65933" lon="6.01769">
        <ele>2055.92</ele>
        <time>2020-06-06T10:16:18Z</time>
      </trkpt>
      <trkpt lat="44.65936" lon="6.01776">
        <ele>2053.03</ele>
        <time>2020-06-06T10:16:27Z</time>
      </trkpt>
      <trkpt lat="44.65939" lon="6.01783">
        <ele>2054.47</ele>
        <time>2020-06-06T10:16:35Z</time>
      </trkpt>
      <trkpt lat="44.65948" lon="6.01794">
        <ele>2052.07</ele>
        <time>2020-06-06T10:16:49Z</time>
      </trkpt>
      <trkpt lat="44.65959" lon="6.01803">
        <ele>2048.71</ele>
        <time>2020-06-06T10:17:07Z</time>
      </trkpt>
      <trkpt lat="44.65958" lon="6.01803">
        <ele>2048.71</ele>
        <time>2020-06-06T10:17:28Z</time>
      </trkpt>
      <trkpt lat="44.65964" lon="6.01811">
        <ele>2046.3</ele>
        <time>2020-06-06T10:17:41Z</time>
      </trkpt>
      <trkpt lat="44.65971" lon="6.01819">
        <ele>2042.94</ele>
        <time>2020-06-06T10:17:52Z</time>
      </trkpt>
      <trkpt lat="44.65978" lon="6.01825">
        <ele>2040.05</ele>
        <time>2020-06-06T10:18:11Z</time>
      </trkpt>
      <trkpt lat="44.65985" lon="6.01834">
        <ele>2036.69</ele>
        <time>2020-06-06T10:18:28Z</time>
      </trkpt>
      <trkpt lat="44.65991" lon="6.01841">
        <ele>2033.33</ele>
        <time>2020-06-06T10:18:44Z</time>
      </trkpt>
      <trkpt lat="44.65999" lon="6.0185">
        <ele>2030.44</ele>
        <time>2020-06-06T10:19:00Z</time>
      </trkpt>
      <trkpt lat="44.66005" lon="6.01854">
        <ele>2027.08</ele>
        <time>2020-06-06T10:19:13Z</time>
      </trkpt>
      <trkpt lat="44.66004" lon="6.01855">
        <ele>2026.6</ele>
        <time>2020-06-06T10:19:28Z</time>
      </trkpt>
      <trkpt lat="44.66009" lon="6.01866">
        <ele>2023.23</ele>
        <time>2020-06-06T10:19:47Z</time>
      </trkpt>
      <trkpt lat="44.66013" lon="6.01875">
        <ele>2019.87</ele>
        <time>2020-06-06T10:20:02Z</time>
      </trkpt>
      <trkpt lat="44.66019" lon="6.01882">
        <ele>2016.98</ele>
        <time>2020-06-06T10:20:13Z</time>
      </trkpt>
      <trkpt lat="44.66019" lon="6.01883">
        <ele>2016.02</ele>
        <time>2020-06-06T10:20:15Z</time>
      </trkpt>
      <trkpt lat="44.6602" lon="6.01887">
        <ele>2013.62</ele>
        <time>2020-06-06T10:20:28Z</time>
      </trkpt>
      <trkpt lat="44.66025" lon="6.01897">
        <ele>2010.25</ele>
        <time>2020-06-06T10:20:44Z</time>
      </trkpt>
      <trkpt lat="44.6603" lon="6.01906">
        <ele>2006.41</ele>
        <time>2020-06-06T10:21:00Z</time>
      </trkpt>
      <trkpt lat="44.66035" lon="6.01916">
        <ele>2003.52</ele>
        <time>2020-06-06T10:21:15Z</time>
      </trkpt>
      <trkpt lat="44.66035" lon="6.01916">
        <ele>2003.52</ele>
        <time>2020-06-06T10:21:16Z</time>
      </trkpt>
      <trkpt lat="44.66036" lon="6.01919">
        <ele>2002.08</ele>
        <time>2020-06-06T10:21:32Z</time>
      </trkpt>
      <trkpt lat="44.66038" lon="6.01919">
        <ele>2002.08</ele>
        <time>2020-06-06T10:21:56Z</time>
      </trkpt>
      <trkpt lat="44.66038" lon="6.01923">
        <ele>1999.68</ele>
        <time>2020-06-06T10:22:22Z</time>
      </trkpt>
      <trkpt lat="44.66044" lon="6.01935">
        <ele>1996.32</ele>
        <time>2020-06-06T10:22:38Z</time>
      </trkpt>
      <trkpt lat="44.6605" lon="6.01946">
        <ele>1992.95</ele>
        <time>2020-06-06T10:22:50Z</time>
      </trkpt>
      <trkpt lat="44.66051" lon="6.01948">
        <ele>1992.95</ele>
        <time>2020-06-06T10:22:52Z</time>
      </trkpt>
      <trkpt lat="44.66058" lon="6.01959">
        <ele>1989.59</ele>
        <time>2020-06-06T10:23:06Z</time>
      </trkpt>
      <trkpt lat="44.66068" lon="6.01971">
        <ele>1986.7</ele>
        <time>2020-06-06T10:23:20Z</time>
      </trkpt>
      <trkpt lat="44.66074" lon="6.01983">
        <ele>1983.34</ele>
        <time>2020-06-06T10:23:34Z</time>
      </trkpt>
      <trkpt lat="44.66085" lon="6.01994">
        <ele>1981.41</ele>
        <time>2020-06-06T10:23:52Z</time>
      </trkpt>
      <trkpt lat="44.66094" lon="6.02003">
        <ele>1979.01</ele>
        <time>2020-06-06T10:24:03Z</time>
      </trkpt>
      <trkpt lat="44.66104" lon="6.02014">
        <ele>1975.17</ele>
        <time>2020-06-06T10:24:16Z</time>
      </trkpt>
      <trkpt lat="44.66111" lon="6.02022">
        <ele>1971.8</ele>
        <time>2020-06-06T10:24:28Z</time>
      </trkpt>
      <trkpt lat="44.66119" lon="6.02032">
        <ele>1968.44</ele>
        <time>2020-06-06T10:24:39Z</time>
      </trkpt>
      <trkpt lat="44.6613" lon="6.02047">
        <ele>1965.07</ele>
        <time>2020-06-06T10:24:56Z</time>
      </trkpt>
      <trkpt lat="44.66141" lon="6.02059">
        <ele>1961.71</ele>
        <time>2020-06-06T10:25:09Z</time>
      </trkpt>
      <trkpt lat="44.66154" lon="6.02069">
        <ele>1958.34</ele>
        <time>2020-06-06T10:25:24Z</time>
      </trkpt>
      <trkpt lat="44.66166" lon="6.02079">
        <ele>1955.46</ele>
        <time>2020-06-06T10:25:40Z</time>
      </trkpt>
      <trkpt lat="44.66175" lon="6.0209">
        <ele>1952.09</ele>
        <time>2020-06-06T10:25:51Z</time>
      </trkpt>
      <trkpt lat="44.66183" lon="6.021">
        <ele>1949.69</ele>
        <time>2020-06-06T10:26:09Z</time>
      </trkpt>
      <trkpt lat="44.66191" lon="6.02112">
        <ele>1946.33</ele>
        <time>2020-06-06T10:26:20Z</time>
      </trkpt>
      <trkpt lat="44.66201" lon="6.02119">
        <ele>1945.36</ele>
        <time>2020-06-06T10:26:35Z</time>
      </trkpt>
      <trkpt lat="44.66208" lon="6.02131">
        <ele>1943.92</ele>
        <time>2020-06-06T10:26:51Z</time>
      </trkpt>
      <trkpt lat="44.66221" lon="6.02144">
        <ele>1942.48</ele>
        <time>2020-06-06T10:27:10Z</time>
      </trkpt>
      <trkpt lat="44.66242" lon="6.02165">
        <ele>1941.52</ele>
        <time>2020-06-06T10:27:33Z</time>
      </trkpt>
      <trkpt lat="44.66248" lon="6.02172">
        <ele>1941.52</ele>
        <time>2020-06-06T10:27:50Z</time>
      </trkpt>
      <trkpt lat="44.66256" lon="6.02179">
        <ele>1941.52</ele>
        <time>2020-06-06T10:28:06Z</time>
      </trkpt>
      <trkpt lat="44.66267" lon="6.02189">
        <ele>1942.48</ele>
        <time>2020-06-06T10:28:27Z</time>
      </trkpt>
      <trkpt lat="44.66281" lon="6.02213">
        <ele>1942.96</ele>
        <time>2020-06-06T10:28:48Z</time>
      </trkpt>
      <trkpt lat="44.6629" lon="6.02229">
        <ele>1945.36</ele>
        <time>2020-06-06T10:29:05Z</time>
      </trkpt>
      <trkpt lat="44.66295" lon="6.02237">
        <ele>1945.85</ele>
        <time>2020-06-06T10:29:13Z</time>
      </trkpt>
      <trkpt lat="44.66301" lon="6.02254">
        <ele>1946.33</ele>
        <time>2020-06-06T10:29:30Z</time>
      </trkpt>
      <trkpt lat="44.66307" lon="6.0227">
        <ele>1946.33</ele>
        <time>2020-06-06T10:29:44Z</time>
      </trkpt>
      <trkpt lat="44.66318" lon="6.02284">
        <ele>1946.81</ele>
        <time>2020-06-06T10:30:02Z</time>
      </trkpt>
      <trkpt lat="44.66321" lon="6.02292">
        <ele>1946.81</ele>
        <time>2020-06-06T10:30:16Z</time>
      </trkpt>
      <trkpt lat="44.66325" lon="6.02296">
        <ele>1946.81</ele>
        <time>2020-06-06T10:30:32Z</time>
      </trkpt>
      <trkpt lat="44.66324" lon="6.02299">
        <ele>1946.81</ele>
        <time>2020-06-06T10:30:51Z</time>
      </trkpt>
      <trkpt lat="44.66323" lon="6.02298">
        <ele>1946.81</ele>
        <time>2020-06-06T10:31:08Z</time>
      </trkpt>
      <trkpt lat="44.66324" lon="6.02298">
        <ele>1947.29</ele>
        <time>2020-06-06T10:31:25Z</time>
      </trkpt>
      <trkpt lat="44.66325" lon="6.02301">
        <ele>1947.77</ele>
        <time>2020-06-06T10:31:52Z</time>
      </trkpt>
      <trkpt lat="44.66328" lon="6.02308">
        <ele>1947.29</ele>
        <time>2020-06-06T10:31:57Z</time>
      </trkpt>
      <trkpt lat="44.66337" lon="6.02323">
        <ele>1947.29</ele>
        <time>2020-06-06T10:32:10Z</time>
      </trkpt>
      <trkpt lat="44.66351" lon="6.02346">
        <ele>1947.29</ele>
        <time>2020-06-06T10:32:30Z</time>
      </trkpt>
      <trkpt lat="44.66361" lon="6.02365">
        <ele>1947.29</ele>
        <time>2020-06-06T10:32:45Z</time>
      </trkpt>
      <trkpt lat="44.66371" lon="6.02386">
        <ele>1947.29</ele>
        <time>2020-06-06T10:33:01Z</time>
      </trkpt>
      <trkpt lat="44.66377" lon="6.02393">
        <ele>1946.81</ele>
        <time>2020-06-06T10:33:08Z</time>
      </trkpt>
      <trkpt lat="44.6639" lon="6.02418">
        <ele>1946.33</ele>
        <time>2020-06-06T10:33:26Z</time>
      </trkpt>
      <trkpt lat="44.66399" lon="6.02429">
        <ele>1946.81</ele>
        <time>2020-06-06T10:33:41Z</time>
      </trkpt>
      <trkpt lat="44.66409" lon="6.02448">
        <ele>1946.33</ele>
        <time>2020-06-06T10:33:57Z</time>
      </trkpt>
      <trkpt lat="44.66419" lon="6.02457">
        <ele>1946.33</ele>
        <time>2020-06-06T10:34:11Z</time>
      </trkpt>
      <trkpt lat="44.66424" lon="6.02463">
        <ele>1945.85</ele>
        <time>2020-06-06T10:34:17Z</time>
      </trkpt>
      <trkpt lat="44.66425" lon="6.02465">
        <ele>1945.85</ele>
        <time>2020-06-06T10:34:19Z</time>
      </trkpt>
      <trkpt lat="44.66427" lon="6.02467">
        <ele>1945.85</ele>
        <time>2020-06-06T10:34:21Z</time>
      </trkpt>
      <trkpt lat="44.66428" lon="6.0247">
        <ele>1945.36</ele>
        <time>2020-06-06T10:34:23Z</time>
      </trkpt>
      <trkpt lat="44.6643" lon="6.02501">
        <ele>1944.88</ele>
        <time>2020-06-06T10:34:42Z</time>
      </trkpt>
      <trkpt lat="44.66429" lon="6.02531">
        <ele>1944.4</ele>
        <time>2020-06-06T10:35:02Z</time>
      </trkpt>
      <trkpt lat="44.66432" lon="6.02563">
        <ele>1943.92</ele>
        <time>2020-06-06T10:35:21Z</time>
      </trkpt>
      <trkpt lat="44.66431" lon="6.0257">
        <ele>1943.92</ele>
        <time>2020-06-06T10:35:26Z</time>
      </trkpt>
      <trkpt lat="44.66421" lon="6.02595">
        <ele>1942.48</ele>
        <time>2020-06-06T10:35:44Z</time>
      </trkpt>
      <trkpt lat="44.66416" lon="6.02601">
        <ele>1942</ele>
        <time>2020-06-06T10:35:49Z</time>
      </trkpt>
      <trkpt lat="44.66418" lon="6.02614">
        <ele>1942.96</ele>
        <time>2020-06-06T10:36:03Z</time>
      </trkpt>
      <trkpt lat="44.66427" lon="6.0263">
        <ele>1945.85</ele>
        <time>2020-06-06T10:36:19Z</time>
      </trkpt>
      <trkpt lat="44.66431" lon="6.02634">
        <ele>1946.81</ele>
        <time>2020-06-06T10:36:25Z</time>
      </trkpt>
      <trkpt lat="44.66435" lon="6.02649">
        <ele>1950.17</ele>
        <time>2020-06-06T10:36:41Z</time>
      </trkpt>
      <trkpt lat="44.66441" lon="6.0267">
        <ele>1953.06</ele>
        <time>2020-06-06T10:37:00Z</time>
      </trkpt>
      <trkpt lat="44.66442" lon="6.02677">
        <ele>1954.02</ele>
        <time>2020-06-06T10:37:15Z</time>
      </trkpt>
      <trkpt lat="44.66445" lon="6.02684">
        <ele>1954.98</ele>
        <time>2020-06-06T10:37:23Z</time>
      </trkpt>
      <trkpt lat="44.66451" lon="6.02699">
        <ele>1957.86</ele>
        <time>2020-06-06T10:37:39Z</time>
      </trkpt>
      <trkpt lat="44.66457" lon="6.02713">
        <ele>1961.23</ele>
        <time>2020-06-06T10:37:55Z</time>
      </trkpt>
      <trkpt lat="44.66462" lon="6.02723">
        <ele>1962.67</ele>
        <time>2020-06-06T10:38:09Z</time>
      </trkpt>
      <trkpt lat="44.66459" lon="6.02736">
        <ele>1966.03</ele>
        <time>2020-06-06T10:38:25Z</time>
      </trkpt>
      <trkpt lat="44.66458" lon="6.02744">
        <ele>1967.48</ele>
        <time>2020-06-06T10:38:42Z</time>
      </trkpt>
      <trkpt lat="44.66452" lon="6.02756">
        <ele>1970.36</ele>
        <time>2020-06-06T10:38:59Z</time>
      </trkpt>
      <trkpt lat="44.66447" lon="6.02768">
        <ele>1972.76</ele>
        <time>2020-06-06T10:39:16Z</time>
      </trkpt>
      <trkpt lat="44.66447" lon="6.02774">
        <ele>1973.72</ele>
        <time>2020-06-06T10:39:31Z</time>
      </trkpt>
      <trkpt lat="44.66446" lon="6.02773">
        <ele>1973.72</ele>
        <time>2020-06-06T10:39:52Z</time>
      </trkpt>
      <trkpt lat="44.66442" lon="6.02783">
        <ele>1975.17</ele>
        <time>2020-06-06T10:40:13Z</time>
      </trkpt>
      <trkpt lat="44.66436" lon="6.02794">
        <ele>1978.05</ele>
        <time>2020-06-06T10:40:28Z</time>
      </trkpt>
      <trkpt lat="44.66431" lon="6.02805">
        <ele>1980.93</ele>
        <time>2020-06-06T10:40:44Z</time>
      </trkpt>
      <trkpt lat="44.66424" lon="6.02814">
        <ele>1983.82</ele>
        <time>2020-06-06T10:40:58Z</time>
      </trkpt>
      <trkpt lat="44.66421" lon="6.02825">
        <ele>1987.18</ele>
        <time>2020-06-06T10:41:13Z</time>
      </trkpt>
      <trkpt lat="44.6642" lon="6.02832">
        <ele>1989.1</ele>
        <time>2020-06-06T10:41:29Z</time>
      </trkpt>
      <trkpt lat="44.66415" lon="6.02841">
        <ele>1992.47</ele>
        <time>2020-06-06T10:41:43Z</time>
      </trkpt>
      <trkpt lat="44.66419" lon="6.02847">
        <ele>1993.91</ele>
        <time>2020-06-06T10:42:03Z</time>
      </trkpt>
      <trkpt lat="44.66418" lon="6.0286">
        <ele>1997.28</ele>
        <time>2020-06-06T10:42:18Z</time>
      </trkpt>
      <trkpt lat="44.66414" lon="6.02861">
        <ele>1999.2</ele>
        <time>2020-06-06T10:42:33Z</time>
      </trkpt>
      <trkpt lat="44.66413" lon="6.02861">
        <ele>1999.2</ele>
        <time>2020-06-06T10:42:59Z</time>
      </trkpt>
      <trkpt lat="44.66413" lon="6.02861">
        <ele>1999.68</ele>
        <time>2020-06-06T10:43:21Z</time>
      </trkpt>
      <trkpt lat="44.66413" lon="6.02866">
        <ele>1999.68</ele>
        <time>2020-06-06T10:43:48Z</time>
      </trkpt>
      <trkpt lat="44.66412" lon="6.02879">
        <ele>2003.04</ele>
        <time>2020-06-06T10:44:04Z</time>
      </trkpt>
      <trkpt lat="44.66409" lon="6.02889">
        <ele>2006.41</ele>
        <time>2020-06-06T10:44:20Z</time>
      </trkpt>
      <trkpt lat="44.66409" lon="6.02897">
        <ele>2009.29</ele>
        <time>2020-06-06T10:44:34Z</time>
      </trkpt>
      <trkpt lat="44.66409" lon="6.02904">
        <ele>2010.73</ele>
        <time>2020-06-06T10:44:49Z</time>
      </trkpt>
      <trkpt lat="44.66408" lon="6.02913">
        <ele>2013.62</ele>
        <time>2020-06-06T10:45:01Z</time>
      </trkpt>
      <trkpt lat="44.66409" lon="6.02919">
        <ele>2015.06</ele>
        <time>2020-06-06T10:45:19Z</time>
      </trkpt>
      <trkpt lat="44.66408" lon="6.02923">
        <ele>2015.06</ele>
        <time>2020-06-06T10:45:25Z</time>
      </trkpt>
      <trkpt lat="44.66404" lon="6.0294">
        <ele>2017.94</ele>
        <time>2020-06-06T10:45:42Z</time>
      </trkpt>
      <trkpt lat="44.66401" lon="6.02954">
        <ele>2020.35</ele>
        <time>2020-06-06T10:45:57Z</time>
      </trkpt>
      <trkpt lat="44.66401" lon="6.02965">
        <ele>2024.19</ele>
        <time>2020-06-06T10:46:12Z</time>
      </trkpt>
      <trkpt lat="44.66404" lon="6.02972">
        <ele>2025.64</ele>
        <time>2020-06-06T10:46:27Z</time>
      </trkpt>
      <trkpt lat="44.664" lon="6.02982">
        <ele>2028.52</ele>
        <time>2020-06-06T10:46:40Z</time>
      </trkpt>
      <trkpt lat="44.66399" lon="6.02988">
        <ele>2029.96</ele>
        <time>2020-06-06T10:46:57Z</time>
      </trkpt>
      <trkpt lat="44.66396" lon="6.03002">
        <ele>2033.33</ele>
        <time>2020-06-06T10:47:13Z</time>
      </trkpt>
      <trkpt lat="44.66392" lon="6.03016">
        <ele>2035.73</ele>
        <time>2020-06-06T10:47:28Z</time>
      </trkpt>
      <trkpt lat="44.66389" lon="6.0303">
        <ele>2037.65</ele>
        <time>2020-06-06T10:47:42Z</time>
      </trkpt>
      <trkpt lat="44.66385" lon="6.03051">
        <ele>2040.05</ele>
        <time>2020-06-06T10:48:00Z</time>
      </trkpt>
      <trkpt lat="44.6638" lon="6.03067">
        <ele>2042.46</ele>
        <time>2020-06-06T10:48:19Z</time>
      </trkpt>
      <trkpt lat="44.6638" lon="6.03065">
        <ele>2042.46</ele>
        <time>2020-06-06T10:48:42Z</time>
      </trkpt>
      <trkpt lat="44.66379" lon="6.03066">
        <ele>2042.46</ele>
        <time>2020-06-06T10:49:06Z</time>
      </trkpt>
      <trkpt lat="44.6638" lon="6.03068">
        <ele>2042.46</ele>
        <time>2020-06-06T10:49:38Z</time>
      </trkpt>
      <trkpt lat="44.66379" lon="6.03064">
        <ele>2042.46</ele>
        <time>2020-06-06T10:50:02Z</time>
      </trkpt>
      <trkpt lat="44.66379" lon="6.03065">
        <ele>2042.46</ele>
        <time>2020-06-06T10:50:24Z</time>
      </trkpt>
      <trkpt lat="44.66373" lon="6.03084">
        <ele>2043.42</ele>
        <time>2020-06-06T10:50:39Z</time>
      </trkpt>
      <trkpt lat="44.66367" lon="6.03107">
        <ele>2045.82</ele>
        <time>2020-06-06T10:50:58Z</time>
      </trkpt>
      <trkpt lat="44.66363" lon="6.03117">
        <ele>2046.3</ele>
        <time>2020-06-06T10:51:21Z</time>
      </trkpt>
      <trkpt lat="44.66359" lon="6.03127">
        <ele>2047.75</ele>
        <time>2020-06-06T10:51:36Z</time>
      </trkpt>
      <trkpt lat="44.66352" lon="6.03146">
        <ele>2050.63</ele>
        <time>2020-06-06T10:51:53Z</time>
      </trkpt>
      <trkpt lat="44.66345" lon="6.03165">
        <ele>2053.99</ele>
        <time>2020-06-06T10:52:11Z</time>
      </trkpt>
      <trkpt lat="44.66339" lon="6.03183">
        <ele>2056.88</ele>
        <time>2020-06-06T10:52:28Z</time>
      </trkpt>
      <trkpt lat="44.66334" lon="6.032">
        <ele>2059.28</ele>
        <time>2020-06-06T10:52:44Z</time>
      </trkpt>
      <trkpt lat="44.66329" lon="6.03215">
        <ele>2061.68</ele>
        <time>2020-06-06T10:52:59Z</time>
      </trkpt>
      <trkpt lat="44.66324" lon="6.03234">
        <ele>2064.09</ele>
        <time>2020-06-06T10:53:17Z</time>
      </trkpt>
      <trkpt lat="44.66322" lon="6.03246">
        <ele>2065.53</ele>
        <time>2020-06-06T10:53:27Z</time>
      </trkpt>
      <trkpt lat="44.66322" lon="6.03266">
        <ele>2067.45</ele>
        <time>2020-06-06T10:53:46Z</time>
      </trkpt>
      <trkpt lat="44.66321" lon="6.03279">
        <ele>2068.41</ele>
        <time>2020-06-06T10:54:00Z</time>
      </trkpt>
      <trkpt lat="44.66323" lon="6.03298">
        <ele>2070.82</ele>
        <time>2020-06-06T10:54:15Z</time>
      </trkpt>
      <trkpt lat="44.66324" lon="6.03316">
        <ele>2072.26</ele>
        <time>2020-06-06T10:54:31Z</time>
      </trkpt>
      <trkpt lat="44.66325" lon="6.03339">
        <ele>2074.18</ele>
        <time>2020-06-06T10:54:50Z</time>
      </trkpt>
      <trkpt lat="44.66327" lon="6.03358">
        <ele>2075.14</ele>
        <time>2020-06-06T10:55:06Z</time>
      </trkpt>
      <trkpt lat="44.66329" lon="6.03363">
        <ele>2075.14</ele>
        <time>2020-06-06T10:55:26Z</time>
      </trkpt>
      <trkpt lat="44.66328" lon="6.03362">
        <ele>2075.62</ele>
        <time>2020-06-06T10:55:46Z</time>
      </trkpt>
      <trkpt lat="44.66326" lon="6.03364">
        <ele>2075.62</ele>
        <time>2020-06-06T10:56:07Z</time>
      </trkpt>
      <trkpt lat="44.66323" lon="6.03372">
        <ele>2073.22</ele>
        <time>2020-06-06T10:56:23Z</time>
      </trkpt>
      <trkpt lat="44.66318" lon="6.03386">
        <ele>2069.86</ele>
        <time>2020-06-06T10:56:37Z</time>
      </trkpt>
      <trkpt lat="44.66315" lon="6.03395">
        <ele>2067.45</ele>
        <time>2020-06-06T10:56:46Z</time>
      </trkpt>
      <trkpt lat="44.66313" lon="6.03401">
        <ele>2066.97</ele>
        <time>2020-06-06T10:56:52Z</time>
      </trkpt>
      <trkpt lat="44.66308" lon="6.0341">
        <ele>2064.09</ele>
        <time>2020-06-06T10:57:01Z</time>
      </trkpt>
      <trkpt lat="44.66301" lon="6.03428">
        <ele>2060.24</ele>
        <time>2020-06-06T10:57:18Z</time>
      </trkpt>
      <trkpt lat="44.66296" lon="6.0344">
        <ele>2058.8</ele>
        <time>2020-06-06T10:57:31Z</time>
      </trkpt>
      <trkpt lat="44.66294" lon="6.03442">
        <ele>2057.84</ele>
        <time>2020-06-06T10:57:33Z</time>
      </trkpt>
      <trkpt lat="44.66282" lon="6.03467">
        <ele>2054.47</ele>
        <time>2020-06-06T10:57:52Z</time>
      </trkpt>
      <trkpt lat="44.6628" lon="6.0347">
        <ele>2053.99</ele>
        <time>2020-06-06T10:57:55Z</time>
      </trkpt>
      <trkpt lat="44.66273" lon="6.03484">
        <ele>2052.55</ele>
        <time>2020-06-06T10:58:06Z</time>
      </trkpt>
      <trkpt lat="44.66267" lon="6.03493">
        <ele>2051.11</ele>
        <time>2020-06-06T10:58:14Z</time>
      </trkpt>
      <trkpt lat="44.66258" lon="6.03512">
        <ele>2049.67</ele>
        <time>2020-06-06T10:58:28Z</time>
      </trkpt>
      <trkpt lat="44.66246" lon="6.03532">
        <ele>2046.78</ele>
        <time>2020-06-06T10:58:47Z</time>
      </trkpt>
      <trkpt lat="44.66235" lon="6.03555">
        <ele>2045.34</ele>
        <time>2020-06-06T10:59:03Z</time>
      </trkpt>
      <trkpt lat="44.66232" lon="6.03563">
        <ele>2044.38</ele>
        <time>2020-06-06T10:59:19Z</time>
      </trkpt>
      <trkpt lat="44.66231" lon="6.03563">
        <ele>2044.38</ele>
        <time>2020-06-06T10:59:36Z</time>
      </trkpt>
      <trkpt lat="44.66225" lon="6.03572">
        <ele>2042.94</ele>
        <time>2020-06-06T10:59:55Z</time>
      </trkpt>
      <trkpt lat="44.66215" lon="6.03588">
        <ele>2041.98</ele>
        <time>2020-06-06T11:00:11Z</time>
      </trkpt>
      <trkpt lat="44.66207" lon="6.036">
        <ele>2040.54</ele>
        <time>2020-06-06T11:00:27Z</time>
      </trkpt>
      <trkpt lat="44.66212" lon="6.03603">
        <ele>2040.54</ele>
        <time>2020-06-06T11:00:41Z</time>
      </trkpt>
      <trkpt lat="44.66217" lon="6.03597">
        <ele>2040.05</ele>
        <time>2020-06-06T11:00:56Z</time>
      </trkpt>
      <trkpt lat="44.6622" lon="6.03596">
        <ele>2040.05</ele>
        <time>2020-06-06T11:01:16Z</time>
      </trkpt>
      <trkpt lat="44.66225" lon="6.03595">
        <ele>2038.13</ele>
        <time>2020-06-06T11:01:31Z</time>
      </trkpt>
      <trkpt lat="44.66235" lon="6.03591">
        <ele>2035.73</ele>
        <time>2020-06-06T11:01:46Z</time>
      </trkpt>
      <trkpt lat="44.66243" lon="6.0359">
        <ele>2033.81</ele>
        <time>2020-06-06T11:01:59Z</time>
      </trkpt>
      <trkpt lat="44.66252" lon="6.03586">
        <ele>2031.4</ele>
        <time>2020-06-06T11:02:13Z</time>
      </trkpt>
      <trkpt lat="44.66258" lon="6.03585">
        <ele>2028.52</ele>
        <time>2020-06-06T11:02:26Z</time>
      </trkpt>
      <trkpt lat="44.66266" lon="6.03583">
        <ele>2026.12</ele>
        <time>2020-06-06T11:02:43Z</time>
      </trkpt>
      <trkpt lat="44.66272" lon="6.0358">
        <ele>2024.67</ele>
        <time>2020-06-06T11:03:02Z</time>
      </trkpt>
      <trkpt lat="44.66282" lon="6.03574">
        <ele>2021.31</ele>
        <time>2020-06-06T11:03:16Z</time>
      </trkpt>
      <trkpt lat="44.66294" lon="6.03568">
        <ele>2017.94</ele>
        <time>2020-06-06T11:03:33Z</time>
      </trkpt>
      <trkpt lat="44.66301" lon="6.03564">
        <ele>2015.54</ele>
        <time>2020-06-06T11:03:43Z</time>
      </trkpt>
      <trkpt lat="44.66315" lon="6.03552">
        <ele>2012.66</ele>
        <time>2020-06-06T11:04:00Z</time>
      </trkpt>
      <trkpt lat="44.66316" lon="6.03552">
        <ele>2012.18</ele>
        <time>2020-06-06T11:04:01Z</time>
      </trkpt>
      <trkpt lat="44.66325" lon="6.03546">
        <ele>2010.73</ele>
        <time>2020-06-06T11:04:17Z</time>
      </trkpt>
      <trkpt lat="44.66337" lon="6.0354">
        <ele>2007.37</ele>
        <time>2020-06-06T11:04:32Z</time>
      </trkpt>
      <trkpt lat="44.66349" lon="6.03532">
        <ele>2005.45</ele>
        <time>2020-06-06T11:04:47Z</time>
      </trkpt>
      <trkpt lat="44.66357" lon="6.03527">
        <ele>2002.08</ele>
        <time>2020-06-06T11:04:58Z</time>
      </trkpt>
      <trkpt lat="44.6637" lon="6.03519">
        <ele>1999.68</ele>
        <time>2020-06-06T11:05:14Z</time>
      </trkpt>
      <trkpt lat="44.66375" lon="6.03517">
        <ele>1998.24</ele>
        <time>2020-06-06T11:05:20Z</time>
      </trkpt>
      <trkpt lat="44.66384" lon="6.03514">
        <ele>1995.35</ele>
        <time>2020-06-06T11:05:32Z</time>
      </trkpt>
      <trkpt lat="44.66395" lon="6.03508">
        <ele>1991.51</ele>
        <time>2020-06-06T11:05:49Z</time>
      </trkpt>
      <trkpt lat="44.66406" lon="6.03504">
        <ele>1988.14</ele>
        <time>2020-06-06T11:06:06Z</time>
      </trkpt>
      <trkpt lat="44.66417" lon="6.03499">
        <ele>1985.26</ele>
        <time>2020-06-06T11:06:23Z</time>
      </trkpt>
      <trkpt lat="44.66422" lon="6.03502">
        <ele>1983.34</ele>
        <time>2020-06-06T11:06:40Z</time>
      </trkpt>
      <trkpt lat="44.66431" lon="6.03501">
        <ele>1979.49</ele>
        <time>2020-06-06T11:06:55Z</time>
      </trkpt>
      <trkpt lat="44.6644" lon="6.035">
        <ele>1976.13</ele>
        <time>2020-06-06T11:07:10Z</time>
      </trkpt>
      <trkpt lat="44.66447" lon="6.03501">
        <ele>1972.76</ele>
        <time>2020-06-06T11:07:23Z</time>
      </trkpt>
      <trkpt lat="44.66455" lon="6.03499">
        <ele>1969.88</ele>
        <time>2020-06-06T11:07:37Z</time>
      </trkpt>
      <trkpt lat="44.66456" lon="6.03498">
        <ele>1969.4</ele>
        <time>2020-06-06T11:07:38Z</time>
      </trkpt>
      <trkpt lat="44.66464" lon="6.03501">
        <ele>1966.51</ele>
        <time>2020-06-06T11:07:54Z</time>
      </trkpt>
      <trkpt lat="44.66472" lon="6.035">
        <ele>1964.11</ele>
        <time>2020-06-06T11:08:10Z</time>
      </trkpt>
      <trkpt lat="44.66476" lon="6.03503">
        <ele>1961.23</ele>
        <time>2020-06-06T11:08:20Z</time>
      </trkpt>
      <trkpt lat="44.66484" lon="6.03503">
        <ele>1958.82</ele>
        <time>2020-06-06T11:08:35Z</time>
      </trkpt>
      <trkpt lat="44.66491" lon="6.03506">
        <ele>1955.46</ele>
        <time>2020-06-06T11:08:51Z</time>
      </trkpt>
      <trkpt lat="44.66501" lon="6.03504">
        <ele>1952.09</ele>
        <time>2020-06-06T11:09:05Z</time>
      </trkpt>
      <trkpt lat="44.66512" lon="6.03503">
        <ele>1948.73</ele>
        <time>2020-06-06T11:09:20Z</time>
      </trkpt>
      <trkpt lat="44.66512" lon="6.03503">
        <ele>1948.25</ele>
        <time>2020-06-06T11:09:21Z</time>
      </trkpt>
      <trkpt lat="44.66521" lon="6.03505">
        <ele>1945.36</ele>
        <time>2020-06-06T11:09:34Z</time>
      </trkpt>
      <trkpt lat="44.66532" lon="6.03505">
        <ele>1942.48</ele>
        <time>2020-06-06T11:09:49Z</time>
      </trkpt>
      <trkpt lat="44.66534" lon="6.03508">
        <ele>1940.08</ele>
        <time>2020-06-06T11:09:59Z</time>
      </trkpt>
      <trkpt lat="44.66545" lon="6.03506">
        <ele>1937.19</ele>
        <time>2020-06-06T11:10:16Z</time>
      </trkpt>
      <trkpt lat="44.66555" lon="6.03505">
        <ele>1933.83</ele>
        <time>2020-06-06T11:10:33Z</time>
      </trkpt>
      <trkpt lat="44.66564" lon="6.03501">
        <ele>1930.46</ele>
        <time>2020-06-06T11:10:49Z</time>
      </trkpt>
      <trkpt lat="44.66568" lon="6.03502">
        <ele>1929.98</ele>
        <time>2020-06-06T11:11:07Z</time>
      </trkpt>
      <trkpt lat="44.66568" lon="6.03506">
        <ele>1929.02</ele>
        <time>2020-06-06T11:11:24Z</time>
      </trkpt>
      <trkpt lat="44.66569" lon="6.03513">
        <ele>1926.62</ele>
        <time>2020-06-06T11:11:42Z</time>
      </trkpt>
      <trkpt lat="44.66576" lon="6.03514">
        <ele>1923.25</ele>
        <time>2020-06-06T11:11:57Z</time>
      </trkpt>
      <trkpt lat="44.66579" lon="6.0352">
        <ele>1920.37</ele>
        <time>2020-06-06T11:12:13Z</time>
      </trkpt>
      <trkpt lat="44.66582" lon="6.03528">
        <ele>1917.49</ele>
        <time>2020-06-06T11:12:28Z</time>
      </trkpt>
      <trkpt lat="44.66583" lon="6.03538">
        <ele>1914.12</ele>
        <time>2020-06-06T11:12:41Z</time>
      </trkpt>
      <trkpt lat="44.6658" lon="6.03545">
        <ele>1911.24</ele>
        <time>2020-06-06T11:12:55Z</time>
      </trkpt>
      <trkpt lat="44.66577" lon="6.03554">
        <ele>1908.35</ele>
        <time>2020-06-06T11:13:09Z</time>
      </trkpt>
      <trkpt lat="44.66573" lon="6.03563">
        <ele>1904.51</ele>
        <time>2020-06-06T11:13:21Z</time>
      </trkpt>
      <trkpt lat="44.66569" lon="6.03576">
        <ele>1901.14</ele>
        <time>2020-06-06T11:13:36Z</time>
      </trkpt>
      <trkpt lat="44.66564" lon="6.03594">
        <ele>1898.26</ele>
        <time>2020-06-06T11:13:51Z</time>
      </trkpt>
      <trkpt lat="44.66562" lon="6.03608">
        <ele>1894.9</ele>
        <time>2020-06-06T11:14:08Z</time>
      </trkpt>
      <trkpt lat="44.66564" lon="6.03618">
        <ele>1891.53</ele>
        <time>2020-06-06T11:14:19Z</time>
      </trkpt>
      <trkpt lat="44.66565" lon="6.03625">
        <ele>1889.13</ele>
        <time>2020-06-06T11:14:32Z</time>
      </trkpt>
      <trkpt lat="44.66567" lon="6.03629">
        <ele>1886.72</ele>
        <time>2020-06-06T11:14:43Z</time>
      </trkpt>
      <trkpt lat="44.66564" lon="6.03636">
        <ele>1884.8</ele>
        <time>2020-06-06T11:14:58Z</time>
      </trkpt>
      <trkpt lat="44.6657" lon="6.03635">
        <ele>1883.36</ele>
        <time>2020-06-06T11:15:20Z</time>
      </trkpt>
      <trkpt lat="44.66574" lon="6.03637">
        <ele>1880.96</ele>
        <time>2020-06-06T11:15:36Z</time>
      </trkpt>
      <trkpt lat="44.66573" lon="6.03649">
        <ele>1878.55</ele>
        <time>2020-06-06T11:15:52Z</time>
      </trkpt>
      <trkpt lat="44.66571" lon="6.03657">
        <ele>1875.19</ele>
        <time>2020-06-06T11:16:09Z</time>
      </trkpt>
      <trkpt lat="44.66577" lon="6.03657">
        <ele>1873.27</ele>
        <time>2020-06-06T11:16:26Z</time>
      </trkpt>
      <trkpt lat="44.66584" lon="6.03659">
        <ele>1870.86</ele>
        <time>2020-06-06T11:16:41Z</time>
      </trkpt>
      <trkpt lat="44.66584" lon="6.03664">
        <ele>1868.94</ele>
        <time>2020-06-06T11:16:49Z</time>
      </trkpt>
      <trkpt lat="44.66587" lon="6.0367">
        <ele>1867.02</ele>
        <time>2020-06-06T11:17:05Z</time>
      </trkpt>
      <trkpt lat="44.66592" lon="6.0367">
        <ele>1865.09</ele>
        <time>2020-06-06T11:17:19Z</time>
      </trkpt>
      <trkpt lat="44.66599" lon="6.0367">
        <ele>1862.21</ele>
        <time>2020-06-06T11:17:34Z</time>
      </trkpt>
      <trkpt lat="44.6661" lon="6.0367">
        <ele>1857.89</ele>
        <time>2020-06-06T11:17:50Z</time>
      </trkpt>
      <trkpt lat="44.66611" lon="6.0367">
        <ele>1857.89</ele>
        <time>2020-06-06T11:17:51Z</time>
      </trkpt>
      <trkpt lat="44.66613" lon="6.03676">
        <ele>1855.96</ele>
        <time>2020-06-06T11:18:00Z</time>
      </trkpt>
      <trkpt lat="44.6662" lon="6.03672">
        <ele>1852.6</ele>
        <time>2020-06-06T11:18:13Z</time>
      </trkpt>
      <trkpt lat="44.66626" lon="6.03675">
        <ele>1849.23</ele>
        <time>2020-06-06T11:18:26Z</time>
      </trkpt>
      <trkpt lat="44.66627" lon="6.03675">
        <ele>1849.23</ele>
        <time>2020-06-06T11:18:27Z</time>
      </trkpt>
      <trkpt lat="44.66629" lon="6.03676">
        <ele>1847.79</ele>
        <time>2020-06-06T11:18:30Z</time>
      </trkpt>
      <trkpt lat="44.66643" lon="6.03683">
        <ele>1844.43</ele>
        <time>2020-06-06T11:18:47Z</time>
      </trkpt>
      <trkpt lat="44.66651" lon="6.03681">
        <ele>1842.02</ele>
        <time>2020-06-06T11:19:02Z</time>
      </trkpt>
      <trkpt lat="44.66662" lon="6.03682">
        <ele>1838.66</ele>
        <time>2020-06-06T11:19:15Z</time>
      </trkpt>
      <trkpt lat="44.66673" lon="6.03689">
        <ele>1835.29</ele>
        <time>2020-06-06T11:19:30Z</time>
      </trkpt>
      <trkpt lat="44.66679" lon="6.03693">
        <ele>1833.37</ele>
        <time>2020-06-06T11:19:36Z</time>
      </trkpt>
      <trkpt lat="44.66687" lon="6.037">
        <ele>1831.45</ele>
        <time>2020-06-06T11:19:48Z</time>
      </trkpt>
      <trkpt lat="44.667" lon="6.03726">
        <ele>1828.56</ele>
        <time>2020-06-06T11:20:08Z</time>
      </trkpt>
      <trkpt lat="44.66708" lon="6.03753">
        <ele>1826.64</ele>
        <time>2020-06-06T11:20:27Z</time>
      </trkpt>
      <trkpt lat="44.6671" lon="6.03773">
        <ele>1823.76</ele>
        <time>2020-06-06T11:20:44Z</time>
      </trkpt>
      <trkpt lat="44.66709" lon="6.03786">
        <ele>1819.91</ele>
        <time>2020-06-06T11:20:57Z</time>
      </trkpt>
      <trkpt lat="44.66706" lon="6.038">
        <ele>1817.99</ele>
        <time>2020-06-06T11:21:09Z</time>
      </trkpt>
      <trkpt lat="44.66708" lon="6.03806">
        <ele>1815.11</ele>
        <time>2020-06-06T11:21:20Z</time>
      </trkpt>
      <trkpt lat="44.66709" lon="6.03806">
        <ele>1815.11</ele>
        <time>2020-06-06T11:21:21Z</time>
      </trkpt>
      <trkpt lat="44.6671" lon="6.03826">
        <ele>1811.26</ele>
        <time>2020-06-06T11:21:35Z</time>
      </trkpt>
      <trkpt lat="44.66716" lon="6.03836">
        <ele>1809.34</ele>
        <time>2020-06-06T11:21:47Z</time>
      </trkpt>
      <trkpt lat="44.66707" lon="6.03858">
        <ele>1807.9</ele>
        <time>2020-06-06T11:22:06Z</time>
      </trkpt>
      <trkpt lat="44.66704" lon="6.03866">
        <ele>1806.94</ele>
        <time>2020-06-06T11:22:13Z</time>
      </trkpt>
      <trkpt lat="44.66701" lon="6.0389">
        <ele>1805.97</ele>
        <time>2020-06-06T11:22:29Z</time>
      </trkpt>
      <trkpt lat="44.66706" lon="6.03892">
        <ele>1805.49</ele>
        <time>2020-06-06T11:22:48Z</time>
      </trkpt>
      <trkpt lat="44.66703" lon="6.03908">
        <ele>1804.05</ele>
        <time>2020-06-06T11:23:01Z</time>
      </trkpt>
      <trkpt lat="44.66711" lon="6.03935">
        <ele>1801.17</ele>
        <time>2020-06-06T11:23:19Z</time>
      </trkpt>
      <trkpt lat="44.6673" lon="6.03951">
        <ele>1799.24</ele>
        <time>2020-06-06T11:23:40Z</time>
      </trkpt>
      <trkpt lat="44.66744" lon="6.03971">
        <ele>1795.88</ele>
        <time>2020-06-06T11:24:00Z</time>
      </trkpt>
      <trkpt lat="44.66757" lon="6.03984">
        <ele>1793.48</ele>
        <time>2020-06-06T11:24:18Z</time>
      </trkpt>
      <trkpt lat="44.66762" lon="6.04004">
        <ele>1791.07</ele>
        <time>2020-06-06T11:24:36Z</time>
      </trkpt>
      <trkpt lat="44.66764" lon="6.04023">
        <ele>1790.11</ele>
        <time>2020-06-06T11:24:53Z</time>
      </trkpt>
      <trkpt lat="44.6677" lon="6.04046">
        <ele>1787.71</ele>
        <time>2020-06-06T11:25:09Z</time>
      </trkpt>
      <trkpt lat="44.66775" lon="6.04074">
        <ele>1784.82</ele>
        <time>2020-06-06T11:25:26Z</time>
      </trkpt>
      <trkpt lat="44.66783" lon="6.04101">
        <ele>1781.46</ele>
        <time>2020-06-06T11:25:45Z</time>
      </trkpt>
      <trkpt lat="44.66787" lon="6.04131">
        <ele>1779.06</ele>
        <time>2020-06-06T11:26:07Z</time>
      </trkpt>
      <trkpt lat="44.66788" lon="6.04157">
        <ele>1777.13</ele>
        <time>2020-06-06T11:26:25Z</time>
      </trkpt>
      <trkpt lat="44.66789" lon="6.04179">
        <ele>1774.25</ele>
        <time>2020-06-06T11:26:43Z</time>
      </trkpt>
      <trkpt lat="44.66789" lon="6.04181">
        <ele>1773.77</ele>
        <time>2020-06-06T11:26:59Z</time>
      </trkpt>
      <trkpt lat="44.66789" lon="6.04182">
        <ele>1773.77</ele>
        <time>2020-06-06T11:27:24Z</time>
      </trkpt>
      <trkpt lat="44.66789" lon="6.0419">
        <ele>1773.77</ele>
        <time>2020-06-06T11:27:45Z</time>
      </trkpt>
      <trkpt lat="44.66791" lon="6.04198">
        <ele>1772.81</ele>
        <time>2020-06-06T11:28:10Z</time>
      </trkpt>
      <trkpt lat="44.66794" lon="6.04221">
        <ele>1769.92</ele>
        <time>2020-06-06T11:28:29Z</time>
      </trkpt>
      <trkpt lat="44.66796" lon="6.04231">
        <ele>1769.92</ele>
        <time>2020-06-06T11:28:46Z</time>
      </trkpt>
      <trkpt lat="44.66798" lon="6.0425">
        <ele>1768</ele>
        <time>2020-06-06T11:29:03Z</time>
      </trkpt>
      <trkpt lat="44.66802" lon="6.04273">
        <ele>1764.16</ele>
        <time>2020-06-06T11:29:21Z</time>
      </trkpt>
      <trkpt lat="44.66806" lon="6.04299">
        <ele>1763.2</ele>
        <time>2020-06-06T11:29:41Z</time>
      </trkpt>
      <trkpt lat="44.66808" lon="6.0431">
        <ele>1761.75</ele>
        <time>2020-06-06T11:30:02Z</time>
      </trkpt>
      <trkpt lat="44.66821" lon="6.04319">
        <ele>1758.87</ele>
        <time>2020-06-06T11:30:20Z</time>
      </trkpt>
      <trkpt lat="44.66821" lon="6.04321">
        <ele>1758.39</ele>
        <time>2020-06-06T11:30:37Z</time>
      </trkpt>
      <trkpt lat="44.66831" lon="6.04327">
        <ele>1757.43</ele>
        <time>2020-06-06T11:30:55Z</time>
      </trkpt>
      <trkpt lat="44.66839" lon="6.0433">
        <ele>1755.99</ele>
        <time>2020-06-06T11:31:10Z</time>
      </trkpt>
      <trkpt lat="44.66851" lon="6.04324">
        <ele>1754.54</ele>
        <time>2020-06-06T11:31:28Z</time>
      </trkpt>
      <trkpt lat="44.66864" lon="6.04315">
        <ele>1753.1</ele>
        <time>2020-06-06T11:31:44Z</time>
      </trkpt>
      <trkpt lat="44.66875" lon="6.04313">
        <ele>1750.7</ele>
        <time>2020-06-06T11:32:01Z</time>
      </trkpt>
      <trkpt lat="44.66889" lon="6.04311">
        <ele>1749.26</ele>
        <time>2020-06-06T11:32:18Z</time>
      </trkpt>
      <trkpt lat="44.66892" lon="6.04318">
        <ele>1748.29</ele>
        <time>2020-06-06T11:32:36Z</time>
      </trkpt>
      <trkpt lat="44.66903" lon="6.0432">
        <ele>1747.81</ele>
        <time>2020-06-06T11:32:57Z</time>
      </trkpt>
      <trkpt lat="44.66914" lon="6.04327">
        <ele>1745.89</ele>
        <time>2020-06-06T11:33:15Z</time>
      </trkpt>
      <trkpt lat="44.66919" lon="6.04325">
        <ele>1744.93</ele>
        <time>2020-06-06T11:33:29Z</time>
      </trkpt>
      <trkpt lat="44.66926" lon="6.0432">
        <ele>1744.45</ele>
        <time>2020-06-06T11:33:38Z</time>
      </trkpt>
      <trkpt lat="44.66941" lon="6.04316">
        <ele>1742.05</ele>
        <time>2020-06-06T11:33:56Z</time>
      </trkpt>
      <trkpt lat="44.66948" lon="6.04304">
        <ele>1740.6</ele>
        <time>2020-06-06T11:34:12Z</time>
      </trkpt>
      <trkpt lat="44.66958" lon="6.04289">
        <ele>1738.2</ele>
        <time>2020-06-06T11:34:31Z</time>
      </trkpt>
      <trkpt lat="44.66973" lon="6.04294">
        <ele>1736.28</ele>
        <time>2020-06-06T11:34:51Z</time>
      </trkpt>
      <trkpt lat="44.66978" lon="6.04295">
        <ele>1735.32</ele>
        <time>2020-06-06T11:35:13Z</time>
      </trkpt>
      <trkpt lat="44.66983" lon="6.0429">
        <ele>1733.88</ele>
        <time>2020-06-06T11:35:30Z</time>
      </trkpt>
      <trkpt lat="44.66987" lon="6.04278">
        <ele>1732.91</ele>
        <time>2020-06-06T11:35:46Z</time>
      </trkpt>
      <trkpt lat="44.66995" lon="6.0426">
        <ele>1730.99</ele>
        <time>2020-06-06T11:36:03Z</time>
      </trkpt>
      <trkpt lat="44.67008" lon="6.0426">
        <ele>1729.07</ele>
        <time>2020-06-06T11:36:17Z</time>
      </trkpt>
      <trkpt lat="44.67022" lon="6.0426">
        <ele>1727.15</ele>
        <time>2020-06-06T11:36:31Z</time>
      </trkpt>
      <trkpt lat="44.67022" lon="6.04259">
        <ele>1726.67</ele>
        <time>2020-06-06T11:37:01Z</time>
      </trkpt>
      <trkpt lat="44.67032" lon="6.04263">
        <ele>1724.74</ele>
        <time>2020-06-06T11:37:25Z</time>
      </trkpt>
      <trkpt lat="44.6704" lon="6.04277">
        <ele>1723.3</ele>
        <time>2020-06-06T11:37:41Z</time>
      </trkpt>
      <trkpt lat="44.67043" lon="6.0428">
        <ele>1722.82</ele>
        <time>2020-06-06T11:37:57Z</time>
      </trkpt>
      <trkpt lat="44.67043" lon="6.04281">
        <ele>1721.86</ele>
        <time>2020-06-06T11:38:26Z</time>
      </trkpt>
      <trkpt lat="44.67044" lon="6.04294">
        <ele>1721.38</ele>
        <time>2020-06-06T11:38:44Z</time>
      </trkpt>
      <trkpt lat="44.67044" lon="6.04294">
        <ele>1721.38</ele>
        <time>2020-06-06T11:39:12Z</time>
      </trkpt>
      <trkpt lat="44.67043" lon="6.04287">
        <ele>1721.38</ele>
        <time>2020-06-06T11:39:32Z</time>
      </trkpt>
      <trkpt lat="44.67044" lon="6.04279">
        <ele>1721.38</ele>
        <time>2020-06-06T11:40:00Z</time>
      </trkpt>
      <trkpt lat="44.67043" lon="6.04281">
        <ele>1722.34</ele>
        <time>2020-06-06T11:40:16Z</time>
      </trkpt>
      <trkpt lat="44.67045" lon="6.04278">
        <ele>1722.34</ele>
        <time>2020-06-06T11:40:28Z</time>
      </trkpt>
      <trkpt lat="44.67045" lon="6.04277">
        <ele>1721.86</ele>
        <time>2020-06-06T11:40:55Z</time>
      </trkpt>
      <trkpt lat="44.67044" lon="6.04268">
        <ele>1720.42</ele>
        <time>2020-06-06T11:41:17Z</time>
      </trkpt>
      <trkpt lat="44.67049" lon="6.04256">
        <ele>1718.49</ele>
        <time>2020-06-06T11:41:35Z</time>
      </trkpt>
      <trkpt lat="44.67055" lon="6.04252">
        <ele>1717.05</ele>
        <time>2020-06-06T11:41:52Z</time>
      </trkpt>
      <trkpt lat="44.67062" lon="6.0425">
        <ele>1716.09</ele>
        <time>2020-06-06T11:42:00Z</time>
      </trkpt>
      <trkpt lat="44.67076" lon="6.04248">
        <ele>1714.65</ele>
        <time>2020-06-06T11:42:16Z</time>
      </trkpt>
      <trkpt lat="44.67083" lon="6.04248">
        <ele>1712.25</ele>
        <time>2020-06-06T11:42:30Z</time>
      </trkpt>
      <trkpt lat="44.67082" lon="6.04246">
        <ele>1711.28</ele>
        <time>2020-06-06T11:42:42Z</time>
      </trkpt>
      <trkpt lat="44.67069" lon="6.04254">
        <ele>1708.4</ele>
        <time>2020-06-06T11:42:58Z</time>
      </trkpt>
      <trkpt lat="44.67061" lon="6.04259">
        <ele>1707.44</ele>
        <time>2020-06-06T11:43:06Z</time>
      </trkpt>
      <trkpt lat="44.67061" lon="6.04264">
        <ele>1705.52</ele>
        <time>2020-06-06T11:43:19Z</time>
      </trkpt>
      <trkpt lat="44.67069" lon="6.04261">
        <ele>1704.07</ele>
        <time>2020-06-06T11:43:43Z</time>
      </trkpt>
      <trkpt lat="44.6708" lon="6.04263">
        <ele>1701.19</ele>
        <time>2020-06-06T11:43:59Z</time>
      </trkpt>
      <trkpt lat="44.6709" lon="6.04265">
        <ele>1699.27</ele>
        <time>2020-06-06T11:44:18Z</time>
      </trkpt>
      <trkpt lat="44.67099" lon="6.04266">
        <ele>1697.34</ele>
        <time>2020-06-06T11:44:34Z</time>
      </trkpt>
      <trkpt lat="44.67097" lon="6.04266">
        <ele>1695.9</ele>
        <time>2020-06-06T11:44:55Z</time>
      </trkpt>
      <trkpt lat="44.67095" lon="6.04272">
        <ele>1695.42</ele>
        <time>2020-06-06T11:45:33Z</time>
      </trkpt>
      <trkpt lat="44.67085" lon="6.04272">
        <ele>1693.02</ele>
        <time>2020-06-06T11:45:49Z</time>
      </trkpt>
      <trkpt lat="44.67075" lon="6.04274">
        <ele>1690.62</ele>
        <time>2020-06-06T11:46:05Z</time>
      </trkpt>
      <trkpt lat="44.67069" lon="6.04272">
        <ele>1689.65</ele>
        <time>2020-06-06T11:46:30Z</time>
      </trkpt>
      <trkpt lat="44.67066" lon="6.04285">
        <ele>1686.77</ele>
        <time>2020-06-06T11:46:44Z</time>
      </trkpt>
      <trkpt lat="44.67065" lon="6.04291">
        <ele>1685.33</ele>
        <time>2020-06-06T11:46:48Z</time>
      </trkpt>
      <trkpt lat="44.67061" lon="6.04306">
        <ele>1683.41</ele>
        <time>2020-06-06T11:47:01Z</time>
      </trkpt>
      <trkpt lat="44.67056" lon="6.04312">
        <ele>1682.44</ele>
        <time>2020-06-06T11:47:18Z</time>
      </trkpt>
      <trkpt lat="44.67049" lon="6.04316">
        <ele>1681.48</ele>
        <time>2020-06-06T11:47:33Z</time>
      </trkpt>
      <trkpt lat="44.67042" lon="6.04321">
        <ele>1680.52</ele>
        <time>2020-06-06T11:47:47Z</time>
      </trkpt>
      <trkpt lat="44.67033" lon="6.04318">
        <ele>1678.6</ele>
        <time>2020-06-06T11:48:06Z</time>
      </trkpt>
      <trkpt lat="44.67026" lon="6.04319">
        <ele>1676.2</ele>
        <time>2020-06-06T11:48:21Z</time>
      </trkpt>
      <trkpt lat="44.67019" lon="6.04329">
        <ele>1675.23</ele>
        <time>2020-06-06T11:48:34Z</time>
      </trkpt>
      <trkpt lat="44.67013" lon="6.04339">
        <ele>1672.83</ele>
        <time>2020-06-06T11:48:48Z</time>
      </trkpt>
      <trkpt lat="44.67021" lon="6.04333">
        <ele>1671.87</ele>
        <time>2020-06-06T11:49:02Z</time>
      </trkpt>
      <trkpt lat="44.67031" lon="6.04329">
        <ele>1670.43</ele>
        <time>2020-06-06T11:49:15Z</time>
      </trkpt>
      <trkpt lat="44.67041" lon="6.04336">
        <ele>1668.02</ele>
        <time>2020-06-06T11:49:32Z</time>
      </trkpt>
      <trkpt lat="44.67056" lon="6.04337">
        <ele>1666.58</ele>
        <time>2020-06-06T11:49:51Z</time>
      </trkpt>
      <trkpt lat="44.67065" lon="6.0433">
        <ele>1664.18</ele>
        <time>2020-06-06T11:50:08Z</time>
      </trkpt>
      <trkpt lat="44.67072" lon="6.04326">
        <ele>1662.74</ele>
        <time>2020-06-06T11:50:25Z</time>
      </trkpt>
      <trkpt lat="44.67078" lon="6.04316">
        <ele>1660.33</ele>
        <time>2020-06-06T11:50:40Z</time>
      </trkpt>
      <trkpt lat="44.67083" lon="6.0431">
        <ele>1657.93</ele>
        <time>2020-06-06T11:50:57Z</time>
      </trkpt>
      <trkpt lat="44.67082" lon="6.04319">
        <ele>1655.53</ele>
        <time>2020-06-06T11:51:16Z</time>
      </trkpt>
      <trkpt lat="44.67082" lon="6.04327">
        <ele>1653.12</ele>
        <time>2020-06-06T11:51:32Z</time>
      </trkpt>
      <trkpt lat="44.67091" lon="6.04322">
        <ele>1652.16</ele>
        <time>2020-06-06T11:51:48Z</time>
      </trkpt>
      <trkpt lat="44.67099" lon="6.04317">
        <ele>1650.24</ele>
        <time>2020-06-06T11:52:05Z</time>
      </trkpt>
      <trkpt lat="44.67107" lon="6.04318">
        <ele>1646.88</ele>
        <time>2020-06-06T11:52:19Z</time>
      </trkpt>
      <trkpt lat="44.67117" lon="6.04309">
        <ele>1643.99</ele>
        <time>2020-06-06T11:52:36Z</time>
      </trkpt>
      <trkpt lat="44.67118" lon="6.04313">
        <ele>1640.63</ele>
        <time>2020-06-06T11:52:51Z</time>
      </trkpt>
      <trkpt lat="44.67114" lon="6.04322">
        <ele>1638.7</ele>
        <time>2020-06-06T11:53:05Z</time>
      </trkpt>
      <trkpt lat="44.67106" lon="6.04335">
        <ele>1637.26</ele>
        <time>2020-06-06T11:53:21Z</time>
      </trkpt>
      <trkpt lat="44.67099" lon="6.04348">
        <ele>1635.34</ele>
        <time>2020-06-06T11:53:38Z</time>
      </trkpt>
      <trkpt lat="44.67094" lon="6.04364">
        <ele>1631.98</ele>
        <time>2020-06-06T11:53:54Z</time>
      </trkpt>
      <trkpt lat="44.67085" lon="6.04377">
        <ele>1629.09</ele>
        <time>2020-06-06T11:54:12Z</time>
      </trkpt>
      <trkpt lat="44.67079" lon="6.0439">
        <ele>1627.65</ele>
        <time>2020-06-06T11:54:32Z</time>
      </trkpt>
      <trkpt lat="44.67069" lon="6.04403">
        <ele>1624.28</ele>
        <time>2020-06-06T11:54:49Z</time>
      </trkpt>
      <trkpt lat="44.67056" lon="6.04413">
        <ele>1622.36</ele>
        <time>2020-06-06T11:55:05Z</time>
      </trkpt>
      <trkpt lat="44.67049" lon="6.04418">
        <ele>1621.4</ele>
        <time>2020-06-06T11:55:20Z</time>
      </trkpt>
      <trkpt lat="44.67041" lon="6.04433">
        <ele>1618.52</ele>
        <time>2020-06-06T11:55:35Z</time>
      </trkpt>
      <trkpt lat="44.6703" lon="6.04447">
        <ele>1615.15</ele>
        <time>2020-06-06T11:55:51Z</time>
      </trkpt>
      <trkpt lat="44.67017" lon="6.04458">
        <ele>1612.27</ele>
        <time>2020-06-06T11:56:09Z</time>
      </trkpt>
      <trkpt lat="44.67008" lon="6.04476">
        <ele>1608.9</ele>
        <time>2020-06-06T11:56:25Z</time>
      </trkpt>
      <trkpt lat="44.66996" lon="6.04492">
        <ele>1606.5</ele>
        <time>2020-06-06T11:56:41Z</time>
      </trkpt>
      <trkpt lat="44.66982" lon="6.04502">
        <ele>1603.62</ele>
        <time>2020-06-06T11:56:59Z</time>
      </trkpt>
      <trkpt lat="44.66969" lon="6.04507">
        <ele>1601.21</ele>
        <time>2020-06-06T11:57:15Z</time>
      </trkpt>
      <trkpt lat="44.66955" lon="6.04512">
        <ele>1598.33</ele>
        <time>2020-06-06T11:57:31Z</time>
      </trkpt>
      <trkpt lat="44.66944" lon="6.04527">
        <ele>1595.93</ele>
        <time>2020-06-06T11:57:48Z</time>
      </trkpt>
      <trkpt lat="44.66932" lon="6.04533">
        <ele>1593.04</ele>
        <time>2020-06-06T11:58:04Z</time>
      </trkpt>
      <trkpt lat="44.66915" lon="6.04536">
        <ele>1590.16</ele>
        <time>2020-06-06T11:58:24Z</time>
      </trkpt>
      <trkpt lat="44.66913" lon="6.04536">
        <ele>1589.68</ele>
        <time>2020-06-06T11:58:26Z</time>
      </trkpt>
      <trkpt lat="44.66904" lon="6.04535">
        <ele>1587.27</ele>
        <time>2020-06-06T11:58:42Z</time>
      </trkpt>
      <trkpt lat="44.66883" lon="6.04534">
        <ele>1584.87</ele>
        <time>2020-06-06T11:59:02Z</time>
      </trkpt>
      <trkpt lat="44.66873" lon="6.04537">
        <ele>1581.51</ele>
        <time>2020-06-06T11:59:20Z</time>
      </trkpt>
      <trkpt lat="44.66862" lon="6.04548">
        <ele>1580.06</ele>
        <time>2020-06-06T11:59:34Z</time>
      </trkpt>
      <trkpt lat="44.6685" lon="6.04554">
        <ele>1577.66</ele>
        <time>2020-06-06T11:59:53Z</time>
      </trkpt>
      <trkpt lat="44.66846" lon="6.04551">
        <ele>1575.74</ele>
        <time>2020-06-06T12:00:13Z</time>
      </trkpt>
      <trkpt lat="44.66837" lon="6.04549">
        <ele>1574.3</ele>
        <time>2020-06-06T12:00:25Z</time>
      </trkpt>
      <trkpt lat="44.66827" lon="6.04546">
        <ele>1571.41</ele>
        <time>2020-06-06T12:00:36Z</time>
      </trkpt>
      <trkpt lat="44.66821" lon="6.04545">
        <ele>1569.97</ele>
        <time>2020-06-06T12:00:42Z</time>
      </trkpt>
      <trkpt lat="44.66805" lon="6.04535">
        <ele>1567.57</ele>
        <time>2020-06-06T12:01:00Z</time>
      </trkpt>
      <trkpt lat="44.66795" lon="6.04527">
        <ele>1566.12</ele>
        <time>2020-06-06T12:01:16Z</time>
      </trkpt>
      <trkpt lat="44.66786" lon="6.04527">
        <ele>1563.72</ele>
        <time>2020-06-06T12:01:32Z</time>
      </trkpt>
      <trkpt lat="44.66773" lon="6.04522">
        <ele>1560.84</ele>
        <time>2020-06-06T12:01:48Z</time>
      </trkpt>
      <trkpt lat="44.66765" lon="6.0452">
        <ele>1559.88</ele>
        <time>2020-06-06T12:02:04Z</time>
      </trkpt>
      <trkpt lat="44.66753" lon="6.04507">
        <ele>1557.95</ele>
        <time>2020-06-06T12:02:21Z</time>
      </trkpt>
      <trkpt lat="44.6674" lon="6.04513">
        <ele>1555.55</ele>
        <time>2020-06-06T12:02:39Z</time>
      </trkpt>
      <trkpt lat="44.66726" lon="6.04515">
        <ele>1552.67</ele>
        <time>2020-06-06T12:02:54Z</time>
      </trkpt>
      <trkpt lat="44.66711" lon="6.04518">
        <ele>1550.26</ele>
        <time>2020-06-06T12:03:11Z</time>
      </trkpt>
      <trkpt lat="44.66701" lon="6.04514">
        <ele>1547.38</ele>
        <time>2020-06-06T12:03:25Z</time>
      </trkpt>
      <trkpt lat="44.66686" lon="6.04508">
        <ele>1544.98</ele>
        <time>2020-06-06T12:03:41Z</time>
      </trkpt>
      <trkpt lat="44.66678" lon="6.04508">
        <ele>1544.01</ele>
        <time>2020-06-06T12:03:58Z</time>
      </trkpt>
      <trkpt lat="44.66675" lon="6.04507">
        <ele>1543.53</ele>
        <time>2020-06-06T12:04:02Z</time>
      </trkpt>
      <trkpt lat="44.66667" lon="6.04509">
        <ele>1542.57</ele>
        <time>2020-06-06T12:04:23Z</time>
      </trkpt>
      <trkpt lat="44.66662" lon="6.04511">
        <ele>1540.65</ele>
        <time>2020-06-06T12:04:39Z</time>
      </trkpt>
      <trkpt lat="44.66672" lon="6.04521">
        <ele>1537.77</ele>
        <time>2020-06-06T12:04:56Z</time>
      </trkpt>
      <trkpt lat="44.66681" lon="6.04532">
        <ele>1534.4</ele>
        <time>2020-06-06T12:05:12Z</time>
      </trkpt>
      <trkpt lat="44.66688" lon="6.04539">
        <ele>1532.96</ele>
        <time>2020-06-06T12:05:23Z</time>
      </trkpt>
      <trkpt lat="44.667" lon="6.04551">
        <ele>1530.08</ele>
        <time>2020-06-06T12:05:43Z</time>
      </trkpt>
      <trkpt lat="44.6671" lon="6.04551">
        <ele>1528.63</ele>
        <time>2020-06-06T12:06:00Z</time>
      </trkpt>
      <trkpt lat="44.66716" lon="6.04554">
        <ele>1525.27</ele>
        <time>2020-06-06T12:06:09Z</time>
      </trkpt>
      <trkpt lat="44.6672" lon="6.04555">
        <ele>1526.23</ele>
        <time>2020-06-06T12:06:13Z</time>
      </trkpt>
      <trkpt lat="44.66722" lon="6.04557">
        <ele>1524.79</ele>
        <time>2020-06-06T12:06:16Z</time>
      </trkpt>
      <trkpt lat="44.66735" lon="6.04558">
        <ele>1523.35</ele>
        <time>2020-06-06T12:06:33Z</time>
      </trkpt>
      <trkpt lat="44.66742" lon="6.04563">
        <ele>1522.39</ele>
        <time>2020-06-06T12:06:46Z</time>
      </trkpt>
      <trkpt lat="44.66751" lon="6.04566">
        <ele>1519.5</ele>
        <time>2020-06-06T12:07:01Z</time>
      </trkpt>
      <trkpt lat="44.66759" lon="6.04571">
        <ele>1519.02</ele>
        <time>2020-06-06T12:07:15Z</time>
      </trkpt>
      <trkpt lat="44.66768" lon="6.04579">
        <ele>1516.62</ele>
        <time>2020-06-06T12:07:31Z</time>
      </trkpt>
      <trkpt lat="44.66779" lon="6.04597">
        <ele>1513.73</ele>
        <time>2020-06-06T12:07:49Z</time>
      </trkpt>
      <trkpt lat="44.66783" lon="6.04616">
        <ele>1512.29</ele>
        <time>2020-06-06T12:08:04Z</time>
      </trkpt>
      <trkpt lat="44.66789" lon="6.04629">
        <ele>1510.85</ele>
        <time>2020-06-06T12:08:23Z</time>
      </trkpt>
      <trkpt lat="44.66796" lon="6.04647">
        <ele>1508.93</ele>
        <time>2020-06-06T12:08:39Z</time>
      </trkpt>
      <trkpt lat="44.66806" lon="6.04659">
        <ele>1507.48</ele>
        <time>2020-06-06T12:08:55Z</time>
      </trkpt>
      <trkpt lat="44.66819" lon="6.04667">
        <ele>1506.52</ele>
        <time>2020-06-06T12:09:12Z</time>
      </trkpt>
      <trkpt lat="44.66834" lon="6.04673">
        <ele>1503.64</ele>
        <time>2020-06-06T12:09:29Z</time>
      </trkpt>
      <trkpt lat="44.66849" lon="6.04674">
        <ele>1502.2</ele>
        <time>2020-06-06T12:09:45Z</time>
      </trkpt>
      <trkpt lat="44.6686" lon="6.04674">
        <ele>1500.27</ele>
        <time>2020-06-06T12:10:00Z</time>
      </trkpt>
      <trkpt lat="44.66865" lon="6.04683">
        <ele>1499.31</ele>
        <time>2020-06-06T12:10:16Z</time>
      </trkpt>
      <trkpt lat="44.66862" lon="6.04684">
        <ele>1498.83</ele>
        <time>2020-06-06T12:10:39Z</time>
      </trkpt>
      <trkpt lat="44.6687" lon="6.04686">
        <ele>1498.83</ele>
        <time>2020-06-06T12:10:54Z</time>
      </trkpt>
      <trkpt lat="44.66884" lon="6.0469">
        <ele>1495.95</ele>
        <time>2020-06-06T12:11:11Z</time>
      </trkpt>
      <trkpt lat="44.66899" lon="6.04688">
        <ele>1494.03</ele>
        <time>2020-06-06T12:11:27Z</time>
      </trkpt>
      <trkpt lat="44.66912" lon="6.04688">
        <ele>1492.1</ele>
        <time>2020-06-06T12:11:43Z</time>
      </trkpt>
      <trkpt lat="44.66926" lon="6.04689">
        <ele>1489.7</ele>
        <time>2020-06-06T12:12:00Z</time>
      </trkpt>
      <trkpt lat="44.66935" lon="6.04687">
        <ele>1488.26</ele>
        <time>2020-06-06T12:12:17Z</time>
      </trkpt>
      <trkpt lat="44.66949" lon="6.04685">
        <ele>1486.82</ele>
        <time>2020-06-06T12:12:34Z</time>
      </trkpt>
      <trkpt lat="44.66961" lon="6.04686">
        <ele>1483.93</ele>
        <time>2020-06-06T12:12:50Z</time>
      </trkpt>
      <trkpt lat="44.66975" lon="6.0469">
        <ele>1481.53</ele>
        <time>2020-06-06T12:13:06Z</time>
      </trkpt>
      <trkpt lat="44.66993" lon="6.04687">
        <ele>1479.13</ele>
        <time>2020-06-06T12:13:24Z</time>
      </trkpt>
      <trkpt lat="44.67011" lon="6.04683">
        <ele>1477.68</ele>
        <time>2020-06-06T12:13:41Z</time>
      </trkpt>
      <trkpt lat="44.67023" lon="6.04686">
        <ele>1474.32</ele>
        <time>2020-06-06T12:13:56Z</time>
      </trkpt>
      <trkpt lat="44.6704" lon="6.04693">
        <ele>1471.44</ele>
        <time>2020-06-06T12:14:15Z</time>
      </trkpt>
      <trkpt lat="44.67054" lon="6.04688">
        <ele>1472.88</ele>
        <time>2020-06-06T12:14:32Z</time>
      </trkpt>
      <trkpt lat="44.67058" lon="6.04687">
        <ele>1471.44</ele>
        <time>2020-06-06T12:14:37Z</time>
      </trkpt>
      <trkpt lat="44.67074" lon="6.04681">
        <ele>1468.07</ele>
        <time>2020-06-06T12:14:54Z</time>
      </trkpt>
      <trkpt lat="44.67082" lon="6.04676">
        <ele>1465.19</ele>
        <time>2020-06-06T12:15:08Z</time>
      </trkpt>
      <trkpt lat="44.67094" lon="6.04676">
        <ele>1462.78</ele>
        <time>2020-06-06T12:15:20Z</time>
      </trkpt>
      <trkpt lat="44.671" lon="6.04676">
        <ele>1461.82</ele>
        <time>2020-06-06T12:15:38Z</time>
      </trkpt>
      <trkpt lat="44.67116" lon="6.04681">
        <ele>1459.9</ele>
        <time>2020-06-06T12:15:55Z</time>
      </trkpt>
      <trkpt lat="44.67126" lon="6.04686">
        <ele>1458.46</ele>
        <time>2020-06-06T12:16:11Z</time>
      </trkpt>
      <trkpt lat="44.67139" lon="6.0469">
        <ele>1456.05</ele>
        <time>2020-06-06T12:16:28Z</time>
      </trkpt>
      <trkpt lat="44.67155" lon="6.04682">
        <ele>1454.13</ele>
        <time>2020-06-06T12:16:46Z</time>
      </trkpt>
      <trkpt lat="44.67167" lon="6.04678">
        <ele>1451.73</ele>
        <time>2020-06-06T12:17:02Z</time>
      </trkpt>
      <trkpt lat="44.67174" lon="6.04666">
        <ele>1450.77</ele>
        <time>2020-06-06T12:17:20Z</time>
      </trkpt>
      <trkpt lat="44.67187" lon="6.04661">
        <ele>1447.88</ele>
        <time>2020-06-06T12:17:35Z</time>
      </trkpt>
      <trkpt lat="44.67192" lon="6.04668">
        <ele>1445.96</ele>
        <time>2020-06-06T12:17:51Z</time>
      </trkpt>
      <trkpt lat="44.67187" lon="6.04672">
        <ele>1445</ele>
        <time>2020-06-06T12:18:16Z</time>
      </trkpt>
      <trkpt lat="44.6718" lon="6.04686">
        <ele>1442.6</ele>
        <time>2020-06-06T12:18:32Z</time>
      </trkpt>
      <trkpt lat="44.67172" lon="6.04699">
        <ele>1440.67</ele>
        <time>2020-06-06T12:18:47Z</time>
      </trkpt>
      <trkpt lat="44.67164" lon="6.04718">
        <ele>1438.27</ele>
        <time>2020-06-06T12:19:03Z</time>
      </trkpt>
      <trkpt lat="44.67153" lon="6.04735">
        <ele>1436.35</ele>
        <time>2020-06-06T12:19:21Z</time>
      </trkpt>
      <trkpt lat="44.67143" lon="6.04746">
        <ele>1433.94</ele>
        <time>2020-06-06T12:19:37Z</time>
      </trkpt>
      <trkpt lat="44.67128" lon="6.04754">
        <ele>1431.06</ele>
        <time>2020-06-06T12:19:55Z</time>
      </trkpt>
      <trkpt lat="44.67111" lon="6.04767">
        <ele>1428.66</ele>
        <time>2020-06-06T12:20:14Z</time>
      </trkpt>
      <trkpt lat="44.67091" lon="6.04772">
        <ele>1425.77</ele>
        <time>2020-06-06T12:20:35Z</time>
      </trkpt>
      <trkpt lat="44.67086" lon="6.04776">
        <ele>1424.81</ele>
        <time>2020-06-06T12:20:58Z</time>
      </trkpt>
      <trkpt lat="44.6709" lon="6.04778">
        <ele>1424.33</ele>
        <time>2020-06-06T12:21:36Z</time>
      </trkpt>
      <trkpt lat="44.6709" lon="6.04784">
        <ele>1424.33</ele>
        <time>2020-06-06T12:22:03Z</time>
      </trkpt>
      <trkpt lat="44.67087" lon="6.04781">
        <ele>1424.33</ele>
        <time>2020-06-06T12:22:29Z</time>
      </trkpt>
      <trkpt lat="44.6709" lon="6.04778">
        <ele>1425.77</ele>
        <time>2020-06-06T12:22:57Z</time>
      </trkpt>
      <trkpt lat="44.67077" lon="6.04782">
        <ele>1424.33</ele>
        <time>2020-06-06T12:23:20Z</time>
      </trkpt>
      <trkpt lat="44.67068" lon="6.04795">
        <ele>1421.93</ele>
        <time>2020-06-06T12:23:38Z</time>
      </trkpt>
      <trkpt lat="44.67045" lon="6.0481">
        <ele>1419.04</ele>
        <time>2020-06-06T12:24:01Z</time>
      </trkpt>
      <trkpt lat="44.67031" lon="6.0482">
        <ele>1416.64</ele>
        <time>2020-06-06T12:24:19Z</time>
      </trkpt>
      <trkpt lat="44.6701" lon="6.04822">
        <ele>1412.79</ele>
        <time>2020-06-06T12:24:38Z</time>
      </trkpt>
      <trkpt lat="44.66995" lon="6.04826">
        <ele>1410.87</ele>
        <time>2020-06-06T12:24:54Z</time>
      </trkpt>
      <trkpt lat="44.66974" lon="6.04832">
        <ele>1407.99</ele>
        <time>2020-06-06T12:25:15Z</time>
      </trkpt>
      <trkpt lat="44.66956" lon="6.04833">
        <ele>1405.58</ele>
        <time>2020-06-06T12:25:34Z</time>
      </trkpt>
      <trkpt lat="44.66932" lon="6.04837">
        <ele>1402.22</ele>
        <time>2020-06-06T12:25:54Z</time>
      </trkpt>
      <trkpt lat="44.66917" lon="6.04845">
        <ele>1399.82</ele>
        <time>2020-06-06T12:26:10Z</time>
      </trkpt>
      <trkpt lat="44.66903" lon="6.0485">
        <ele>1397.41</ele>
        <time>2020-06-06T12:26:26Z</time>
      </trkpt>
      <trkpt lat="44.66898" lon="6.04851">
        <ele>1396.93</ele>
        <time>2020-06-06T12:26:31Z</time>
      </trkpt>
      <trkpt lat="44.66891" lon="6.04847">
        <ele>1395.97</ele>
        <time>2020-06-06T12:26:47Z</time>
      </trkpt>
      <trkpt lat="44.66876" lon="6.04847">
        <ele>1394.05</ele>
        <time>2020-06-06T12:27:04Z</time>
      </trkpt>
      <trkpt lat="44.66858" lon="6.04837">
        <ele>1391.17</ele>
        <time>2020-06-06T12:27:23Z</time>
      </trkpt>
      <trkpt lat="44.6684" lon="6.04841">
        <ele>1389.24</ele>
        <time>2020-06-06T12:27:41Z</time>
      </trkpt>
      <trkpt lat="44.66825" lon="6.04843">
        <ele>1386.84</ele>
        <time>2020-06-06T12:27:58Z</time>
      </trkpt>
      <trkpt lat="44.66806" lon="6.04846">
        <ele>1383.47</ele>
        <time>2020-06-06T12:28:17Z</time>
      </trkpt>
      <trkpt lat="44.66788" lon="6.04853">
        <ele>1380.59</ele>
        <time>2020-06-06T12:28:36Z</time>
      </trkpt>
      <trkpt lat="44.66766" lon="6.04862">
        <ele>1378.19</ele>
        <time>2020-06-06T12:28:57Z</time>
      </trkpt>
      <trkpt lat="44.66746" lon="6.04865">
        <ele>1375.3</ele>
        <time>2020-06-06T12:29:18Z</time>
      </trkpt>
      <trkpt lat="44.66754" lon="6.04873">
        <ele>1372.9</ele>
        <time>2020-06-06T12:29:34Z</time>
      </trkpt>
      <trkpt lat="44.66764" lon="6.04871">
        <ele>1370.98</ele>
        <time>2020-06-06T12:29:53Z</time>
      </trkpt>
      <trkpt lat="44.66775" lon="6.04873">
        <ele>1370.5</ele>
        <time>2020-06-06T12:30:12Z</time>
      </trkpt>
      <trkpt lat="44.66785" lon="6.04872">
        <ele>1369.54</ele>
        <time>2020-06-06T12:30:22Z</time>
      </trkpt>
      <trkpt lat="44.66796" lon="6.04875">
        <ele>1368.09</ele>
        <time>2020-06-06T12:30:33Z</time>
      </trkpt>
      <trkpt lat="44.66811" lon="6.0488">
        <ele>1365.21</ele>
        <time>2020-06-06T12:30:50Z</time>
      </trkpt>
      <trkpt lat="44.66827" lon="6.04895">
        <ele>1362.81</ele>
        <time>2020-06-06T12:31:10Z</time>
      </trkpt>
      <trkpt lat="44.6684" lon="6.04907">
        <ele>1360.4</ele>
        <time>2020-06-06T12:31:28Z</time>
      </trkpt>
      <trkpt lat="44.66845" lon="6.04924">
        <ele>1358.96</ele>
        <time>2020-06-06T12:31:43Z</time>
      </trkpt>
      <trkpt lat="44.66864" lon="6.04932">
        <ele>1356.56</ele>
        <time>2020-06-06T12:32:02Z</time>
      </trkpt>
      <trkpt lat="44.66876" lon="6.0495">
        <ele>1353.67</ele>
        <time>2020-06-06T12:32:20Z</time>
      </trkpt>
      <trkpt lat="44.66883" lon="6.04963">
        <ele>1352.23</ele>
        <time>2020-06-06T12:32:32Z</time>
      </trkpt>
      <trkpt lat="44.669" lon="6.04979">
        <ele>1350.31</ele>
        <time>2020-06-06T12:32:50Z</time>
      </trkpt>
      <trkpt lat="44.66912" lon="6.04998">
        <ele>1346.94</ele>
        <time>2020-06-06T12:33:08Z</time>
      </trkpt>
      <trkpt lat="44.66934" lon="6.05007">
        <ele>1344.54</ele>
        <time>2020-06-06T12:33:28Z</time>
      </trkpt>
      <trkpt lat="44.66949" lon="6.05018">
        <ele>1342.62</ele>
        <time>2020-06-06T12:33:44Z</time>
      </trkpt>
      <trkpt lat="44.66963" lon="6.05029">
        <ele>1339.73</ele>
        <time>2020-06-06T12:34:02Z</time>
      </trkpt>
      <trkpt lat="44.66983" lon="6.05042">
        <ele>1337.33</ele>
        <time>2020-06-06T12:34:23Z</time>
      </trkpt>
      <trkpt lat="44.66994" lon="6.0507">
        <ele>1334.45</ele>
        <time>2020-06-06T12:34:45Z</time>
      </trkpt>
      <trkpt lat="44.66999" lon="6.05099">
        <ele>1331.08</ele>
        <time>2020-06-06T12:35:04Z</time>
      </trkpt>
      <trkpt lat="44.67009" lon="6.05123">
        <ele>1328.2</ele>
        <time>2020-06-06T12:35:23Z</time>
      </trkpt>
      <trkpt lat="44.67015" lon="6.05149">
        <ele>1325.8</ele>
        <time>2020-06-06T12:35:42Z</time>
      </trkpt>
      <trkpt lat="44.67029" lon="6.05169">
        <ele>1322.91</ele>
        <time>2020-06-06T12:36:02Z</time>
      </trkpt>
      <trkpt lat="44.67037" lon="6.05179">
        <ele>1320.03</ele>
        <time>2020-06-06T12:36:21Z</time>
      </trkpt>
      <trkpt lat="44.67014" lon="6.05169">
        <ele>1316.66</ele>
        <time>2020-06-06T12:36:42Z</time>
      </trkpt>
      <trkpt lat="44.66991" lon="6.05157">
        <ele>1313.3</ele>
        <time>2020-06-06T12:37:04Z</time>
      </trkpt>
      <trkpt lat="44.66974" lon="6.05143">
        <ele>1310.41</ele>
        <time>2020-06-06T12:37:23Z</time>
      </trkpt>
      <trkpt lat="44.66954" lon="6.05134">
        <ele>1307.53</ele>
        <time>2020-06-06T12:37:42Z</time>
      </trkpt>
      <trkpt lat="44.66938" lon="6.05135">
        <ele>1305.13</ele>
        <time>2020-06-06T12:38:03Z</time>
      </trkpt>
      <trkpt lat="44.6692" lon="6.05137">
        <ele>1302.24</ele>
        <time>2020-06-06T12:38:21Z</time>
      </trkpt>
      <trkpt lat="44.66901" lon="6.05146">
        <ele>1298.88</ele>
        <time>2020-06-06T12:38:41Z</time>
      </trkpt>
      <trkpt lat="44.66878" lon="6.05148">
        <ele>1296.48</ele>
        <time>2020-06-06T12:39:02Z</time>
      </trkpt>
      <trkpt lat="44.66862" lon="6.05144">
        <ele>1293.11</ele>
        <time>2020-06-06T12:39:19Z</time>
      </trkpt>
      <trkpt lat="44.66846" lon="6.05138">
        <ele>1291.19</ele>
        <time>2020-06-06T12:39:39Z</time>
      </trkpt>
      <trkpt lat="44.66826" lon="6.0512">
        <ele>1287.82</ele>
        <time>2020-06-06T12:40:00Z</time>
      </trkpt>
      <trkpt lat="44.66809" lon="6.05104">
        <ele>1284.94</ele>
        <time>2020-06-06T12:40:21Z</time>
      </trkpt>
      <trkpt lat="44.66792" lon="6.05086">
        <ele>1282.06</ele>
        <time>2020-06-06T12:40:40Z</time>
      </trkpt>
      <trkpt lat="44.66779" lon="6.0508">
        <ele>1279.17</ele>
        <time>2020-06-06T12:40:59Z</time>
      </trkpt>
      <trkpt lat="44.66757" lon="6.05074">
        <ele>1276.29</ele>
        <time>2020-06-06T12:41:20Z</time>
      </trkpt>
      <trkpt lat="44.66737" lon="6.05069">
        <ele>1273.4</ele>
        <time>2020-06-06T12:41:38Z</time>
      </trkpt>
      <trkpt lat="44.66732" lon="6.05069">
        <ele>1272.44</ele>
        <time>2020-06-06T12:41:43Z</time>
      </trkpt>
      <trkpt lat="44.66728" lon="6.05069">
        <ele>1271.96</ele>
        <time>2020-06-06T12:41:47Z</time>
      </trkpt>
      <trkpt lat="44.66711" lon="6.05058">
        <ele>1269.56</ele>
        <time>2020-06-06T12:42:06Z</time>
      </trkpt>
      <trkpt lat="44.66709" lon="6.05064">
        <ele>1267.64</ele>
        <time>2020-06-06T12:42:24Z</time>
      </trkpt>
      <trkpt lat="44.66713" lon="6.05073">
        <ele>1265.71</ele>
        <time>2020-06-06T12:42:40Z</time>
      </trkpt>
      <trkpt lat="44.6672" lon="6.05086">
        <ele>1262.83</ele>
        <time>2020-06-06T12:42:55Z</time>
      </trkpt>
      <trkpt lat="44.66707" lon="6.05074">
        <ele>1259.94</ele>
        <time>2020-06-06T12:43:12Z</time>
      </trkpt>
      <trkpt lat="44.66693" lon="6.0506">
        <ele>1258.02</ele>
        <time>2020-06-06T12:43:28Z</time>
      </trkpt>
      <trkpt lat="44.66682" lon="6.05048">
        <ele>1254.66</ele>
        <time>2020-06-06T12:43:41Z</time>
      </trkpt>
      <trkpt lat="44.66673" lon="6.05039">
        <ele>1253.7</ele>
        <time>2020-06-06T12:43:59Z</time>
      </trkpt>
      <trkpt lat="44.66671" lon="6.05034">
        <ele>1252.74</ele>
        <time>2020-06-06T12:44:22Z</time>
      </trkpt>
      <trkpt lat="44.66672" lon="6.05038">
        <ele>1251.77</ele>
        <time>2020-06-06T12:44:37Z</time>
      </trkpt>
      <trkpt lat="44.66673" lon="6.05039">
        <ele>1251.29</ele>
        <time>2020-06-06T13:02:46Z</time>
      </trkpt>
      <trkpt lat="44.66671" lon="6.0504">
        <ele>1251.29</ele>
        <time>2020-06-06T13:02:47Z</time>
      </trkpt>
      <trkpt lat="44.6667" lon="6.05039">
        <ele>1247.93</ele>
        <time>2020-06-06T13:03:06Z</time>
      </trkpt>
      <trkpt lat="44.6667" lon="6.0504">
        <ele>1244.56</ele>
        <time>2020-06-06T13:03:14Z</time>
      </trkpt>
      <trkpt lat="44.6667" lon="6.0504">
        <ele>1248.41</ele>
        <time>2020-06-06T13:03:15Z</time>
      </trkpt>
      <trkpt lat="44.6667" lon="6.05043">
        <ele>1246.01</ele>
        <time>2020-06-06T13:03:34Z</time>
      </trkpt>
      <trkpt lat="44.66672" lon="6.05051">
        <ele>1245.53</ele>
        <time>2020-06-06T13:03:49Z</time>
      </trkpt>
      <trkpt lat="44.66671" lon="6.0507">
        <ele>1247.93</ele>
        <time>2020-06-06T13:04:07Z</time>
      </trkpt>
      <trkpt lat="44.66661" lon="6.05088">
        <ele>1249.37</ele>
        <time>2020-06-06T13:04:24Z</time>
      </trkpt>
      <trkpt lat="44.66656" lon="6.05106">
        <ele>1246.49</ele>
        <time>2020-06-06T13:04:40Z</time>
      </trkpt>
      <trkpt lat="44.66651" lon="6.05135">
        <ele>1245.53</ele>
        <time>2020-06-06T13:05:00Z</time>
      </trkpt>
      <trkpt lat="44.66651" lon="6.05158">
        <ele>1244.08</ele>
        <time>2020-06-06T13:05:20Z</time>
      </trkpt>
      <trkpt lat="44.66645" lon="6.05167">
        <ele>1240.72</ele>
        <time>2020-06-06T13:05:34Z</time>
      </trkpt>
      <trkpt lat="44.66641" lon="6.05189">
        <ele>1238.32</ele>
        <time>2020-06-06T13:05:50Z</time>
      </trkpt>
      <trkpt lat="44.66641" lon="6.05216">
        <ele>1238.32</ele>
        <time>2020-06-06T13:06:09Z</time>
      </trkpt>
      <trkpt lat="44.66644" lon="6.05237">
        <ele>1237.35</ele>
        <time>2020-06-06T13:06:26Z</time>
      </trkpt>
      <trkpt lat="44.66653" lon="6.05259">
        <ele>1234.95</ele>
        <time>2020-06-06T13:06:44Z</time>
      </trkpt>
      <trkpt lat="44.66664" lon="6.05279">
        <ele>1234.47</ele>
        <time>2020-06-06T13:07:01Z</time>
      </trkpt>
      <trkpt lat="44.66665" lon="6.0528">
        <ele>1233.99</ele>
        <time>2020-06-06T13:07:02Z</time>
      </trkpt>
      <trkpt lat="44.66669" lon="6.05303">
        <ele>1231.11</ele>
        <time>2020-06-06T13:07:20Z</time>
      </trkpt>
      <trkpt lat="44.66664" lon="6.05327">
        <ele>1228.22</ele>
        <time>2020-06-06T13:07:38Z</time>
      </trkpt>
      <trkpt lat="44.66666" lon="6.05353">
        <ele>1225.82</ele>
        <time>2020-06-06T13:07:56Z</time>
      </trkpt>
      <trkpt lat="44.66672" lon="6.05382">
        <ele>1223.9</ele>
        <time>2020-06-06T13:08:14Z</time>
      </trkpt>
      <trkpt lat="44.66678" lon="6.05414">
        <ele>1221.49</ele>
        <time>2020-06-06T13:08:35Z</time>
      </trkpt>
      <trkpt lat="44.66683" lon="6.05439">
        <ele>1219.09</ele>
        <time>2020-06-06T13:08:52Z</time>
      </trkpt>
      <trkpt lat="44.66687" lon="6.05466">
        <ele>1216.69</ele>
        <time>2020-06-06T13:09:12Z</time>
      </trkpt>
      <trkpt lat="44.66689" lon="6.05488">
        <ele>1213.32</ele>
        <time>2020-06-06T13:09:28Z</time>
      </trkpt>
      <trkpt lat="44.66691" lon="6.05512">
        <ele>1210.44</ele>
        <time>2020-06-06T13:09:46Z</time>
      </trkpt>
      <trkpt lat="44.66692" lon="6.05529">
        <ele>1208.51</ele>
        <time>2020-06-06T13:09:59Z</time>
      </trkpt>
      <trkpt lat="44.66691" lon="6.05543">
        <ele>1207.55</ele>
        <time>2020-06-06T13:10:09Z</time>
      </trkpt>
      <trkpt lat="44.66693" lon="6.05557">
        <ele>1206.59</ele>
        <time>2020-06-06T13:10:24Z</time>
      </trkpt>
      <trkpt lat="44.66692" lon="6.05558">
        <ele>1205.15</ele>
        <time>2020-06-06T13:10:26Z</time>
      </trkpt>
      <trkpt lat="44.66694" lon="6.05566">
        <ele>1204.19</ele>
        <time>2020-06-06T13:10:43Z</time>
      </trkpt>
      <trkpt lat="44.66693" lon="6.05568">
        <ele>1205.63</ele>
        <time>2020-06-06T13:10:55Z</time>
      </trkpt>
    </trkseg>
  </trk>
</gpx>